<?xml version="1.0" encoding="UTF-8" standalone="no" ?>
<gpx xmlns="http://www.topografix.com/GPX/1/1" xmlns:xsi="http://www.w3.org/2001/XMLSchema-instance" xsi:schemaLocation="http://www.topografix.com/GPX/1/1 http://www.topografix.com/GPX/1/1/gpx.xsd" version="1.1" creator="VisuGPX - https://www.visugpx.com">
  <metadata>
    <name>Descente de Pipay</name>
    <desc><![CDATA[Descente depuis la station de ski de Pipay , le 12 Mai 2013]]></desc>
  </metadata>
  <trk>
    <name><![CDATA[Descente de Pipay_1]]></name>
    <trkseg>
      <trkpt lat="45.26494" lon="6.01481">
        <ele>1616</ele>
        <time>2013-05-12T17:04:18.000Z</time>
      </trkpt>
      <trkpt lat="45.26485" lon="6.0148">
        <ele>1618</ele>
        <time>2013-05-12T17:04:34.000Z</time>
      </trkpt>
      <trkpt lat="45.26485" lon="6.0148">
        <ele>1618</ele>
        <time>2013-05-12T17:04:36.000Z</time>
      </trkpt>
      <trkpt lat="45.26481" lon="6.01485">
        <ele>1618</ele>
        <time>2013-05-12T17:04:38.000Z</time>
      </trkpt>
      <trkpt lat="45.26481" lon="6.01485">
        <ele>1618</ele>
        <time>2013-05-12T17:04:40.000Z</time>
      </trkpt>
      <trkpt lat="45.2647" lon="6.01491">
        <ele>1617</ele>
        <time>2013-05-12T17:04:42.000Z</time>
      </trkpt>
      <trkpt lat="45.26463" lon="6.01495">
        <ele>1617</ele>
        <time>2013-05-12T17:04:44.000Z</time>
      </trkpt>
      <trkpt lat="45.26457" lon="6.01501">
        <ele>1616</ele>
        <time>2013-05-12T17:04:46.000Z</time>
      </trkpt>
      <trkpt lat="45.26454" lon="6.01509">
        <ele>1615</ele>
        <time>2013-05-12T17:04:48.000Z</time>
      </trkpt>
      <trkpt lat="45.26454" lon="6.01509">
        <ele>1615</ele>
        <time>2013-05-12T17:04:50.000Z</time>
      </trkpt>
      <trkpt lat="45.26454" lon="6.01509">
        <ele>1615</ele>
        <time>2013-05-12T17:04:52.000Z</time>
      </trkpt>
      <trkpt lat="45.26467" lon="6.01513">
        <ele>1615</ele>
        <time>2013-05-12T17:04:54.000Z</time>
      </trkpt>
      <trkpt lat="45.26477" lon="6.0151">
        <ele>1614</ele>
        <time>2013-05-12T17:04:56.000Z</time>
      </trkpt>
      <trkpt lat="45.26487" lon="6.01508">
        <ele>1614</ele>
        <time>2013-05-12T17:04:58.000Z</time>
      </trkpt>
      <trkpt lat="45.26503" lon="6.01514">
        <ele>1614</ele>
        <time>2013-05-12T17:05:02.000Z</time>
      </trkpt>
      <trkpt lat="45.26511" lon="6.0152">
        <ele>1614</ele>
        <time>2013-05-12T17:05:04.000Z</time>
      </trkpt>
      <trkpt lat="45.26517" lon="6.01525">
        <ele>1614</ele>
        <time>2013-05-12T17:05:06.000Z</time>
      </trkpt>
      <trkpt lat="45.26517" lon="6.01525">
        <ele>1614</ele>
        <time>2013-05-12T17:05:08.000Z</time>
      </trkpt>
      <trkpt lat="45.26529" lon="6.01537">
        <ele>1614</ele>
        <time>2013-05-12T17:05:10.000Z</time>
      </trkpt>
      <trkpt lat="45.26529" lon="6.01537">
        <ele>1614</ele>
        <time>2013-05-12T17:05:12.000Z</time>
      </trkpt>
      <trkpt lat="45.26542" lon="6.01548">
        <ele>1614</ele>
        <time>2013-05-12T17:05:14.000Z</time>
      </trkpt>
      <trkpt lat="45.26557" lon="6.01557">
        <ele>1615</ele>
        <time>2013-05-12T17:05:18.000Z</time>
      </trkpt>
      <trkpt lat="45.26557" lon="6.01557">
        <ele>1615</ele>
        <time>2013-05-12T17:05:20.000Z</time>
      </trkpt>
      <trkpt lat="45.26568" lon="6.01557">
        <ele>1615</ele>
        <time>2013-05-12T17:05:22.000Z</time>
      </trkpt>
      <trkpt lat="45.26568" lon="6.01557">
        <ele>1615</ele>
        <time>2013-05-12T17:05:24.000Z</time>
      </trkpt>
      <trkpt lat="45.26566" lon="6.01541">
        <ele>1615</ele>
        <time>2013-05-12T17:05:26.000Z</time>
      </trkpt>
      <trkpt lat="45.2656" lon="6.01529">
        <ele>1615</ele>
        <time>2013-05-12T17:05:28.000Z</time>
      </trkpt>
      <trkpt lat="45.26551" lon="6.01517">
        <ele>1615</ele>
        <time>2013-05-12T17:05:30.000Z</time>
      </trkpt>
      <trkpt lat="45.26538" lon="6.01507">
        <ele>1615</ele>
        <time>2013-05-12T17:05:32.000Z</time>
      </trkpt>
      <trkpt lat="45.26528" lon="6.015">
        <ele>1615</ele>
        <time>2013-05-12T17:05:34.000Z</time>
      </trkpt>
      <trkpt lat="45.26516" lon="6.01493">
        <ele>1615</ele>
        <time>2013-05-12T17:05:36.000Z</time>
      </trkpt>
      <trkpt lat="45.26505" lon="6.01487">
        <ele>1615</ele>
        <time>2013-05-12T17:05:38.000Z</time>
      </trkpt>
      <trkpt lat="45.26495" lon="6.01485">
        <ele>1615</ele>
        <time>2013-05-12T17:05:40.000Z</time>
      </trkpt>
      <trkpt lat="45.26488" lon="6.01487">
        <ele>1615</ele>
        <time>2013-05-12T17:05:42.000Z</time>
      </trkpt>
      <trkpt lat="45.2648" lon="6.01489">
        <ele>1614</ele>
        <time>2013-05-12T17:05:44.000Z</time>
      </trkpt>
      <trkpt lat="45.26476" lon="6.01493">
        <ele>1612</ele>
        <time>2013-05-12T17:05:46.000Z</time>
      </trkpt>
      <trkpt lat="45.2647" lon="6.01495">
        <ele>1612</ele>
        <time>2013-05-12T17:05:48.000Z</time>
      </trkpt>
      <trkpt lat="45.26464" lon="6.01498">
        <ele>1613</ele>
        <time>2013-05-12T17:05:50.000Z</time>
      </trkpt>
      <trkpt lat="45.26459" lon="6.01501">
        <ele>1612</ele>
        <time>2013-05-12T17:05:52.000Z</time>
      </trkpt>
      <trkpt lat="45.26459" lon="6.01501">
        <ele>1612</ele>
        <time>2013-05-12T17:05:54.000Z</time>
      </trkpt>
      <trkpt lat="45.26459" lon="6.01501">
        <ele>1612</ele>
        <time>2013-05-12T17:05:56.000Z</time>
      </trkpt>
      <trkpt lat="45.26459" lon="6.01501">
        <ele>1612</ele>
        <time>2013-05-12T17:05:58.000Z</time>
      </trkpt>
      <trkpt lat="45.26456" lon="6.01509">
        <ele>1614</ele>
        <time>2013-05-12T17:06:28.000Z</time>
      </trkpt>
      <trkpt lat="45.26448" lon="6.01517">
        <ele>1613</ele>
        <time>2013-05-12T17:06:32.000Z</time>
      </trkpt>
      <trkpt lat="45.26444" lon="6.01523">
        <ele>1613</ele>
        <time>2013-05-12T17:06:34.000Z</time>
      </trkpt>
      <trkpt lat="45.26438" lon="6.0153">
        <ele>1612</ele>
        <time>2013-05-12T17:06:36.000Z</time>
      </trkpt>
      <trkpt lat="45.26432" lon="6.01539">
        <ele>1612</ele>
        <time>2013-05-12T17:06:38.000Z</time>
      </trkpt>
      <trkpt lat="45.26424" lon="6.01551">
        <ele>1614</ele>
        <time>2013-05-12T17:06:40.000Z</time>
      </trkpt>
      <trkpt lat="45.26419" lon="6.01562">
        <ele>1613</ele>
        <time>2013-05-12T17:06:42.000Z</time>
      </trkpt>
      <trkpt lat="45.26412" lon="6.01573">
        <ele>1613</ele>
        <time>2013-05-12T17:06:44.000Z</time>
      </trkpt>
      <trkpt lat="45.26404" lon="6.01581">
        <ele>1612</ele>
        <time>2013-05-12T17:06:46.000Z</time>
      </trkpt>
      <trkpt lat="45.26397" lon="6.01586">
        <ele>1612</ele>
        <time>2013-05-12T17:06:48.000Z</time>
      </trkpt>
      <trkpt lat="45.26388" lon="6.01588">
        <ele>1611</ele>
        <time>2013-05-12T17:06:50.000Z</time>
      </trkpt>
      <trkpt lat="45.2638" lon="6.01586">
        <ele>1610</ele>
        <time>2013-05-12T17:06:52.000Z</time>
      </trkpt>
      <trkpt lat="45.26376" lon="6.01574">
        <ele>1609</ele>
        <time>2013-05-12T17:06:54.000Z</time>
      </trkpt>
      <trkpt lat="45.2638" lon="6.01559">
        <ele>1609</ele>
        <time>2013-05-12T17:06:56.000Z</time>
      </trkpt>
      <trkpt lat="45.2639" lon="6.01546">
        <ele>1608</ele>
        <time>2013-05-12T17:06:58.000Z</time>
      </trkpt>
      <trkpt lat="45.26399" lon="6.01535">
        <ele>1607</ele>
        <time>2013-05-12T17:07:00.000Z</time>
      </trkpt>
      <trkpt lat="45.26411" lon="6.01523">
        <ele>1607</ele>
        <time>2013-05-12T17:07:02.000Z</time>
      </trkpt>
      <trkpt lat="45.26421" lon="6.01509">
        <ele>1607</ele>
        <time>2013-05-12T17:07:04.000Z</time>
      </trkpt>
      <trkpt lat="45.2643" lon="6.01494">
        <ele>1606</ele>
        <time>2013-05-12T17:07:06.000Z</time>
      </trkpt>
      <trkpt lat="45.2644" lon="6.01479">
        <ele>1606</ele>
        <time>2013-05-12T17:07:08.000Z</time>
      </trkpt>
      <trkpt lat="45.26452" lon="6.01467">
        <ele>1605</ele>
        <time>2013-05-12T17:07:10.000Z</time>
      </trkpt>
      <trkpt lat="45.26464" lon="6.01455">
        <ele>1604</ele>
        <time>2013-05-12T17:07:12.000Z</time>
      </trkpt>
      <trkpt lat="45.26478" lon="6.01447">
        <ele>1603</ele>
        <time>2013-05-12T17:07:14.000Z</time>
      </trkpt>
      <trkpt lat="45.26494" lon="6.01441">
        <ele>1602</ele>
        <time>2013-05-12T17:07:16.000Z</time>
      </trkpt>
      <trkpt lat="45.26511" lon="6.01438">
        <ele>1602</ele>
        <time>2013-05-12T17:07:18.000Z</time>
      </trkpt>
      <trkpt lat="45.26529" lon="6.01439">
        <ele>1602</ele>
        <time>2013-05-12T17:07:20.000Z</time>
      </trkpt>
      <trkpt lat="45.26546" lon="6.01442">
        <ele>1601</ele>
        <time>2013-05-12T17:07:22.000Z</time>
      </trkpt>
      <trkpt lat="45.26564" lon="6.01442">
        <ele>1601</ele>
        <time>2013-05-12T17:07:24.000Z</time>
      </trkpt>
      <trkpt lat="45.2658" lon="6.01438">
        <ele>1600</ele>
        <time>2013-05-12T17:07:26.000Z</time>
      </trkpt>
      <trkpt lat="45.26598" lon="6.01431">
        <ele>1598</ele>
        <time>2013-05-12T17:07:28.000Z</time>
      </trkpt>
      <trkpt lat="45.26615" lon="6.01419">
        <ele>1597</ele>
        <time>2013-05-12T17:07:30.000Z</time>
      </trkpt>
      <trkpt lat="45.26626" lon="6.01398">
        <ele>1595</ele>
        <time>2013-05-12T17:07:32.000Z</time>
      </trkpt>
      <trkpt lat="45.26637" lon="6.01375">
        <ele>1593</ele>
        <time>2013-05-12T17:07:34.000Z</time>
      </trkpt>
      <trkpt lat="45.26649" lon="6.01354">
        <ele>1591</ele>
        <time>2013-05-12T17:07:36.000Z</time>
      </trkpt>
      <trkpt lat="45.26662" lon="6.01333">
        <ele>1589</ele>
        <time>2013-05-12T17:07:38.000Z</time>
      </trkpt>
      <trkpt lat="45.26676" lon="6.01314">
        <ele>1587</ele>
        <time>2013-05-12T17:07:40.000Z</time>
      </trkpt>
      <trkpt lat="45.26692" lon="6.01298">
        <ele>1586</ele>
        <time>2013-05-12T17:07:42.000Z</time>
      </trkpt>
      <trkpt lat="45.26711" lon="6.01284">
        <ele>1584</ele>
        <time>2013-05-12T17:07:44.000Z</time>
      </trkpt>
      <trkpt lat="45.26729" lon="6.01272">
        <ele>1582</ele>
        <time>2013-05-12T17:07:46.000Z</time>
      </trkpt>
      <trkpt lat="45.26748" lon="6.0126">
        <ele>1582</ele>
        <time>2013-05-12T17:07:48.000Z</time>
      </trkpt>
      <trkpt lat="45.26768" lon="6.0125">
        <ele>1581</ele>
        <time>2013-05-12T17:07:50.000Z</time>
      </trkpt>
      <trkpt lat="45.26788" lon="6.0124">
        <ele>1579</ele>
        <time>2013-05-12T17:07:52.000Z</time>
      </trkpt>
      <trkpt lat="45.26807" lon="6.01231">
        <ele>1576</ele>
        <time>2013-05-12T17:07:54.000Z</time>
      </trkpt>
      <trkpt lat="45.26825" lon="6.01225">
        <ele>1574</ele>
        <time>2013-05-12T17:07:56.000Z</time>
      </trkpt>
      <trkpt lat="45.26845" lon="6.01228">
        <ele>1573</ele>
        <time>2013-05-12T17:07:58.000Z</time>
      </trkpt>
      <trkpt lat="45.26865" lon="6.01238">
        <ele>1572</ele>
        <time>2013-05-12T17:08:00.000Z</time>
      </trkpt>
      <trkpt lat="45.26882" lon="6.01254">
        <ele>1571</ele>
        <time>2013-05-12T17:08:02.000Z</time>
      </trkpt>
      <trkpt lat="45.26899" lon="6.01271">
        <ele>1570</ele>
        <time>2013-05-12T17:08:04.000Z</time>
      </trkpt>
      <trkpt lat="45.26913" lon="6.01288">
        <ele>1569</ele>
        <time>2013-05-12T17:08:06.000Z</time>
      </trkpt>
      <trkpt lat="45.26928" lon="6.01306">
        <ele>1568</ele>
        <time>2013-05-12T17:08:08.000Z</time>
      </trkpt>
      <trkpt lat="45.26941" lon="6.01322">
        <ele>1567</ele>
        <time>2013-05-12T17:08:10.000Z</time>
      </trkpt>
      <trkpt lat="45.26955" lon="6.01334">
        <ele>1565</ele>
        <time>2013-05-12T17:08:12.000Z</time>
      </trkpt>
      <trkpt lat="45.26975" lon="6.01341">
        <ele>1564</ele>
        <time>2013-05-12T17:08:14.000Z</time>
      </trkpt>
      <trkpt lat="45.26992" lon="6.01343">
        <ele>1562</ele>
        <time>2013-05-12T17:08:16.000Z</time>
      </trkpt>
      <trkpt lat="45.27028" lon="6.0134">
        <ele>1560</ele>
        <time>2013-05-12T17:08:19.000Z</time>
      </trkpt>
      <trkpt lat="45.27049" lon="6.01345">
        <ele>1559</ele>
        <time>2013-05-12T17:08:21.000Z</time>
      </trkpt>
      <trkpt lat="45.27069" lon="6.01356">
        <ele>1558</ele>
        <time>2013-05-12T17:08:23.000Z</time>
      </trkpt>
      <trkpt lat="45.27088" lon="6.01376">
        <ele>1552</ele>
        <time>2013-05-12T17:08:25.000Z</time>
      </trkpt>
      <trkpt lat="45.27105" lon="6.01403">
        <ele>1544</ele>
        <time>2013-05-12T17:08:27.000Z</time>
      </trkpt>
      <trkpt lat="45.27119" lon="6.01431">
        <ele>1539</ele>
        <time>2013-05-12T17:08:29.000Z</time>
      </trkpt>
      <trkpt lat="45.27134" lon="6.01458">
        <ele>1537</ele>
        <time>2013-05-12T17:08:31.000Z</time>
      </trkpt>
      <trkpt lat="45.27152" lon="6.01482">
        <ele>1535</ele>
        <time>2013-05-12T17:08:33.000Z</time>
      </trkpt>
      <trkpt lat="45.27172" lon="6.01505">
        <ele>1534</ele>
        <time>2013-05-12T17:08:35.000Z</time>
      </trkpt>
      <trkpt lat="45.27187" lon="6.0153">
        <ele>1533</ele>
        <time>2013-05-12T17:08:37.000Z</time>
      </trkpt>
      <trkpt lat="45.27199" lon="6.01557">
        <ele>1531</ele>
        <time>2013-05-12T17:08:39.000Z</time>
      </trkpt>
      <trkpt lat="45.27198" lon="6.01588">
        <ele>1528</ele>
        <time>2013-05-12T17:08:41.000Z</time>
      </trkpt>
      <trkpt lat="45.27184" lon="6.0164">
        <ele>1522</ele>
        <time>2013-05-12T17:08:44.000Z</time>
      </trkpt>
      <trkpt lat="45.27185" lon="6.01671">
        <ele>1522</ele>
        <time>2013-05-12T17:08:46.000Z</time>
      </trkpt>
      <trkpt lat="45.27189" lon="6.01699">
        <ele>1521</ele>
        <time>2013-05-12T17:08:48.000Z</time>
      </trkpt>
      <trkpt lat="45.27198" lon="6.01725">
        <ele>1520</ele>
        <time>2013-05-12T17:08:50.000Z</time>
      </trkpt>
      <trkpt lat="45.27211" lon="6.01749">
        <ele>1520</ele>
        <time>2013-05-12T17:08:52.000Z</time>
      </trkpt>
      <trkpt lat="45.27221" lon="6.01772">
        <ele>1520</ele>
        <time>2013-05-12T17:08:54.000Z</time>
      </trkpt>
      <trkpt lat="45.27227" lon="6.01795">
        <ele>1519</ele>
        <time>2013-05-12T17:08:56.000Z</time>
      </trkpt>
      <trkpt lat="45.27233" lon="6.01815">
        <ele>1518</ele>
        <time>2013-05-12T17:08:58.000Z</time>
      </trkpt>
      <trkpt lat="45.27235" lon="6.0183">
        <ele>1520</ele>
        <time>2013-05-12T17:09:00.000Z</time>
      </trkpt>
      <trkpt lat="45.27235" lon="6.0183">
        <ele>1520</ele>
        <time>2013-05-12T17:09:02.000Z</time>
      </trkpt>
      <trkpt lat="45.27248" lon="6.01834">
        <ele>1518</ele>
        <time>2013-05-12T17:09:04.000Z</time>
      </trkpt>
      <trkpt lat="45.27266" lon="6.01813">
        <ele>1519</ele>
        <time>2013-05-12T17:09:07.000Z</time>
      </trkpt>
      <trkpt lat="45.27273" lon="6.01793">
        <ele>1519</ele>
        <time>2013-05-12T17:09:09.000Z</time>
      </trkpt>
      <trkpt lat="45.2727" lon="6.01773">
        <ele>1518</ele>
        <time>2013-05-12T17:09:11.000Z</time>
      </trkpt>
      <trkpt lat="45.2726" lon="6.01751">
        <ele>1519</ele>
        <time>2013-05-12T17:09:13.000Z</time>
      </trkpt>
      <trkpt lat="45.27254" lon="6.01727">
        <ele>1519</ele>
        <time>2013-05-12T17:09:15.000Z</time>
      </trkpt>
      <trkpt lat="45.27247" lon="6.017">
        <ele>1518</ele>
        <time>2013-05-12T17:09:17.000Z</time>
      </trkpt>
      <trkpt lat="45.2724" lon="6.01673">
        <ele>1518</ele>
        <time>2013-05-12T17:09:19.000Z</time>
      </trkpt>
      <trkpt lat="45.27232" lon="6.01645">
        <ele>1516</ele>
        <time>2013-05-12T17:09:21.000Z</time>
      </trkpt>
      <trkpt lat="45.27226" lon="6.01616">
        <ele>1514</ele>
        <time>2013-05-12T17:09:23.000Z</time>
      </trkpt>
      <trkpt lat="45.27223" lon="6.01587">
        <ele>1513</ele>
        <time>2013-05-12T17:09:25.000Z</time>
      </trkpt>
      <trkpt lat="45.27219" lon="6.01557">
        <ele>1512</ele>
        <time>2013-05-12T17:09:27.000Z</time>
      </trkpt>
      <trkpt lat="45.27215" lon="6.01528">
        <ele>1510</ele>
        <time>2013-05-12T17:09:29.000Z</time>
      </trkpt>
      <trkpt lat="45.27211" lon="6.01497">
        <ele>1508</ele>
        <time>2013-05-12T17:09:31.000Z</time>
      </trkpt>
      <trkpt lat="45.27209" lon="6.01465">
        <ele>1505</ele>
        <time>2013-05-12T17:09:33.000Z</time>
      </trkpt>
      <trkpt lat="45.27206" lon="6.01433">
        <ele>1504</ele>
        <time>2013-05-12T17:09:35.000Z</time>
      </trkpt>
      <trkpt lat="45.27202" lon="6.01402">
        <ele>1503</ele>
        <time>2013-05-12T17:09:37.000Z</time>
      </trkpt>
      <trkpt lat="45.27198" lon="6.01371">
        <ele>1501</ele>
        <time>2013-05-12T17:09:39.000Z</time>
      </trkpt>
      <trkpt lat="45.27195" lon="6.01337">
        <ele>1498</ele>
        <time>2013-05-12T17:09:41.000Z</time>
      </trkpt>
      <trkpt lat="45.2719" lon="6.01303">
        <ele>1495</ele>
        <time>2013-05-12T17:09:43.000Z</time>
      </trkpt>
      <trkpt lat="45.27183" lon="6.01272">
        <ele>1492</ele>
        <time>2013-05-12T17:09:45.000Z</time>
      </trkpt>
      <trkpt lat="45.27177" lon="6.01245">
        <ele>1488</ele>
        <time>2013-05-12T17:09:47.000Z</time>
      </trkpt>
      <trkpt lat="45.27168" lon="6.01217">
        <ele>1485</ele>
        <time>2013-05-12T17:09:49.000Z</time>
      </trkpt>
      <trkpt lat="45.27155" lon="6.0119">
        <ele>1482</ele>
        <time>2013-05-12T17:09:51.000Z</time>
      </trkpt>
      <trkpt lat="45.27141" lon="6.01165">
        <ele>1480</ele>
        <time>2013-05-12T17:09:53.000Z</time>
      </trkpt>
      <trkpt lat="45.27126" lon="6.01145">
        <ele>1478</ele>
        <time>2013-05-12T17:09:55.000Z</time>
      </trkpt>
      <trkpt lat="45.27108" lon="6.01127">
        <ele>1477</ele>
        <time>2013-05-12T17:09:57.000Z</time>
      </trkpt>
      <trkpt lat="45.2709" lon="6.01112">
        <ele>1476</ele>
        <time>2013-05-12T17:09:59.000Z</time>
      </trkpt>
      <trkpt lat="45.27071" lon="6.01103">
        <ele>1475</ele>
        <time>2013-05-12T17:10:01.000Z</time>
      </trkpt>
      <trkpt lat="45.27049" lon="6.01097">
        <ele>1473</ele>
        <time>2013-05-12T17:10:03.000Z</time>
      </trkpt>
      <trkpt lat="45.27027" lon="6.01099">
        <ele>1471</ele>
        <time>2013-05-12T17:10:05.000Z</time>
      </trkpt>
      <trkpt lat="45.26991" lon="6.01079">
        <ele>1470</ele>
        <time>2013-05-12T17:10:09.000Z</time>
      </trkpt>
      <trkpt lat="45.26974" lon="6.01057">
        <ele>1469</ele>
        <time>2013-05-12T17:10:11.000Z</time>
      </trkpt>
      <trkpt lat="45.26957" lon="6.01033">
        <ele>1467</ele>
        <time>2013-05-12T17:10:13.000Z</time>
      </trkpt>
      <trkpt lat="45.26937" lon="6.01005">
        <ele>1466</ele>
        <time>2013-05-12T17:10:15.000Z</time>
      </trkpt>
      <trkpt lat="45.26918" lon="6.00978">
        <ele>1463</ele>
        <time>2013-05-12T17:10:17.000Z</time>
      </trkpt>
      <trkpt lat="45.26903" lon="6.00915">
        <ele>1459</ele>
        <time>2013-05-12T17:10:23.000Z</time>
      </trkpt>
      <trkpt lat="45.26876" lon="6.00892">
        <ele>1458</ele>
        <time>2013-05-12T17:10:26.000Z</time>
      </trkpt>
      <trkpt lat="45.26855" lon="6.00888">
        <ele>1458</ele>
        <time>2013-05-12T17:10:28.000Z</time>
      </trkpt>
      <trkpt lat="45.26833" lon="6.00889">
        <ele>1457</ele>
        <time>2013-05-12T17:10:30.000Z</time>
      </trkpt>
      <trkpt lat="45.26808" lon="6.00893">
        <ele>1456</ele>
        <time>2013-05-12T17:10:32.000Z</time>
      </trkpt>
      <trkpt lat="45.26786" lon="6.00893">
        <ele>1456</ele>
        <time>2013-05-12T17:10:34.000Z</time>
      </trkpt>
      <trkpt lat="45.26763" lon="6.00897">
        <ele>1455</ele>
        <time>2013-05-12T17:10:36.000Z</time>
      </trkpt>
      <trkpt lat="45.26741" lon="6.009">
        <ele>1453</ele>
        <time>2013-05-12T17:10:38.000Z</time>
      </trkpt>
      <trkpt lat="45.2672" lon="6.00903">
        <ele>1452</ele>
        <time>2013-05-12T17:10:40.000Z</time>
      </trkpt>
      <trkpt lat="45.26702" lon="6.0091">
        <ele>1451</ele>
        <time>2013-05-12T17:10:42.000Z</time>
      </trkpt>
      <trkpt lat="45.26685" lon="6.00921">
        <ele>1450</ele>
        <time>2013-05-12T17:10:44.000Z</time>
      </trkpt>
      <trkpt lat="45.26671" lon="6.0093">
        <ele>1448</ele>
        <time>2013-05-12T17:10:46.000Z</time>
      </trkpt>
      <trkpt lat="45.26659" lon="6.0093">
        <ele>1446</ele>
        <time>2013-05-12T17:10:48.000Z</time>
      </trkpt>
      <trkpt lat="45.26653" lon="6.00918">
        <ele>1443</ele>
        <time>2013-05-12T17:10:50.000Z</time>
      </trkpt>
      <trkpt lat="45.26655" lon="6.009">
        <ele>1435</ele>
        <time>2013-05-12T17:10:52.000Z</time>
      </trkpt>
      <trkpt lat="45.26668" lon="6.00891">
        <ele>1431</ele>
        <time>2013-05-12T17:10:54.000Z</time>
      </trkpt>
      <trkpt lat="45.26684" lon="6.00886">
        <ele>1429</ele>
        <time>2013-05-12T17:10:56.000Z</time>
      </trkpt>
      <trkpt lat="45.26701" lon="6.0088">
        <ele>1427</ele>
        <time>2013-05-12T17:10:58.000Z</time>
      </trkpt>
      <trkpt lat="45.26718" lon="6.0087">
        <ele>1425</ele>
        <time>2013-05-12T17:11:00.000Z</time>
      </trkpt>
      <trkpt lat="45.26735" lon="6.00856">
        <ele>1423</ele>
        <time>2013-05-12T17:11:02.000Z</time>
      </trkpt>
      <trkpt lat="45.26753" lon="6.00841">
        <ele>1422</ele>
        <time>2013-05-12T17:11:04.000Z</time>
      </trkpt>
      <trkpt lat="45.26771" lon="6.00824">
        <ele>1419</ele>
        <time>2013-05-12T17:11:06.000Z</time>
      </trkpt>
      <trkpt lat="45.26789" lon="6.00808">
        <ele>1417</ele>
        <time>2013-05-12T17:11:08.000Z</time>
      </trkpt>
      <trkpt lat="45.26809" lon="6.00796">
        <ele>1416</ele>
        <time>2013-05-12T17:11:10.000Z</time>
      </trkpt>
      <trkpt lat="45.26829" lon="6.00793">
        <ele>1415</ele>
        <time>2013-05-12T17:11:12.000Z</time>
      </trkpt>
      <trkpt lat="45.26846" lon="6.00801">
        <ele>1414</ele>
        <time>2013-05-12T17:11:14.000Z</time>
      </trkpt>
      <trkpt lat="45.26862" lon="6.00807">
        <ele>1412</ele>
        <time>2013-05-12T17:11:16.000Z</time>
      </trkpt>
      <trkpt lat="45.26876" lon="6.00808">
        <ele>1411</ele>
        <time>2013-05-12T17:11:18.000Z</time>
      </trkpt>
      <trkpt lat="45.26888" lon="6.00804">
        <ele>1410</ele>
        <time>2013-05-12T17:11:20.000Z</time>
      </trkpt>
      <trkpt lat="45.26891" lon="6.0079">
        <ele>1409</ele>
        <time>2013-05-12T17:11:22.000Z</time>
      </trkpt>
      <trkpt lat="45.26884" lon="6.00774">
        <ele>1409</ele>
        <time>2013-05-12T17:11:24.000Z</time>
      </trkpt>
      <trkpt lat="45.26871" lon="6.00766">
        <ele>1408</ele>
        <time>2013-05-12T17:11:26.000Z</time>
      </trkpt>
      <trkpt lat="45.26856" lon="6.0076">
        <ele>1407</ele>
        <time>2013-05-12T17:11:28.000Z</time>
      </trkpt>
      <trkpt lat="45.26841" lon="6.00756">
        <ele>1406</ele>
        <time>2013-05-12T17:11:30.000Z</time>
      </trkpt>
      <trkpt lat="45.26826" lon="6.00752">
        <ele>1405</ele>
        <time>2013-05-12T17:11:32.000Z</time>
      </trkpt>
      <trkpt lat="45.26812" lon="6.0075">
        <ele>1404</ele>
        <time>2013-05-12T17:11:34.000Z</time>
      </trkpt>
      <trkpt lat="45.268" lon="6.00749">
        <ele>1404</ele>
        <time>2013-05-12T17:11:36.000Z</time>
      </trkpt>
      <trkpt lat="45.26791" lon="6.00749">
        <ele>1401</ele>
        <time>2013-05-12T17:11:38.000Z</time>
      </trkpt>
      <trkpt lat="45.26783" lon="6.0075">
        <ele>1401</ele>
        <time>2013-05-12T17:11:40.000Z</time>
      </trkpt>
      <trkpt lat="45.26783" lon="6.0075">
        <ele>1401</ele>
        <time>2013-05-12T17:11:42.000Z</time>
      </trkpt>
      <trkpt lat="45.26783" lon="6.0075">
        <ele>1401</ele>
        <time>2013-05-12T17:11:44.000Z</time>
      </trkpt>
      <trkpt lat="45.26783" lon="6.0075">
        <ele>1401</ele>
        <time>2013-05-12T17:11:46.000Z</time>
      </trkpt>
      <trkpt lat="45.26776" lon="6.00761">
        <ele>1401</ele>
        <time>2013-05-12T17:13:35.000Z</time>
      </trkpt>
      <trkpt lat="45.26767" lon="6.00764">
        <ele>1401</ele>
        <time>2013-05-12T17:13:39.000Z</time>
      </trkpt>
      <trkpt lat="45.26759" lon="6.00765">
        <ele>1401</ele>
        <time>2013-05-12T17:13:41.000Z</time>
      </trkpt>
      <trkpt lat="45.26748" lon="6.00767">
        <ele>1400</ele>
        <time>2013-05-12T17:13:43.000Z</time>
      </trkpt>
      <trkpt lat="45.26736" lon="6.00769">
        <ele>1399</ele>
        <time>2013-05-12T17:13:45.000Z</time>
      </trkpt>
      <trkpt lat="45.26723" lon="6.00773">
        <ele>1398</ele>
        <time>2013-05-12T17:13:47.000Z</time>
      </trkpt>
      <trkpt lat="45.2671" lon="6.00778">
        <ele>1399</ele>
        <time>2013-05-12T17:13:49.000Z</time>
      </trkpt>
      <trkpt lat="45.26694" lon="6.00779">
        <ele>1398</ele>
        <time>2013-05-12T17:13:51.000Z</time>
      </trkpt>
      <trkpt lat="45.26677" lon="6.00779">
        <ele>1398</ele>
        <time>2013-05-12T17:13:53.000Z</time>
      </trkpt>
      <trkpt lat="45.26658" lon="6.00777">
        <ele>1397</ele>
        <time>2013-05-12T17:13:55.000Z</time>
      </trkpt>
      <trkpt lat="45.26643" lon="6.00781">
        <ele>1397</ele>
        <time>2013-05-12T17:13:57.000Z</time>
      </trkpt>
      <trkpt lat="45.26628" lon="6.00787">
        <ele>1397</ele>
        <time>2013-05-12T17:13:59.000Z</time>
      </trkpt>
      <trkpt lat="45.26616" lon="6.00791">
        <ele>1396</ele>
        <time>2013-05-12T17:14:01.000Z</time>
      </trkpt>
      <trkpt lat="45.26604" lon="6.00783">
        <ele>1396</ele>
        <time>2013-05-12T17:14:03.000Z</time>
      </trkpt>
      <trkpt lat="45.26608" lon="6.00761">
        <ele>1393</ele>
        <time>2013-05-12T17:14:05.000Z</time>
      </trkpt>
      <trkpt lat="45.26618" lon="6.00747">
        <ele>1392</ele>
        <time>2013-05-12T17:14:07.000Z</time>
      </trkpt>
      <trkpt lat="45.26631" lon="6.00744">
        <ele>1392</ele>
        <time>2013-05-12T17:14:09.000Z</time>
      </trkpt>
      <trkpt lat="45.26646" lon="6.0074">
        <ele>1392</ele>
        <time>2013-05-12T17:14:11.000Z</time>
      </trkpt>
      <trkpt lat="45.26665" lon="6.00731">
        <ele>1389</ele>
        <time>2013-05-12T17:14:13.000Z</time>
      </trkpt>
      <trkpt lat="45.26681" lon="6.00719">
        <ele>1386</ele>
        <time>2013-05-12T17:14:15.000Z</time>
      </trkpt>
      <trkpt lat="45.26695" lon="6.00702">
        <ele>1383</ele>
        <time>2013-05-12T17:14:17.000Z</time>
      </trkpt>
      <trkpt lat="45.26706" lon="6.0068">
        <ele>1380</ele>
        <time>2013-05-12T17:14:19.000Z</time>
      </trkpt>
      <trkpt lat="45.26716" lon="6.00655">
        <ele>1378</ele>
        <time>2013-05-12T17:14:21.000Z</time>
      </trkpt>
      <trkpt lat="45.26728" lon="6.00636">
        <ele>1375</ele>
        <time>2013-05-12T17:14:23.000Z</time>
      </trkpt>
      <trkpt lat="45.26742" lon="6.00621">
        <ele>1373</ele>
        <time>2013-05-12T17:14:25.000Z</time>
      </trkpt>
      <trkpt lat="45.2676" lon="6.00614">
        <ele>1372</ele>
        <time>2013-05-12T17:14:27.000Z</time>
      </trkpt>
      <trkpt lat="45.26779" lon="6.00617">
        <ele>1371</ele>
        <time>2013-05-12T17:14:29.000Z</time>
      </trkpt>
      <trkpt lat="45.26799" lon="6.00625">
        <ele>1370</ele>
        <time>2013-05-12T17:14:31.000Z</time>
      </trkpt>
      <trkpt lat="45.2682" lon="6.00635">
        <ele>1369</ele>
        <time>2013-05-12T17:14:33.000Z</time>
      </trkpt>
      <trkpt lat="45.2684" lon="6.00645">
        <ele>1367</ele>
        <time>2013-05-12T17:14:35.000Z</time>
      </trkpt>
      <trkpt lat="45.26861" lon="6.00655">
        <ele>1366</ele>
        <time>2013-05-12T17:14:37.000Z</time>
      </trkpt>
      <trkpt lat="45.26882" lon="6.00663">
        <ele>1365</ele>
        <time>2013-05-12T17:14:39.000Z</time>
      </trkpt>
      <trkpt lat="45.26903" lon="6.00669">
        <ele>1364</ele>
        <time>2013-05-12T17:14:41.000Z</time>
      </trkpt>
      <trkpt lat="45.26925" lon="6.00676">
        <ele>1362</ele>
        <time>2013-05-12T17:14:43.000Z</time>
      </trkpt>
      <trkpt lat="45.26946" lon="6.00684">
        <ele>1361</ele>
        <time>2013-05-12T17:14:45.000Z</time>
      </trkpt>
      <trkpt lat="45.26967" lon="6.00697">
        <ele>1358</ele>
        <time>2013-05-12T17:14:47.000Z</time>
      </trkpt>
      <trkpt lat="45.26986" lon="6.00714">
        <ele>1356</ele>
        <time>2013-05-12T17:14:49.000Z</time>
      </trkpt>
      <trkpt lat="45.27007" lon="6.00734">
        <ele>1355</ele>
        <time>2013-05-12T17:14:51.000Z</time>
      </trkpt>
      <trkpt lat="45.27026" lon="6.00755">
        <ele>1354</ele>
        <time>2013-05-12T17:14:53.000Z</time>
      </trkpt>
      <trkpt lat="45.27045" lon="6.00777">
        <ele>1352</ele>
        <time>2013-05-12T17:14:55.000Z</time>
      </trkpt>
      <trkpt lat="45.27061" lon="6.00799">
        <ele>1351</ele>
        <time>2013-05-12T17:14:57.000Z</time>
      </trkpt>
      <trkpt lat="45.27075" lon="6.00821">
        <ele>1349</ele>
        <time>2013-05-12T17:14:59.000Z</time>
      </trkpt>
      <trkpt lat="45.27087" lon="6.00841">
        <ele>1347</ele>
        <time>2013-05-12T17:15:01.000Z</time>
      </trkpt>
      <trkpt lat="45.27098" lon="6.00854">
        <ele>1346</ele>
        <time>2013-05-12T17:15:03.000Z</time>
      </trkpt>
      <trkpt lat="45.27163" lon="6.00866">
        <ele>1340</ele>
        <time>2013-05-12T17:15:08.000Z</time>
      </trkpt>
      <trkpt lat="45.27187" lon="6.00871">
        <ele>1338</ele>
        <time>2013-05-12T17:15:10.000Z</time>
      </trkpt>
      <trkpt lat="45.27206" lon="6.00877">
        <ele>1335</ele>
        <time>2013-05-12T17:15:12.000Z</time>
      </trkpt>
      <trkpt lat="45.27226" lon="6.00883">
        <ele>1332</ele>
        <time>2013-05-12T17:15:14.000Z</time>
      </trkpt>
      <trkpt lat="45.27245" lon="6.00891">
        <ele>1330</ele>
        <time>2013-05-12T17:15:16.000Z</time>
      </trkpt>
      <trkpt lat="45.27265" lon="6.00897">
        <ele>1331</ele>
        <time>2013-05-12T17:15:18.000Z</time>
      </trkpt>
      <trkpt lat="45.27282" lon="6.00898">
        <ele>1328</ele>
        <time>2013-05-12T17:15:20.000Z</time>
      </trkpt>
      <trkpt lat="45.2729" lon="6.00879">
        <ele>1325</ele>
        <time>2013-05-12T17:15:23.000Z</time>
      </trkpt>
      <trkpt lat="45.27256" lon="6.00852">
        <ele>1322</ele>
        <time>2013-05-12T17:15:27.000Z</time>
      </trkpt>
      <trkpt lat="45.2724" lon="6.00843">
        <ele>1321</ele>
        <time>2013-05-12T17:15:29.000Z</time>
      </trkpt>
      <trkpt lat="45.27224" lon="6.00836">
        <ele>1321</ele>
        <time>2013-05-12T17:15:31.000Z</time>
      </trkpt>
      <trkpt lat="45.27207" lon="6.00829">
        <ele>1321</ele>
        <time>2013-05-12T17:15:33.000Z</time>
      </trkpt>
      <trkpt lat="45.27189" lon="6.00818">
        <ele>1320</ele>
        <time>2013-05-12T17:15:35.000Z</time>
      </trkpt>
      <trkpt lat="45.27171" lon="6.00805">
        <ele>1320</ele>
        <time>2013-05-12T17:15:37.000Z</time>
      </trkpt>
      <trkpt lat="45.27152" lon="6.00793">
        <ele>1319</ele>
        <time>2013-05-12T17:15:39.000Z</time>
      </trkpt>
      <trkpt lat="45.27132" lon="6.00779">
        <ele>1318</ele>
        <time>2013-05-12T17:15:41.000Z</time>
      </trkpt>
      <trkpt lat="45.27113" lon="6.00761">
        <ele>1317</ele>
        <time>2013-05-12T17:15:43.000Z</time>
      </trkpt>
      <trkpt lat="45.27096" lon="6.00739">
        <ele>1317</ele>
        <time>2013-05-12T17:15:45.000Z</time>
      </trkpt>
      <trkpt lat="45.2708" lon="6.00714">
        <ele>1317</ele>
        <time>2013-05-12T17:15:47.000Z</time>
      </trkpt>
      <trkpt lat="45.27063" lon="6.0069">
        <ele>1316</ele>
        <time>2013-05-12T17:15:49.000Z</time>
      </trkpt>
      <trkpt lat="45.27047" lon="6.00665">
        <ele>1314</ele>
        <time>2013-05-12T17:15:51.000Z</time>
      </trkpt>
      <trkpt lat="45.2703" lon="6.0064">
        <ele>1313</ele>
        <time>2013-05-12T17:15:53.000Z</time>
      </trkpt>
      <trkpt lat="45.27012" lon="6.00617">
        <ele>1311</ele>
        <time>2013-05-12T17:15:55.000Z</time>
      </trkpt>
      <trkpt lat="45.26994" lon="6.00595">
        <ele>1310</ele>
        <time>2013-05-12T17:15:57.000Z</time>
      </trkpt>
      <trkpt lat="45.26975" lon="6.00575">
        <ele>1308</ele>
        <time>2013-05-12T17:15:59.000Z</time>
      </trkpt>
      <trkpt lat="45.26956" lon="6.00557">
        <ele>1306</ele>
        <time>2013-05-12T17:16:01.000Z</time>
      </trkpt>
      <trkpt lat="45.26936" lon="6.00541">
        <ele>1304</ele>
        <time>2013-05-12T17:16:03.000Z</time>
      </trkpt>
      <trkpt lat="45.26915" lon="6.00529">
        <ele>1303</ele>
        <time>2013-05-12T17:16:05.000Z</time>
      </trkpt>
      <trkpt lat="45.26893" lon="6.00519">
        <ele>1301</ele>
        <time>2013-05-12T17:16:07.000Z</time>
      </trkpt>
      <trkpt lat="45.26873" lon="6.00503">
        <ele>1300</ele>
        <time>2013-05-12T17:16:09.000Z</time>
      </trkpt>
      <trkpt lat="45.26854" lon="6.00482">
        <ele>1299</ele>
        <time>2013-05-12T17:16:11.000Z</time>
      </trkpt>
      <trkpt lat="45.26836" lon="6.00462">
        <ele>1297</ele>
        <time>2013-05-12T17:16:13.000Z</time>
      </trkpt>
      <trkpt lat="45.2682" lon="6.00443">
        <ele>1293</ele>
        <time>2013-05-12T17:16:15.000Z</time>
      </trkpt>
      <trkpt lat="45.26804" lon="6.00426">
        <ele>1287</ele>
        <time>2013-05-12T17:16:17.000Z</time>
      </trkpt>
      <trkpt lat="45.26788" lon="6.00417">
        <ele>1285</ele>
        <time>2013-05-12T17:16:19.000Z</time>
      </trkpt>
      <trkpt lat="45.26776" lon="6.00406">
        <ele>1285</ele>
        <time>2013-05-12T17:16:21.000Z</time>
      </trkpt>
      <trkpt lat="45.26771" lon="6.00391">
        <ele>1282</ele>
        <time>2013-05-12T17:16:23.000Z</time>
      </trkpt>
      <trkpt lat="45.26778" lon="6.00378">
        <ele>1280</ele>
        <time>2013-05-12T17:16:25.000Z</time>
      </trkpt>
      <trkpt lat="45.26815" lon="6.00398">
        <ele>1277</ele>
        <time>2013-05-12T17:16:29.000Z</time>
      </trkpt>
      <trkpt lat="45.26829" lon="6.00412">
        <ele>1276</ele>
        <time>2013-05-12T17:16:31.000Z</time>
      </trkpt>
      <trkpt lat="45.26842" lon="6.00425">
        <ele>1275</ele>
        <time>2013-05-12T17:16:33.000Z</time>
      </trkpt>
      <trkpt lat="45.26857" lon="6.00438">
        <ele>1274</ele>
        <time>2013-05-12T17:16:35.000Z</time>
      </trkpt>
      <trkpt lat="45.26873" lon="6.00449">
        <ele>1273</ele>
        <time>2013-05-12T17:16:37.000Z</time>
      </trkpt>
      <trkpt lat="45.2689" lon="6.00462">
        <ele>1272</ele>
        <time>2013-05-12T17:16:39.000Z</time>
      </trkpt>
      <trkpt lat="45.26908" lon="6.00472">
        <ele>1271</ele>
        <time>2013-05-12T17:16:41.000Z</time>
      </trkpt>
      <trkpt lat="45.26929" lon="6.00477">
        <ele>1270</ele>
        <time>2013-05-12T17:16:43.000Z</time>
      </trkpt>
      <trkpt lat="45.26951" lon="6.00476">
        <ele>1269</ele>
        <time>2013-05-12T17:16:45.000Z</time>
      </trkpt>
      <trkpt lat="45.26973" lon="6.00477">
        <ele>1269</ele>
        <time>2013-05-12T17:16:47.000Z</time>
      </trkpt>
      <trkpt lat="45.26994" lon="6.00483">
        <ele>1268</ele>
        <time>2013-05-12T17:16:49.000Z</time>
      </trkpt>
      <trkpt lat="45.27015" lon="6.00491">
        <ele>1267</ele>
        <time>2013-05-12T17:16:51.000Z</time>
      </trkpt>
      <trkpt lat="45.27037" lon="6.00503">
        <ele>1264</ele>
        <time>2013-05-12T17:16:53.000Z</time>
      </trkpt>
      <trkpt lat="45.27058" lon="6.00516">
        <ele>1262</ele>
        <time>2013-05-12T17:16:55.000Z</time>
      </trkpt>
      <trkpt lat="45.27078" lon="6.0053">
        <ele>1259</ele>
        <time>2013-05-12T17:16:57.000Z</time>
      </trkpt>
      <trkpt lat="45.27098" lon="6.00544">
        <ele>1258</ele>
        <time>2013-05-12T17:16:59.000Z</time>
      </trkpt>
      <trkpt lat="45.27117" lon="6.00558">
        <ele>1256</ele>
        <time>2013-05-12T17:17:01.000Z</time>
      </trkpt>
      <trkpt lat="45.27138" lon="6.0057">
        <ele>1254</ele>
        <time>2013-05-12T17:17:03.000Z</time>
      </trkpt>
      <trkpt lat="45.2716" lon="6.00577">
        <ele>1253</ele>
        <time>2013-05-12T17:17:05.000Z</time>
      </trkpt>
      <trkpt lat="45.27182" lon="6.00584">
        <ele>1252</ele>
        <time>2013-05-12T17:17:07.000Z</time>
      </trkpt>
      <trkpt lat="45.27204" lon="6.00589">
        <ele>1251</ele>
        <time>2013-05-12T17:17:09.000Z</time>
      </trkpt>
      <trkpt lat="45.27227" lon="6.00594">
        <ele>1248</ele>
        <time>2013-05-12T17:17:11.000Z</time>
      </trkpt>
      <trkpt lat="45.2725" lon="6.00597">
        <ele>1245</ele>
        <time>2013-05-12T17:17:13.000Z</time>
      </trkpt>
      <trkpt lat="45.27273" lon="6.00601">
        <ele>1242</ele>
        <time>2013-05-12T17:17:15.000Z</time>
      </trkpt>
      <trkpt lat="45.27296" lon="6.00607">
        <ele>1240</ele>
        <time>2013-05-12T17:17:17.000Z</time>
      </trkpt>
      <trkpt lat="45.27317" lon="6.00614">
        <ele>1237</ele>
        <time>2013-05-12T17:17:19.000Z</time>
      </trkpt>
      <trkpt lat="45.27335" lon="6.00623">
        <ele>1236</ele>
        <time>2013-05-12T17:17:21.000Z</time>
      </trkpt>
      <trkpt lat="45.27351" lon="6.00629">
        <ele>1234</ele>
        <time>2013-05-12T17:17:23.000Z</time>
      </trkpt>
      <trkpt lat="45.27367" lon="6.00627">
        <ele>1234</ele>
        <time>2013-05-12T17:17:25.000Z</time>
      </trkpt>
      <trkpt lat="45.27373" lon="6.00611">
        <ele>1234</ele>
        <time>2013-05-12T17:17:27.000Z</time>
      </trkpt>
      <trkpt lat="45.27367" lon="6.00589">
        <ele>1234</ele>
        <time>2013-05-12T17:17:29.000Z</time>
      </trkpt>
      <trkpt lat="45.2735" lon="6.00572">
        <ele>1233</ele>
        <time>2013-05-12T17:17:31.000Z</time>
      </trkpt>
      <trkpt lat="45.27329" lon="6.0058">
        <ele>1233</ele>
        <time>2013-05-12T17:17:34.000Z</time>
      </trkpt>
      <trkpt lat="45.27313" lon="6.00578">
        <ele>1232</ele>
        <time>2013-05-12T17:17:36.000Z</time>
      </trkpt>
      <trkpt lat="45.27297" lon="6.00572">
        <ele>1233</ele>
        <time>2013-05-12T17:17:38.000Z</time>
      </trkpt>
      <trkpt lat="45.27281" lon="6.00563">
        <ele>1233</ele>
        <time>2013-05-12T17:17:40.000Z</time>
      </trkpt>
      <trkpt lat="45.27266" lon="6.00552">
        <ele>1233</ele>
        <time>2013-05-12T17:17:42.000Z</time>
      </trkpt>
      <trkpt lat="45.27251" lon="6.00542">
        <ele>1232</ele>
        <time>2013-05-12T17:17:44.000Z</time>
      </trkpt>
      <trkpt lat="45.27235" lon="6.0053">
        <ele>1231</ele>
        <time>2013-05-12T17:17:46.000Z</time>
      </trkpt>
      <trkpt lat="45.27218" lon="6.00519">
        <ele>1232</ele>
        <time>2013-05-12T17:17:48.000Z</time>
      </trkpt>
      <trkpt lat="45.27201" lon="6.00507">
        <ele>1231</ele>
        <time>2013-05-12T17:17:50.000Z</time>
      </trkpt>
      <trkpt lat="45.27184" lon="6.00496">
        <ele>1231</ele>
        <time>2013-05-12T17:17:52.000Z</time>
      </trkpt>
      <trkpt lat="45.27168" lon="6.00481">
        <ele>1231</ele>
        <time>2013-05-12T17:17:54.000Z</time>
      </trkpt>
      <trkpt lat="45.27153" lon="6.00465">
        <ele>1230</ele>
        <time>2013-05-12T17:17:56.000Z</time>
      </trkpt>
      <trkpt lat="45.27136" lon="6.0045">
        <ele>1230</ele>
        <time>2013-05-12T17:17:58.000Z</time>
      </trkpt>
      <trkpt lat="45.27119" lon="6.00437">
        <ele>1230</ele>
        <time>2013-05-12T17:18:00.000Z</time>
      </trkpt>
      <trkpt lat="45.27101" lon="6.00422">
        <ele>1229</ele>
        <time>2013-05-12T17:18:02.000Z</time>
      </trkpt>
      <trkpt lat="45.27081" lon="6.00407">
        <ele>1228</ele>
        <time>2013-05-12T17:18:04.000Z</time>
      </trkpt>
      <trkpt lat="45.27062" lon="6.00392">
        <ele>1228</ele>
        <time>2013-05-12T17:18:06.000Z</time>
      </trkpt>
      <trkpt lat="45.27042" lon="6.00376">
        <ele>1226</ele>
        <time>2013-05-12T17:18:08.000Z</time>
      </trkpt>
      <trkpt lat="45.27024" lon="6.00356">
        <ele>1226</ele>
        <time>2013-05-12T17:18:10.000Z</time>
      </trkpt>
      <trkpt lat="45.27011" lon="6.00332">
        <ele>1224</ele>
        <time>2013-05-12T17:18:12.000Z</time>
      </trkpt>
      <trkpt lat="45.27003" lon="6.00305">
        <ele>1216</ele>
        <time>2013-05-12T17:18:14.000Z</time>
      </trkpt>
      <trkpt lat="45.26991" lon="6.00279">
        <ele>1215</ele>
        <time>2013-05-12T17:18:16.000Z</time>
      </trkpt>
      <trkpt lat="45.26977" lon="6.00254">
        <ele>1213</ele>
        <time>2013-05-12T17:18:18.000Z</time>
      </trkpt>
      <trkpt lat="45.2696" lon="6.00233">
        <ele>1211</ele>
        <time>2013-05-12T17:18:20.000Z</time>
      </trkpt>
      <trkpt lat="45.26943" lon="6.00212">
        <ele>1210</ele>
        <time>2013-05-12T17:18:22.000Z</time>
      </trkpt>
      <trkpt lat="45.26926" lon="6.0019">
        <ele>1208</ele>
        <time>2013-05-12T17:18:24.000Z</time>
      </trkpt>
      <trkpt lat="45.26912" lon="6.00166">
        <ele>1205</ele>
        <time>2013-05-12T17:18:26.000Z</time>
      </trkpt>
      <trkpt lat="45.269" lon="6.0014">
        <ele>1202</ele>
        <time>2013-05-12T17:18:28.000Z</time>
      </trkpt>
      <trkpt lat="45.26886" lon="6.00117">
        <ele>1200</ele>
        <time>2013-05-12T17:18:30.000Z</time>
      </trkpt>
      <trkpt lat="45.26869" lon="6.00098">
        <ele>1198</ele>
        <time>2013-05-12T17:18:32.000Z</time>
      </trkpt>
      <trkpt lat="45.26851" lon="6.00085">
        <ele>1196</ele>
        <time>2013-05-12T17:18:34.000Z</time>
      </trkpt>
      <trkpt lat="45.26833" lon="6.0007">
        <ele>1195</ele>
        <time>2013-05-12T17:18:36.000Z</time>
      </trkpt>
      <trkpt lat="45.26816" lon="6.00054">
        <ele>1193</ele>
        <time>2013-05-12T17:18:38.000Z</time>
      </trkpt>
      <trkpt lat="45.26804" lon="6.00034">
        <ele>1192</ele>
        <time>2013-05-12T17:18:40.000Z</time>
      </trkpt>
      <trkpt lat="45.26796" lon="6.00009">
        <ele>1190</ele>
        <time>2013-05-12T17:18:42.000Z</time>
      </trkpt>
      <trkpt lat="45.26791" lon="5.99982">
        <ele>1189</ele>
        <time>2013-05-12T17:18:44.000Z</time>
      </trkpt>
      <trkpt lat="45.26784" lon="5.99955">
        <ele>1189</ele>
        <time>2013-05-12T17:18:46.000Z</time>
      </trkpt>
      <trkpt lat="45.26777" lon="5.9993">
        <ele>1188</ele>
        <time>2013-05-12T17:18:48.000Z</time>
      </trkpt>
      <trkpt lat="45.2677" lon="5.99903">
        <ele>1186</ele>
        <time>2013-05-12T17:18:50.000Z</time>
      </trkpt>
      <trkpt lat="45.26762" lon="5.99876">
        <ele>1186</ele>
        <time>2013-05-12T17:18:52.000Z</time>
      </trkpt>
      <trkpt lat="45.26753" lon="5.99851">
        <ele>1185</ele>
        <time>2013-05-12T17:18:54.000Z</time>
      </trkpt>
      <trkpt lat="45.26745" lon="5.99827">
        <ele>1182</ele>
        <time>2013-05-12T17:18:56.000Z</time>
      </trkpt>
      <trkpt lat="45.26734" lon="5.99808">
        <ele>1180</ele>
        <time>2013-05-12T17:18:58.000Z</time>
      </trkpt>
      <trkpt lat="45.26722" lon="5.99795">
        <ele>1179</ele>
        <time>2013-05-12T17:19:00.000Z</time>
      </trkpt>
      <trkpt lat="45.2671" lon="5.99783">
        <ele>1178</ele>
        <time>2013-05-12T17:19:02.000Z</time>
      </trkpt>
      <trkpt lat="45.26707" lon="5.99771">
        <ele>1175</ele>
        <time>2013-05-12T17:19:04.000Z</time>
      </trkpt>
      <trkpt lat="45.26707" lon="5.99771">
        <ele>1175</ele>
        <time>2013-05-12T17:19:06.000Z</time>
      </trkpt>
      <trkpt lat="45.26721" lon="5.99763">
        <ele>1172</ele>
        <time>2013-05-12T17:19:08.000Z</time>
      </trkpt>
      <trkpt lat="45.26732" lon="5.99765">
        <ele>1172</ele>
        <time>2013-05-12T17:19:10.000Z</time>
      </trkpt>
      <trkpt lat="45.26744" lon="5.99769">
        <ele>1171</ele>
        <time>2013-05-12T17:19:12.000Z</time>
      </trkpt>
      <trkpt lat="45.26758" lon="5.99776">
        <ele>1171</ele>
        <time>2013-05-12T17:19:14.000Z</time>
      </trkpt>
      <trkpt lat="45.26772" lon="5.99788">
        <ele>1169</ele>
        <time>2013-05-12T17:19:16.000Z</time>
      </trkpt>
      <trkpt lat="45.26786" lon="5.99804">
        <ele>1169</ele>
        <time>2013-05-12T17:19:19.000Z</time>
      </trkpt>
      <trkpt lat="45.26801" lon="5.99825">
        <ele>1167</ele>
        <time>2013-05-12T17:19:20.000Z</time>
      </trkpt>
      <trkpt lat="45.26812" lon="5.99848">
        <ele>1166</ele>
        <time>2013-05-12T17:19:22.000Z</time>
      </trkpt>
      <trkpt lat="45.26816" lon="5.99872">
        <ele>1166</ele>
        <time>2013-05-12T17:19:24.000Z</time>
      </trkpt>
      <trkpt lat="45.26822" lon="5.99892">
        <ele>1165</ele>
        <time>2013-05-12T17:19:26.000Z</time>
      </trkpt>
      <trkpt lat="45.26834" lon="5.99903">
        <ele>1164</ele>
        <time>2013-05-12T17:19:28.000Z</time>
      </trkpt>
      <trkpt lat="45.26844" lon="5.99904">
        <ele>1164</ele>
        <time>2013-05-12T17:19:30.000Z</time>
      </trkpt>
      <trkpt lat="45.26844" lon="5.99852">
        <ele>1162</ele>
        <time>2013-05-12T17:19:34.000Z</time>
      </trkpt>
      <trkpt lat="45.26834" lon="5.99825">
        <ele>1162</ele>
        <time>2013-05-12T17:19:36.000Z</time>
      </trkpt>
      <trkpt lat="45.26826" lon="5.99796">
        <ele>1161</ele>
        <time>2013-05-12T17:19:38.000Z</time>
      </trkpt>
      <trkpt lat="45.26819" lon="5.99767">
        <ele>1160</ele>
        <time>2013-05-12T17:19:40.000Z</time>
      </trkpt>
      <trkpt lat="45.26812" lon="5.99737">
        <ele>1159</ele>
        <time>2013-05-12T17:19:42.000Z</time>
      </trkpt>
      <trkpt lat="45.26804" lon="5.99705">
        <ele>1158</ele>
        <time>2013-05-12T17:19:44.000Z</time>
      </trkpt>
      <trkpt lat="45.26797" lon="5.99672">
        <ele>1156</ele>
        <time>2013-05-12T17:19:46.000Z</time>
      </trkpt>
      <trkpt lat="45.26792" lon="5.99638">
        <ele>1151</ele>
        <time>2013-05-12T17:19:48.000Z</time>
      </trkpt>
      <trkpt lat="45.26785" lon="5.99603">
        <ele>1147</ele>
        <time>2013-05-12T17:19:50.000Z</time>
      </trkpt>
      <trkpt lat="45.26779" lon="5.99569">
        <ele>1143</ele>
        <time>2013-05-12T17:19:52.000Z</time>
      </trkpt>
      <trkpt lat="45.26772" lon="5.99533">
        <ele>1140</ele>
        <time>2013-05-12T17:19:54.000Z</time>
      </trkpt>
      <trkpt lat="45.26767" lon="5.99498">
        <ele>1137</ele>
        <time>2013-05-12T17:19:56.000Z</time>
      </trkpt>
      <trkpt lat="45.26762" lon="5.99463">
        <ele>1135</ele>
        <time>2013-05-12T17:19:58.000Z</time>
      </trkpt>
      <trkpt lat="45.26757" lon="5.99429">
        <ele>1133</ele>
        <time>2013-05-12T17:20:00.000Z</time>
      </trkpt>
      <trkpt lat="45.26751" lon="5.99397">
        <ele>1131</ele>
        <time>2013-05-12T17:20:02.000Z</time>
      </trkpt>
      <trkpt lat="45.26745" lon="5.99367">
        <ele>1129</ele>
        <time>2013-05-12T17:20:04.000Z</time>
      </trkpt>
      <trkpt lat="45.26735" lon="5.99341">
        <ele>1128</ele>
        <time>2013-05-12T17:20:06.000Z</time>
      </trkpt>
      <trkpt lat="45.2672" lon="5.99318">
        <ele>1127</ele>
        <time>2013-05-12T17:20:08.000Z</time>
      </trkpt>
      <trkpt lat="45.26701" lon="5.99299">
        <ele>1125</ele>
        <time>2013-05-12T17:20:10.000Z</time>
      </trkpt>
      <trkpt lat="45.26682" lon="5.99278">
        <ele>1124</ele>
        <time>2013-05-12T17:20:12.000Z</time>
      </trkpt>
      <trkpt lat="45.26669" lon="5.9925">
        <ele>1121</ele>
        <time>2013-05-12T17:20:14.000Z</time>
      </trkpt>
      <trkpt lat="45.2666" lon="5.99221">
        <ele>1120</ele>
        <time>2013-05-12T17:20:16.000Z</time>
      </trkpt>
      <trkpt lat="45.26646" lon="5.99194">
        <ele>1118</ele>
        <time>2013-05-12T17:20:18.000Z</time>
      </trkpt>
      <trkpt lat="45.2663" lon="5.99171">
        <ele>1115</ele>
        <time>2013-05-12T17:20:20.000Z</time>
      </trkpt>
      <trkpt lat="45.2661" lon="5.99152">
        <ele>1113</ele>
        <time>2013-05-12T17:20:22.000Z</time>
      </trkpt>
      <trkpt lat="45.26588" lon="5.9914">
        <ele>1112</ele>
        <time>2013-05-12T17:20:24.000Z</time>
      </trkpt>
      <trkpt lat="45.26566" lon="5.9913">
        <ele>1109</ele>
        <time>2013-05-12T17:20:26.000Z</time>
      </trkpt>
      <trkpt lat="45.26543" lon="5.99121">
        <ele>1107</ele>
        <time>2013-05-12T17:20:28.000Z</time>
      </trkpt>
      <trkpt lat="45.26521" lon="5.99114">
        <ele>1106</ele>
        <time>2013-05-12T17:20:30.000Z</time>
      </trkpt>
      <trkpt lat="45.26501" lon="5.9912">
        <ele>1105</ele>
        <time>2013-05-12T17:20:32.000Z</time>
      </trkpt>
      <trkpt lat="45.26481" lon="5.99133">
        <ele>1104</ele>
        <time>2013-05-12T17:20:34.000Z</time>
      </trkpt>
      <trkpt lat="45.26471" lon="5.99152">
        <ele>1104</ele>
        <time>2013-05-12T17:20:36.000Z</time>
      </trkpt>
      <trkpt lat="45.26461" lon="5.99172">
        <ele>1104</ele>
        <time>2013-05-12T17:20:38.000Z</time>
      </trkpt>
      <trkpt lat="45.26442" lon="5.99179">
        <ele>1103</ele>
        <time>2013-05-12T17:20:41.000Z</time>
      </trkpt>
      <trkpt lat="45.26431" lon="5.99164">
        <ele>1102</ele>
        <time>2013-05-12T17:20:43.000Z</time>
      </trkpt>
      <trkpt lat="45.26446" lon="5.99125">
        <ele>1091</ele>
        <time>2013-05-12T17:20:46.000Z</time>
      </trkpt>
      <trkpt lat="45.2646" lon="5.99106">
        <ele>1089</ele>
        <time>2013-05-12T17:20:48.000Z</time>
      </trkpt>
      <trkpt lat="45.26472" lon="5.99088">
        <ele>1088</ele>
        <time>2013-05-12T17:20:50.000Z</time>
      </trkpt>
      <trkpt lat="45.26487" lon="5.99071">
        <ele>1088</ele>
        <time>2013-05-12T17:20:52.000Z</time>
      </trkpt>
      <trkpt lat="45.26505" lon="5.99054">
        <ele>1089</ele>
        <time>2013-05-12T17:20:54.000Z</time>
      </trkpt>
      <trkpt lat="45.26538" lon="5.99027">
        <ele>1085</ele>
        <time>2013-05-12T17:20:57.000Z</time>
      </trkpt>
      <trkpt lat="45.2656" lon="5.99015">
        <ele>1084</ele>
        <time>2013-05-12T17:20:59.000Z</time>
      </trkpt>
      <trkpt lat="45.26583" lon="5.99008">
        <ele>1083</ele>
        <time>2013-05-12T17:21:01.000Z</time>
      </trkpt>
      <trkpt lat="45.26608" lon="5.99006">
        <ele>1083</ele>
        <time>2013-05-12T17:21:03.000Z</time>
      </trkpt>
      <trkpt lat="45.26633" lon="5.99004">
        <ele>1083</ele>
        <time>2013-05-12T17:21:05.000Z</time>
      </trkpt>
      <trkpt lat="45.26659" lon="5.99002">
        <ele>1082</ele>
        <time>2013-05-12T17:21:07.000Z</time>
      </trkpt>
      <trkpt lat="45.26684" lon="5.98999">
        <ele>1079</ele>
        <time>2013-05-12T17:21:09.000Z</time>
      </trkpt>
      <trkpt lat="45.26707" lon="5.98989">
        <ele>1077</ele>
        <time>2013-05-12T17:21:11.000Z</time>
      </trkpt>
      <trkpt lat="45.26729" lon="5.98974">
        <ele>1076</ele>
        <time>2013-05-12T17:21:13.000Z</time>
      </trkpt>
      <trkpt lat="45.26751" lon="5.98957">
        <ele>1075</ele>
        <time>2013-05-12T17:21:15.000Z</time>
      </trkpt>
      <trkpt lat="45.26775" lon="5.98942">
        <ele>1073</ele>
        <time>2013-05-12T17:21:17.000Z</time>
      </trkpt>
      <trkpt lat="45.26802" lon="5.98924">
        <ele>1067</ele>
        <time>2013-05-12T17:21:19.000Z</time>
      </trkpt>
      <trkpt lat="45.2683" lon="5.98906">
        <ele>1062</ele>
        <time>2013-05-12T17:21:21.000Z</time>
      </trkpt>
      <trkpt lat="45.26854" lon="5.98887">
        <ele>1059</ele>
        <time>2013-05-12T17:21:23.000Z</time>
      </trkpt>
      <trkpt lat="45.26878" lon="5.9887">
        <ele>1058</ele>
        <time>2013-05-12T17:21:25.000Z</time>
      </trkpt>
      <trkpt lat="45.269" lon="5.98852">
        <ele>1056</ele>
        <time>2013-05-12T17:21:27.000Z</time>
      </trkpt>
      <trkpt lat="45.26922" lon="5.98834">
        <ele>1054</ele>
        <time>2013-05-12T17:21:29.000Z</time>
      </trkpt>
      <trkpt lat="45.26944" lon="5.98818">
        <ele>1051</ele>
        <time>2013-05-12T17:21:31.000Z</time>
      </trkpt>
      <trkpt lat="45.26965" lon="5.98804">
        <ele>1046</ele>
        <time>2013-05-12T17:21:33.000Z</time>
      </trkpt>
      <trkpt lat="45.26987" lon="5.98793">
        <ele>1043</ele>
        <time>2013-05-12T17:21:35.000Z</time>
      </trkpt>
      <trkpt lat="45.2701" lon="5.98788">
        <ele>1040</ele>
        <time>2013-05-12T17:21:37.000Z</time>
      </trkpt>
      <trkpt lat="45.27034" lon="5.98789">
        <ele>1038</ele>
        <time>2013-05-12T17:21:39.000Z</time>
      </trkpt>
      <trkpt lat="45.27058" lon="5.98791">
        <ele>1036</ele>
        <time>2013-05-12T17:21:41.000Z</time>
      </trkpt>
      <trkpt lat="45.27083" lon="5.98792">
        <ele>1033</ele>
        <time>2013-05-12T17:21:43.000Z</time>
      </trkpt>
      <trkpt lat="45.27106" lon="5.98794">
        <ele>1031</ele>
        <time>2013-05-12T17:21:45.000Z</time>
      </trkpt>
      <trkpt lat="45.2713" lon="5.98796">
        <ele>1029</ele>
        <time>2013-05-12T17:21:47.000Z</time>
      </trkpt>
      <trkpt lat="45.27154" lon="5.98798">
        <ele>1027</ele>
        <time>2013-05-12T17:21:49.000Z</time>
      </trkpt>
      <trkpt lat="45.27177" lon="5.98799">
        <ele>1026</ele>
        <time>2013-05-12T17:21:51.000Z</time>
      </trkpt>
      <trkpt lat="45.27199" lon="5.98802">
        <ele>1024</ele>
        <time>2013-05-12T17:21:53.000Z</time>
      </trkpt>
      <trkpt lat="45.27222" lon="5.98805">
        <ele>1022</ele>
        <time>2013-05-12T17:21:55.000Z</time>
      </trkpt>
      <trkpt lat="45.27245" lon="5.98808">
        <ele>1022</ele>
        <time>2013-05-12T17:21:57.000Z</time>
      </trkpt>
      <trkpt lat="45.27266" lon="5.98812">
        <ele>1020</ele>
        <time>2013-05-12T17:21:59.000Z</time>
      </trkpt>
      <trkpt lat="45.27287" lon="5.98816">
        <ele>1016</ele>
        <time>2013-05-12T17:22:01.000Z</time>
      </trkpt>
      <trkpt lat="45.27307" lon="5.98814">
        <ele>1013</ele>
        <time>2013-05-12T17:22:03.000Z</time>
      </trkpt>
      <trkpt lat="45.27327" lon="5.98806">
        <ele>1010</ele>
        <time>2013-05-12T17:22:05.000Z</time>
      </trkpt>
      <trkpt lat="45.27345" lon="5.98789">
        <ele>1007</ele>
        <time>2013-05-12T17:22:07.000Z</time>
      </trkpt>
      <trkpt lat="45.27361" lon="5.98771">
        <ele>1005</ele>
        <time>2013-05-12T17:22:09.000Z</time>
      </trkpt>
      <trkpt lat="45.27376" lon="5.98752">
        <ele>1004</ele>
        <time>2013-05-12T17:22:11.000Z</time>
      </trkpt>
      <trkpt lat="45.2739" lon="5.98736">
        <ele>1002</ele>
        <time>2013-05-12T17:22:13.000Z</time>
      </trkpt>
      <trkpt lat="45.27407" lon="5.98743">
        <ele>1001</ele>
        <time>2013-05-12T17:22:16.000Z</time>
      </trkpt>
      <trkpt lat="45.27411" lon="5.98761">
        <ele>999</ele>
        <time>2013-05-12T17:22:18.000Z</time>
      </trkpt>
      <trkpt lat="45.2741" lon="5.98775">
        <ele>997</ele>
        <time>2013-05-12T17:22:20.000Z</time>
      </trkpt>
      <trkpt lat="45.2741" lon="5.98775">
        <ele>997</ele>
        <time>2013-05-12T17:22:22.000Z</time>
      </trkpt>
      <trkpt lat="45.27411" lon="5.98798">
        <ele>996</ele>
        <time>2013-05-12T17:22:24.000Z</time>
      </trkpt>
      <trkpt lat="45.27411" lon="5.98798">
        <ele>996</ele>
        <time>2013-05-12T17:22:26.000Z</time>
      </trkpt>
      <trkpt lat="45.27412" lon="5.98818">
        <ele>996</ele>
        <time>2013-05-12T17:22:28.000Z</time>
      </trkpt>
      <trkpt lat="45.27412" lon="5.98818">
        <ele>996</ele>
        <time>2013-05-12T17:22:30.000Z</time>
      </trkpt>
      <trkpt lat="45.27415" lon="5.98841">
        <ele>996</ele>
        <time>2013-05-12T17:22:32.000Z</time>
      </trkpt>
      <trkpt lat="45.27417" lon="5.98854">
        <ele>996</ele>
        <time>2013-05-12T17:22:34.000Z</time>
      </trkpt>
      <trkpt lat="45.27423" lon="5.98868">
        <ele>995</ele>
        <time>2013-05-12T17:22:36.000Z</time>
      </trkpt>
      <trkpt lat="45.27433" lon="5.9888">
        <ele>995</ele>
        <time>2013-05-12T17:22:38.000Z</time>
      </trkpt>
      <trkpt lat="45.27446" lon="5.98885">
        <ele>995</ele>
        <time>2013-05-12T17:22:40.000Z</time>
      </trkpt>
      <trkpt lat="45.27459" lon="5.98884">
        <ele>994</ele>
        <time>2013-05-12T17:22:42.000Z</time>
      </trkpt>
      <trkpt lat="45.27472" lon="5.98882">
        <ele>994</ele>
        <time>2013-05-12T17:22:44.000Z</time>
      </trkpt>
      <trkpt lat="45.27488" lon="5.98875">
        <ele>993</ele>
        <time>2013-05-12T17:22:46.000Z</time>
      </trkpt>
      <trkpt lat="45.27503" lon="5.98864">
        <ele>990</ele>
        <time>2013-05-12T17:22:48.000Z</time>
      </trkpt>
      <trkpt lat="45.27516" lon="5.9886">
        <ele>989</ele>
        <time>2013-05-12T17:22:50.000Z</time>
      </trkpt>
      <trkpt lat="45.27526" lon="5.98869">
        <ele>988</ele>
        <time>2013-05-12T17:22:52.000Z</time>
      </trkpt>
      <trkpt lat="45.27523" lon="5.98889">
        <ele>987</ele>
        <time>2013-05-12T17:22:54.000Z</time>
      </trkpt>
      <trkpt lat="45.27515" lon="5.98907">
        <ele>986</ele>
        <time>2013-05-12T17:22:56.000Z</time>
      </trkpt>
      <trkpt lat="45.2751" lon="5.98928">
        <ele>985</ele>
        <time>2013-05-12T17:22:58.000Z</time>
      </trkpt>
      <trkpt lat="45.27512" lon="5.9895">
        <ele>984</ele>
        <time>2013-05-12T17:23:00.000Z</time>
      </trkpt>
      <trkpt lat="45.27519" lon="5.98972">
        <ele>983</ele>
        <time>2013-05-12T17:23:02.000Z</time>
      </trkpt>
      <trkpt lat="45.2753" lon="5.98993">
        <ele>981</ele>
        <time>2013-05-12T17:23:04.000Z</time>
      </trkpt>
      <trkpt lat="45.2754" lon="5.99014">
        <ele>980</ele>
        <time>2013-05-12T17:23:06.000Z</time>
      </trkpt>
      <trkpt lat="45.2755" lon="5.99036">
        <ele>979</ele>
        <time>2013-05-12T17:23:08.000Z</time>
      </trkpt>
      <trkpt lat="45.27558" lon="5.9906">
        <ele>978</ele>
        <time>2013-05-12T17:23:10.000Z</time>
      </trkpt>
      <trkpt lat="45.27561" lon="5.99086">
        <ele>977</ele>
        <time>2013-05-12T17:23:12.000Z</time>
      </trkpt>
      <trkpt lat="45.27561" lon="5.99113">
        <ele>976</ele>
        <time>2013-05-12T17:23:14.000Z</time>
      </trkpt>
      <trkpt lat="45.27559" lon="5.9914">
        <ele>975</ele>
        <time>2013-05-12T17:23:16.000Z</time>
      </trkpt>
      <trkpt lat="45.27558" lon="5.99168">
        <ele>973</ele>
        <time>2013-05-12T17:23:18.000Z</time>
      </trkpt>
      <trkpt lat="45.27556" lon="5.99197">
        <ele>973</ele>
        <time>2013-05-12T17:23:20.000Z</time>
      </trkpt>
      <trkpt lat="45.27555" lon="5.99227">
        <ele>972</ele>
        <time>2013-05-12T17:23:22.000Z</time>
      </trkpt>
      <trkpt lat="45.2756" lon="5.99256">
        <ele>971</ele>
        <time>2013-05-12T17:23:24.000Z</time>
      </trkpt>
      <trkpt lat="45.27569" lon="5.99283">
        <ele>969</ele>
        <time>2013-05-12T17:23:26.000Z</time>
      </trkpt>
      <trkpt lat="45.27584" lon="5.99303">
        <ele>966</ele>
        <time>2013-05-12T17:23:28.000Z</time>
      </trkpt>
      <trkpt lat="45.27601" lon="5.9932">
        <ele>963</ele>
        <time>2013-05-12T17:23:30.000Z</time>
      </trkpt>
      <trkpt lat="45.27618" lon="5.99338">
        <ele>961</ele>
        <time>2013-05-12T17:23:32.000Z</time>
      </trkpt>
      <trkpt lat="45.27633" lon="5.99357">
        <ele>960</ele>
        <time>2013-05-12T17:23:34.000Z</time>
      </trkpt>
      <trkpt lat="45.27648" lon="5.99376">
        <ele>959</ele>
        <time>2013-05-12T17:23:36.000Z</time>
      </trkpt>
      <trkpt lat="45.27661" lon="5.99398">
        <ele>959</ele>
        <time>2013-05-12T17:23:38.000Z</time>
      </trkpt>
      <trkpt lat="45.27673" lon="5.99421">
        <ele>958</ele>
        <time>2013-05-12T17:23:40.000Z</time>
      </trkpt>
      <trkpt lat="45.27683" lon="5.99444">
        <ele>956</ele>
        <time>2013-05-12T17:23:42.000Z</time>
      </trkpt>
      <trkpt lat="45.27694" lon="5.99466">
        <ele>953</ele>
        <time>2013-05-12T17:23:44.000Z</time>
      </trkpt>
      <trkpt lat="45.27709" lon="5.9948">
        <ele>952</ele>
        <time>2013-05-12T17:23:46.000Z</time>
      </trkpt>
      <trkpt lat="45.27726" lon="5.99486">
        <ele>951</ele>
        <time>2013-05-12T17:23:48.000Z</time>
      </trkpt>
      <trkpt lat="45.27745" lon="5.99486">
        <ele>950</ele>
        <time>2013-05-12T17:23:50.000Z</time>
      </trkpt>
      <trkpt lat="45.27768" lon="5.99482">
        <ele>949</ele>
        <time>2013-05-12T17:23:52.000Z</time>
      </trkpt>
      <trkpt lat="45.27792" lon="5.99476">
        <ele>945</ele>
        <time>2013-05-12T17:23:54.000Z</time>
      </trkpt>
      <trkpt lat="45.27814" lon="5.99474">
        <ele>942</ele>
        <time>2013-05-12T17:23:56.000Z</time>
      </trkpt>
      <trkpt lat="45.27837" lon="5.99477">
        <ele>940</ele>
        <time>2013-05-12T17:23:58.000Z</time>
      </trkpt>
      <trkpt lat="45.27858" lon="5.99487">
        <ele>937</ele>
        <time>2013-05-12T17:24:00.000Z</time>
      </trkpt>
      <trkpt lat="45.27879" lon="5.99503">
        <ele>935</ele>
        <time>2013-05-12T17:24:02.000Z</time>
      </trkpt>
      <trkpt lat="45.27898" lon="5.99521">
        <ele>932</ele>
        <time>2013-05-12T17:24:04.000Z</time>
      </trkpt>
      <trkpt lat="45.27917" lon="5.99538">
        <ele>930</ele>
        <time>2013-05-12T17:24:06.000Z</time>
      </trkpt>
      <trkpt lat="45.27935" lon="5.99557">
        <ele>928</ele>
        <time>2013-05-12T17:24:08.000Z</time>
      </trkpt>
      <trkpt lat="45.27954" lon="5.99576">
        <ele>925</ele>
        <time>2013-05-12T17:24:10.000Z</time>
      </trkpt>
      <trkpt lat="45.27973" lon="5.99596">
        <ele>922</ele>
        <time>2013-05-12T17:24:12.000Z</time>
      </trkpt>
      <trkpt lat="45.27993" lon="5.99616">
        <ele>920</ele>
        <time>2013-05-12T17:24:14.000Z</time>
      </trkpt>
      <trkpt lat="45.28014" lon="5.99634">
        <ele>917</ele>
        <time>2013-05-12T17:24:16.000Z</time>
      </trkpt>
      <trkpt lat="45.28036" lon="5.99649">
        <ele>914</ele>
        <time>2013-05-12T17:24:18.000Z</time>
      </trkpt>
      <trkpt lat="45.28059" lon="5.99657">
        <ele>912</ele>
        <time>2013-05-12T17:24:20.000Z</time>
      </trkpt>
      <trkpt lat="45.28084" lon="5.99662">
        <ele>910</ele>
        <time>2013-05-12T17:24:22.000Z</time>
      </trkpt>
      <trkpt lat="45.28108" lon="5.99662">
        <ele>908</ele>
        <time>2013-05-12T17:24:24.000Z</time>
      </trkpt>
      <trkpt lat="45.28132" lon="5.99658">
        <ele>906</ele>
        <time>2013-05-12T17:24:26.000Z</time>
      </trkpt>
      <trkpt lat="45.28155" lon="5.99653">
        <ele>904</ele>
        <time>2013-05-12T17:24:28.000Z</time>
      </trkpt>
      <trkpt lat="45.28178" lon="5.99649">
        <ele>902</ele>
        <time>2013-05-12T17:24:30.000Z</time>
      </trkpt>
      <trkpt lat="45.28202" lon="5.99647">
        <ele>900</ele>
        <time>2013-05-12T17:24:32.000Z</time>
      </trkpt>
      <trkpt lat="45.28225" lon="5.99649">
        <ele>898</ele>
        <time>2013-05-12T17:24:34.000Z</time>
      </trkpt>
      <trkpt lat="45.28247" lon="5.99657">
        <ele>898</ele>
        <time>2013-05-12T17:24:36.000Z</time>
      </trkpt>
      <trkpt lat="45.28267" lon="5.99668">
        <ele>897</ele>
        <time>2013-05-12T17:24:38.000Z</time>
      </trkpt>
      <trkpt lat="45.28286" lon="5.99679">
        <ele>896</ele>
        <time>2013-05-12T17:24:40.000Z</time>
      </trkpt>
      <trkpt lat="45.28307" lon="5.99687">
        <ele>895</ele>
        <time>2013-05-12T17:24:42.000Z</time>
      </trkpt>
      <trkpt lat="45.28327" lon="5.99689">
        <ele>893</ele>
        <time>2013-05-12T17:24:44.000Z</time>
      </trkpt>
      <trkpt lat="45.28348" lon="5.99687">
        <ele>891</ele>
        <time>2013-05-12T17:24:46.000Z</time>
      </trkpt>
      <trkpt lat="45.28369" lon="5.99683">
        <ele>889</ele>
        <time>2013-05-12T17:24:48.000Z</time>
      </trkpt>
      <trkpt lat="45.28391" lon="5.99687">
        <ele>887</ele>
        <time>2013-05-12T17:24:50.000Z</time>
      </trkpt>
      <trkpt lat="45.28411" lon="5.99697">
        <ele>884</ele>
        <time>2013-05-12T17:24:52.000Z</time>
      </trkpt>
      <trkpt lat="45.28433" lon="5.99705">
        <ele>882</ele>
        <time>2013-05-12T17:24:54.000Z</time>
      </trkpt>
      <trkpt lat="45.28456" lon="5.99709">
        <ele>880</ele>
        <time>2013-05-12T17:24:56.000Z</time>
      </trkpt>
      <trkpt lat="45.28479" lon="5.99715">
        <ele>877</ele>
        <time>2013-05-12T17:24:58.000Z</time>
      </trkpt>
      <trkpt lat="45.285" lon="5.99722">
        <ele>875</ele>
        <time>2013-05-12T17:25:00.000Z</time>
      </trkpt>
      <trkpt lat="45.28519" lon="5.9973">
        <ele>873</ele>
        <time>2013-05-12T17:25:02.000Z</time>
      </trkpt>
      <trkpt lat="45.28538" lon="5.99737">
        <ele>871</ele>
        <time>2013-05-12T17:25:04.000Z</time>
      </trkpt>
      <trkpt lat="45.28555" lon="5.99737">
        <ele>869</ele>
        <time>2013-05-12T17:25:06.000Z</time>
      </trkpt>
      <trkpt lat="45.28569" lon="5.99731">
        <ele>868</ele>
        <time>2013-05-12T17:25:08.000Z</time>
      </trkpt>
      <trkpt lat="45.28581" lon="5.99723">
        <ele>865</ele>
        <time>2013-05-12T17:25:10.000Z</time>
      </trkpt>
      <trkpt lat="45.28584" lon="5.99704">
        <ele>864</ele>
        <time>2013-05-12T17:25:12.000Z</time>
      </trkpt>
      <trkpt lat="45.28579" lon="5.99682">
        <ele>863</ele>
        <time>2013-05-12T17:25:14.000Z</time>
      </trkpt>
      <trkpt lat="45.2857" lon="5.99661">
        <ele>861</ele>
        <time>2013-05-12T17:25:16.000Z</time>
      </trkpt>
      <trkpt lat="45.28561" lon="5.9964">
        <ele>861</ele>
        <time>2013-05-12T17:25:18.000Z</time>
      </trkpt>
      <trkpt lat="45.28553" lon="5.9962">
        <ele>861</ele>
        <time>2013-05-12T17:25:20.000Z</time>
      </trkpt>
      <trkpt lat="45.28551" lon="5.99601">
        <ele>860</ele>
        <time>2013-05-12T17:25:22.000Z</time>
      </trkpt>
      <trkpt lat="45.2856" lon="5.99587">
        <ele>858</ele>
        <time>2013-05-12T17:25:24.000Z</time>
      </trkpt>
      <trkpt lat="45.28574" lon="5.99586">
        <ele>857</ele>
        <time>2013-05-12T17:25:26.000Z</time>
      </trkpt>
      <trkpt lat="45.2859" lon="5.99596">
        <ele>855</ele>
        <time>2013-05-12T17:25:28.000Z</time>
      </trkpt>
      <trkpt lat="45.28605" lon="5.99601">
        <ele>853</ele>
        <time>2013-05-12T17:25:30.000Z</time>
      </trkpt>
      <trkpt lat="45.28623" lon="5.996">
        <ele>851</ele>
        <time>2013-05-12T17:25:32.000Z</time>
      </trkpt>
      <trkpt lat="45.28642" lon="5.99593">
        <ele>849</ele>
        <time>2013-05-12T17:25:34.000Z</time>
      </trkpt>
      <trkpt lat="45.28661" lon="5.99587">
        <ele>847</ele>
        <time>2013-05-12T17:25:36.000Z</time>
      </trkpt>
      <trkpt lat="45.28681" lon="5.99584">
        <ele>845</ele>
        <time>2013-05-12T17:25:38.000Z</time>
      </trkpt>
      <trkpt lat="45.28704" lon="5.9958">
        <ele>842</ele>
        <time>2013-05-12T17:25:40.000Z</time>
      </trkpt>
      <trkpt lat="45.28727" lon="5.99577">
        <ele>840</ele>
        <time>2013-05-12T17:25:42.000Z</time>
      </trkpt>
      <trkpt lat="45.28748" lon="5.99572">
        <ele>837</ele>
        <time>2013-05-12T17:25:44.000Z</time>
      </trkpt>
      <trkpt lat="45.28767" lon="5.99561">
        <ele>835</ele>
        <time>2013-05-12T17:25:46.000Z</time>
      </trkpt>
      <trkpt lat="45.28783" lon="5.99542">
        <ele>834</ele>
        <time>2013-05-12T17:25:48.000Z</time>
      </trkpt>
      <trkpt lat="45.28797" lon="5.99517">
        <ele>832</ele>
        <time>2013-05-12T17:25:50.000Z</time>
      </trkpt>
      <trkpt lat="45.28812" lon="5.9949">
        <ele>830</ele>
        <time>2013-05-12T17:25:52.000Z</time>
      </trkpt>
      <trkpt lat="45.28828" lon="5.99465">
        <ele>828</ele>
        <time>2013-05-12T17:25:54.000Z</time>
      </trkpt>
      <trkpt lat="45.28846" lon="5.99447">
        <ele>826</ele>
        <time>2013-05-12T17:25:56.000Z</time>
      </trkpt>
      <trkpt lat="45.28866" lon="5.9944">
        <ele>824</ele>
        <time>2013-05-12T17:25:58.000Z</time>
      </trkpt>
      <trkpt lat="45.28888" lon="5.99444">
        <ele>822</ele>
        <time>2013-05-12T17:26:00.000Z</time>
      </trkpt>
      <trkpt lat="45.2891" lon="5.99448">
        <ele>820</ele>
        <time>2013-05-12T17:26:02.000Z</time>
      </trkpt>
      <trkpt lat="45.28933" lon="5.99453">
        <ele>818</ele>
        <time>2013-05-12T17:26:04.000Z</time>
      </trkpt>
      <trkpt lat="45.28956" lon="5.99459">
        <ele>816</ele>
        <time>2013-05-12T17:26:06.000Z</time>
      </trkpt>
      <trkpt lat="45.28978" lon="5.99464">
        <ele>814</ele>
        <time>2013-05-12T17:26:08.000Z</time>
      </trkpt>
      <trkpt lat="45.28997" lon="5.99469">
        <ele>812</ele>
        <time>2013-05-12T17:26:10.000Z</time>
      </trkpt>
      <trkpt lat="45.29015" lon="5.99477">
        <ele>810</ele>
        <time>2013-05-12T17:26:12.000Z</time>
      </trkpt>
      <trkpt lat="45.29027" lon="5.99495">
        <ele>808</ele>
        <time>2013-05-12T17:26:14.000Z</time>
      </trkpt>
      <trkpt lat="45.29031" lon="5.99518">
        <ele>806</ele>
        <time>2013-05-12T17:26:16.000Z</time>
      </trkpt>
      <trkpt lat="45.29026" lon="5.99542">
        <ele>805</ele>
        <time>2013-05-12T17:26:18.000Z</time>
      </trkpt>
      <trkpt lat="45.29022" lon="5.99567">
        <ele>804</ele>
        <time>2013-05-12T17:26:20.000Z</time>
      </trkpt>
      <trkpt lat="45.29021" lon="5.99588">
        <ele>802</ele>
        <time>2013-05-12T17:26:22.000Z</time>
      </trkpt>
      <trkpt lat="45.29027" lon="5.99605">
        <ele>801</ele>
        <time>2013-05-12T17:26:24.000Z</time>
      </trkpt>
      <trkpt lat="45.29041" lon="5.99614">
        <ele>801</ele>
        <time>2013-05-12T17:26:26.000Z</time>
      </trkpt>
      <trkpt lat="45.29058" lon="5.99607">
        <ele>800</ele>
        <time>2013-05-12T17:26:28.000Z</time>
      </trkpt>
      <trkpt lat="45.29078" lon="5.9959">
        <ele>798</ele>
        <time>2013-05-12T17:26:30.000Z</time>
      </trkpt>
      <trkpt lat="45.29095" lon="5.99571">
        <ele>798</ele>
        <time>2013-05-12T17:26:32.000Z</time>
      </trkpt>
      <trkpt lat="45.29113" lon="5.99553">
        <ele>797</ele>
        <time>2013-05-12T17:26:34.000Z</time>
      </trkpt>
      <trkpt lat="45.29131" lon="5.99535">
        <ele>797</ele>
        <time>2013-05-12T17:26:36.000Z</time>
      </trkpt>
      <trkpt lat="45.29151" lon="5.99524">
        <ele>795</ele>
        <time>2013-05-12T17:26:38.000Z</time>
      </trkpt>
      <trkpt lat="45.29173" lon="5.99517">
        <ele>794</ele>
        <time>2013-05-12T17:26:40.000Z</time>
      </trkpt>
      <trkpt lat="45.29194" lon="5.99508">
        <ele>793</ele>
        <time>2013-05-12T17:26:42.000Z</time>
      </trkpt>
      <trkpt lat="45.29217" lon="5.99504">
        <ele>790</ele>
        <time>2013-05-12T17:26:44.000Z</time>
      </trkpt>
      <trkpt lat="45.29239" lon="5.99505">
        <ele>787</ele>
        <time>2013-05-12T17:26:46.000Z</time>
      </trkpt>
      <trkpt lat="45.29262" lon="5.99508">
        <ele>785</ele>
        <time>2013-05-12T17:26:48.000Z</time>
      </trkpt>
      <trkpt lat="45.29283" lon="5.99512">
        <ele>783</ele>
        <time>2013-05-12T17:26:50.000Z</time>
      </trkpt>
      <trkpt lat="45.29305" lon="5.99514">
        <ele>780</ele>
        <time>2013-05-12T17:26:52.000Z</time>
      </trkpt>
      <trkpt lat="45.29327" lon="5.99512">
        <ele>777</ele>
        <time>2013-05-12T17:26:54.000Z</time>
      </trkpt>
      <trkpt lat="45.29348" lon="5.99508">
        <ele>775</ele>
        <time>2013-05-12T17:26:56.000Z</time>
      </trkpt>
      <trkpt lat="45.29369" lon="5.99505">
        <ele>772</ele>
        <time>2013-05-12T17:26:58.000Z</time>
      </trkpt>
      <trkpt lat="45.2939" lon="5.99506">
        <ele>770</ele>
        <time>2013-05-12T17:27:00.000Z</time>
      </trkpt>
      <trkpt lat="45.29411" lon="5.99513">
        <ele>767</ele>
        <time>2013-05-12T17:27:02.000Z</time>
      </trkpt>
      <trkpt lat="45.29431" lon="5.99525">
        <ele>764</ele>
        <time>2013-05-12T17:27:04.000Z</time>
      </trkpt>
      <trkpt lat="45.29451" lon="5.99536">
        <ele>762</ele>
        <time>2013-05-12T17:27:06.000Z</time>
      </trkpt>
      <trkpt lat="45.2947" lon="5.99545">
        <ele>760</ele>
        <time>2013-05-12T17:27:08.000Z</time>
      </trkpt>
      <trkpt lat="45.2949" lon="5.99547">
        <ele>758</ele>
        <time>2013-05-12T17:27:10.000Z</time>
      </trkpt>
      <trkpt lat="45.29511" lon="5.99548">
        <ele>755</ele>
        <time>2013-05-12T17:27:12.000Z</time>
      </trkpt>
      <trkpt lat="45.29533" lon="5.99549">
        <ele>753</ele>
        <time>2013-05-12T17:27:14.000Z</time>
      </trkpt>
      <trkpt lat="45.29555" lon="5.9955">
        <ele>750</ele>
        <time>2013-05-12T17:27:16.000Z</time>
      </trkpt>
      <trkpt lat="45.29577" lon="5.99551">
        <ele>747</ele>
        <time>2013-05-12T17:27:18.000Z</time>
      </trkpt>
      <trkpt lat="45.296" lon="5.99551">
        <ele>743</ele>
        <time>2013-05-12T17:27:20.000Z</time>
      </trkpt>
      <trkpt lat="45.29623" lon="5.99552">
        <ele>741</ele>
        <time>2013-05-12T17:27:22.000Z</time>
      </trkpt>
      <trkpt lat="45.29646" lon="5.99553">
        <ele>738</ele>
        <time>2013-05-12T17:27:24.000Z</time>
      </trkpt>
      <trkpt lat="45.29667" lon="5.99559">
        <ele>736</ele>
        <time>2013-05-12T17:27:26.000Z</time>
      </trkpt>
      <trkpt lat="45.29689" lon="5.99568">
        <ele>734</ele>
        <time>2013-05-12T17:27:28.000Z</time>
      </trkpt>
      <trkpt lat="45.29711" lon="5.99577">
        <ele>730</ele>
        <time>2013-05-12T17:27:30.000Z</time>
      </trkpt>
      <trkpt lat="45.29733" lon="5.99586">
        <ele>727</ele>
        <time>2013-05-12T17:27:32.000Z</time>
      </trkpt>
      <trkpt lat="45.29754" lon="5.99593">
        <ele>725</ele>
        <time>2013-05-12T17:27:34.000Z</time>
      </trkpt>
      <trkpt lat="45.29778" lon="5.99594">
        <ele>723</ele>
        <time>2013-05-12T17:27:36.000Z</time>
      </trkpt>
      <trkpt lat="45.29801" lon="5.99592">
        <ele>720</ele>
        <time>2013-05-12T17:27:38.000Z</time>
      </trkpt>
      <trkpt lat="45.29824" lon="5.99588">
        <ele>718</ele>
        <time>2013-05-12T17:27:40.000Z</time>
      </trkpt>
      <trkpt lat="45.29849" lon="5.99585">
        <ele>715</ele>
        <time>2013-05-12T17:27:42.000Z</time>
      </trkpt>
      <trkpt lat="45.29872" lon="5.99581">
        <ele>712</ele>
        <time>2013-05-12T17:27:44.000Z</time>
      </trkpt>
      <trkpt lat="45.29892" lon="5.99577">
        <ele>710</ele>
        <time>2013-05-12T17:27:46.000Z</time>
      </trkpt>
      <trkpt lat="45.29911" lon="5.99575">
        <ele>708</ele>
        <time>2013-05-12T17:27:48.000Z</time>
      </trkpt>
      <trkpt lat="45.29927" lon="5.99572">
        <ele>706</ele>
        <time>2013-05-12T17:27:50.000Z</time>
      </trkpt>
      <trkpt lat="45.29943" lon="5.99569">
        <ele>705</ele>
        <time>2013-05-12T17:27:52.000Z</time>
      </trkpt>
      <trkpt lat="45.2996" lon="5.99566">
        <ele>704</ele>
        <time>2013-05-12T17:27:54.000Z</time>
      </trkpt>
      <trkpt lat="45.29977" lon="5.99563">
        <ele>702</ele>
        <time>2013-05-12T17:27:56.000Z</time>
      </trkpt>
      <trkpt lat="45.29993" lon="5.99566">
        <ele>701</ele>
        <time>2013-05-12T17:27:58.000Z</time>
      </trkpt>
      <trkpt lat="45.30006" lon="5.99571">
        <ele>700</ele>
        <time>2013-05-12T17:28:00.000Z</time>
      </trkpt>
      <trkpt lat="45.30016" lon="5.99576">
        <ele>699</ele>
        <time>2013-05-12T17:28:02.000Z</time>
      </trkpt>
      <trkpt lat="45.30029" lon="5.99581">
        <ele>697</ele>
        <time>2013-05-12T17:28:04.000Z</time>
      </trkpt>
      <trkpt lat="45.30045" lon="5.99587">
        <ele>696</ele>
        <time>2013-05-12T17:28:06.000Z</time>
      </trkpt>
      <trkpt lat="45.30058" lon="5.99591">
        <ele>695</ele>
        <time>2013-05-12T17:28:08.000Z</time>
      </trkpt>
      <trkpt lat="45.30067" lon="5.99595">
        <ele>694</ele>
        <time>2013-05-12T17:28:10.000Z</time>
      </trkpt>
      <trkpt lat="45.30078" lon="5.996">
        <ele>694</ele>
        <time>2013-05-12T17:28:12.000Z</time>
      </trkpt>
      <trkpt lat="45.30088" lon="5.99604">
        <ele>694</ele>
        <time>2013-05-12T17:28:14.000Z</time>
      </trkpt>
      <trkpt lat="45.301" lon="5.99607">
        <ele>695</ele>
        <time>2013-05-12T17:28:16.000Z</time>
      </trkpt>
      <trkpt lat="45.30112" lon="5.9961">
        <ele>694</ele>
        <time>2013-05-12T17:28:18.000Z</time>
      </trkpt>
      <trkpt lat="45.30125" lon="5.99609">
        <ele>693</ele>
        <time>2013-05-12T17:28:20.000Z</time>
      </trkpt>
      <trkpt lat="45.30139" lon="5.9961">
        <ele>693</ele>
        <time>2013-05-12T17:28:22.000Z</time>
      </trkpt>
      <trkpt lat="45.30151" lon="5.99607">
        <ele>692</ele>
        <time>2013-05-12T17:28:24.000Z</time>
      </trkpt>
      <trkpt lat="45.30161" lon="5.99598">
        <ele>692</ele>
        <time>2013-05-12T17:28:26.000Z</time>
      </trkpt>
      <trkpt lat="45.30164" lon="5.99582">
        <ele>692</ele>
        <time>2013-05-12T17:28:28.000Z</time>
      </trkpt>
      <trkpt lat="45.30162" lon="5.99568">
        <ele>690</ele>
        <time>2013-05-12T17:28:30.000Z</time>
      </trkpt>
      <trkpt lat="45.30158" lon="5.99551">
        <ele>689</ele>
        <time>2013-05-12T17:28:32.000Z</time>
      </trkpt>
      <trkpt lat="45.30156" lon="5.99531">
        <ele>688</ele>
        <time>2013-05-12T17:28:34.000Z</time>
      </trkpt>
      <trkpt lat="45.30154" lon="5.99511">
        <ele>687</ele>
        <time>2013-05-12T17:28:36.000Z</time>
      </trkpt>
      <trkpt lat="45.30156" lon="5.99493">
        <ele>687</ele>
        <time>2013-05-12T17:28:38.000Z</time>
      </trkpt>
      <trkpt lat="45.30157" lon="5.99474">
        <ele>687</ele>
        <time>2013-05-12T17:28:40.000Z</time>
      </trkpt>
      <trkpt lat="45.30164" lon="5.99454">
        <ele>683</ele>
        <time>2013-05-12T17:28:42.000Z</time>
      </trkpt>
      <trkpt lat="45.30176" lon="5.99436">
        <ele>678</ele>
        <time>2013-05-12T17:28:44.000Z</time>
      </trkpt>
      <trkpt lat="45.30187" lon="5.99422">
        <ele>675</ele>
        <time>2013-05-12T17:28:46.000Z</time>
      </trkpt>
      <trkpt lat="45.302" lon="5.99413">
        <ele>673</ele>
        <time>2013-05-12T17:28:48.000Z</time>
      </trkpt>
      <trkpt lat="45.30215" lon="5.99409">
        <ele>671</ele>
        <time>2013-05-12T17:28:50.000Z</time>
      </trkpt>
      <trkpt lat="45.30232" lon="5.99405">
        <ele>670</ele>
        <time>2013-05-12T17:28:52.000Z</time>
      </trkpt>
      <trkpt lat="45.30249" lon="5.99405">
        <ele>668</ele>
        <time>2013-05-12T17:28:54.000Z</time>
      </trkpt>
      <trkpt lat="45.30267" lon="5.99408">
        <ele>666</ele>
        <time>2013-05-12T17:28:56.000Z</time>
      </trkpt>
      <trkpt lat="45.30283" lon="5.99412">
        <ele>665</ele>
        <time>2013-05-12T17:28:58.000Z</time>
      </trkpt>
      <trkpt lat="45.30299" lon="5.99414">
        <ele>664</ele>
        <time>2013-05-12T17:29:00.000Z</time>
      </trkpt>
      <trkpt lat="45.30315" lon="5.99411">
        <ele>663</ele>
        <time>2013-05-12T17:29:02.000Z</time>
      </trkpt>
      <trkpt lat="45.30326" lon="5.99399">
        <ele>661</ele>
        <time>2013-05-12T17:29:04.000Z</time>
      </trkpt>
      <trkpt lat="45.30333" lon="5.99379">
        <ele>660</ele>
        <time>2013-05-12T17:29:06.000Z</time>
      </trkpt>
      <trkpt lat="45.30331" lon="5.99357">
        <ele>659</ele>
        <time>2013-05-12T17:29:08.000Z</time>
      </trkpt>
      <trkpt lat="45.30328" lon="5.99336">
        <ele>659</ele>
        <time>2013-05-12T17:29:10.000Z</time>
      </trkpt>
      <trkpt lat="45.30328" lon="5.99312">
        <ele>658</ele>
        <time>2013-05-12T17:29:12.000Z</time>
      </trkpt>
      <trkpt lat="45.3033" lon="5.99288">
        <ele>658</ele>
        <time>2013-05-12T17:29:14.000Z</time>
      </trkpt>
      <trkpt lat="45.30334" lon="5.99262">
        <ele>655</ele>
        <time>2013-05-12T17:29:16.000Z</time>
      </trkpt>
      <trkpt lat="45.30342" lon="5.99235">
        <ele>653</ele>
        <time>2013-05-12T17:29:18.000Z</time>
      </trkpt>
      <trkpt lat="45.3035" lon="5.99209">
        <ele>651</ele>
        <time>2013-05-12T17:29:20.000Z</time>
      </trkpt>
      <trkpt lat="45.30357" lon="5.99183">
        <ele>651</ele>
        <time>2013-05-12T17:29:22.000Z</time>
      </trkpt>
      <trkpt lat="45.30365" lon="5.99158">
        <ele>649</ele>
        <time>2013-05-12T17:29:24.000Z</time>
      </trkpt>
      <trkpt lat="45.30375" lon="5.99133">
        <ele>648</ele>
        <time>2013-05-12T17:29:26.000Z</time>
      </trkpt>
      <trkpt lat="45.30387" lon="5.99108">
        <ele>647</ele>
        <time>2013-05-12T17:29:28.000Z</time>
      </trkpt>
      <trkpt lat="45.30397" lon="5.99085">
        <ele>646</ele>
        <time>2013-05-12T17:29:30.000Z</time>
      </trkpt>
      <trkpt lat="45.30403" lon="5.9906">
        <ele>645</ele>
        <time>2013-05-12T17:29:32.000Z</time>
      </trkpt>
      <trkpt lat="45.30403" lon="5.99036">
        <ele>645</ele>
        <time>2013-05-12T17:29:34.000Z</time>
      </trkpt>
      <trkpt lat="45.30401" lon="5.99012">
        <ele>644</ele>
        <time>2013-05-12T17:29:36.000Z</time>
      </trkpt>
      <trkpt lat="45.30399" lon="5.9899">
        <ele>644</ele>
        <time>2013-05-12T17:29:38.000Z</time>
      </trkpt>
      <trkpt lat="45.30397" lon="5.98968">
        <ele>644</ele>
        <time>2013-05-12T17:29:40.000Z</time>
      </trkpt>
      <trkpt lat="45.30397" lon="5.98947">
        <ele>643</ele>
        <time>2013-05-12T17:29:42.000Z</time>
      </trkpt>
      <trkpt lat="45.304" lon="5.98926">
        <ele>644</ele>
        <time>2013-05-12T17:29:44.000Z</time>
      </trkpt>
      <trkpt lat="45.30402" lon="5.98907">
        <ele>643</ele>
        <time>2013-05-12T17:29:46.000Z</time>
      </trkpt>
      <trkpt lat="45.30403" lon="5.98889">
        <ele>643</ele>
        <time>2013-05-12T17:29:48.000Z</time>
      </trkpt>
      <trkpt lat="45.30404" lon="5.98871">
        <ele>644</ele>
        <time>2013-05-12T17:29:50.000Z</time>
      </trkpt>
      <trkpt lat="45.30404" lon="5.98854">
        <ele>644</ele>
        <time>2013-05-12T17:29:52.000Z</time>
      </trkpt>
      <trkpt lat="45.30404" lon="5.98835">
        <ele>644</ele>
        <time>2013-05-12T17:29:54.000Z</time>
      </trkpt>
      <trkpt lat="45.30403" lon="5.98818">
        <ele>645</ele>
        <time>2013-05-12T17:29:56.000Z</time>
      </trkpt>
      <trkpt lat="45.30403" lon="5.98801">
        <ele>645</ele>
        <time>2013-05-12T17:29:58.000Z</time>
      </trkpt>
      <trkpt lat="45.30402" lon="5.98784">
        <ele>645</ele>
        <time>2013-05-12T17:30:00.000Z</time>
      </trkpt>
      <trkpt lat="45.30402" lon="5.98769">
        <ele>646</ele>
        <time>2013-05-12T17:30:02.000Z</time>
      </trkpt>
      <trkpt lat="45.30402" lon="5.98753">
        <ele>646</ele>
        <time>2013-05-12T17:30:04.000Z</time>
      </trkpt>
      <trkpt lat="45.30402" lon="5.98736">
        <ele>647</ele>
        <time>2013-05-12T17:30:06.000Z</time>
      </trkpt>
      <trkpt lat="45.30401" lon="5.9872">
        <ele>647</ele>
        <time>2013-05-12T17:30:08.000Z</time>
      </trkpt>
      <trkpt lat="45.30401" lon="5.98704">
        <ele>647</ele>
        <time>2013-05-12T17:30:10.000Z</time>
      </trkpt>
      <trkpt lat="45.304" lon="5.98687">
        <ele>647</ele>
        <time>2013-05-12T17:30:12.000Z</time>
      </trkpt>
      <trkpt lat="45.30401" lon="5.9867">
        <ele>647</ele>
        <time>2013-05-12T17:30:14.000Z</time>
      </trkpt>
      <trkpt lat="45.30403" lon="5.98653">
        <ele>646</ele>
        <time>2013-05-12T17:30:16.000Z</time>
      </trkpt>
      <trkpt lat="45.30406" lon="5.98636">
        <ele>644</ele>
        <time>2013-05-12T17:30:18.000Z</time>
      </trkpt>
      <trkpt lat="45.30409" lon="5.9862">
        <ele>643</ele>
        <time>2013-05-12T17:30:20.000Z</time>
      </trkpt>
      <trkpt lat="45.30411" lon="5.98604">
        <ele>643</ele>
        <time>2013-05-12T17:30:22.000Z</time>
      </trkpt>
      <trkpt lat="45.30414" lon="5.98589">
        <ele>643</ele>
        <time>2013-05-12T17:30:24.000Z</time>
      </trkpt>
      <trkpt lat="45.30416" lon="5.98573">
        <ele>642</ele>
        <time>2013-05-12T17:30:26.000Z</time>
      </trkpt>
      <trkpt lat="45.3042" lon="5.98557">
        <ele>642</ele>
        <time>2013-05-12T17:30:28.000Z</time>
      </trkpt>
      <trkpt lat="45.30423" lon="5.98542">
        <ele>642</ele>
        <time>2013-05-12T17:30:30.000Z</time>
      </trkpt>
      <trkpt lat="45.30428" lon="5.98525">
        <ele>641</ele>
        <time>2013-05-12T17:30:32.000Z</time>
      </trkpt>
      <trkpt lat="45.30432" lon="5.98508">
        <ele>641</ele>
        <time>2013-05-12T17:30:34.000Z</time>
      </trkpt>
      <trkpt lat="45.30438" lon="5.9849">
        <ele>640</ele>
        <time>2013-05-12T17:30:36.000Z</time>
      </trkpt>
      <trkpt lat="45.30444" lon="5.98471">
        <ele>640</ele>
        <time>2013-05-12T17:30:38.000Z</time>
      </trkpt>
      <trkpt lat="45.30452" lon="5.98451">
        <ele>639</ele>
        <time>2013-05-12T17:30:40.000Z</time>
      </trkpt>
      <trkpt lat="45.30463" lon="5.98432">
        <ele>638</ele>
        <time>2013-05-12T17:30:42.000Z</time>
      </trkpt>
      <trkpt lat="45.30476" lon="5.98414">
        <ele>637</ele>
        <time>2013-05-12T17:30:44.000Z</time>
      </trkpt>
      <trkpt lat="45.3049" lon="5.98393">
        <ele>637</ele>
        <time>2013-05-12T17:30:46.000Z</time>
      </trkpt>
      <trkpt lat="45.30504" lon="5.98369">
        <ele>636</ele>
        <time>2013-05-12T17:30:48.000Z</time>
      </trkpt>
      <trkpt lat="45.30516" lon="5.98343">
        <ele>636</ele>
        <time>2013-05-12T17:30:50.000Z</time>
      </trkpt>
      <trkpt lat="45.30527" lon="5.98319">
        <ele>636</ele>
        <time>2013-05-12T17:30:52.000Z</time>
      </trkpt>
      <trkpt lat="45.30537" lon="5.98293">
        <ele>636</ele>
        <time>2013-05-12T17:30:54.000Z</time>
      </trkpt>
      <trkpt lat="45.30544" lon="5.98265">
        <ele>635</ele>
        <time>2013-05-12T17:30:56.000Z</time>
      </trkpt>
      <trkpt lat="45.3055" lon="5.98236">
        <ele>635</ele>
        <time>2013-05-12T17:30:58.000Z</time>
      </trkpt>
      <trkpt lat="45.30548" lon="5.98207">
        <ele>633</ele>
        <time>2013-05-12T17:31:00.000Z</time>
      </trkpt>
      <trkpt lat="45.3054" lon="5.9818">
        <ele>632</ele>
        <time>2013-05-12T17:31:02.000Z</time>
      </trkpt>
      <trkpt lat="45.30529" lon="5.98155">
        <ele>630</ele>
        <time>2013-05-12T17:31:04.000Z</time>
      </trkpt>
      <trkpt lat="45.30519" lon="5.98128">
        <ele>630</ele>
        <time>2013-05-12T17:31:06.000Z</time>
      </trkpt>
      <trkpt lat="45.30512" lon="5.98097">
        <ele>628</ele>
        <time>2013-05-12T17:31:08.000Z</time>
      </trkpt>
      <trkpt lat="45.30508" lon="5.98064">
        <ele>625</ele>
        <time>2013-05-12T17:31:10.000Z</time>
      </trkpt>
      <trkpt lat="45.30505" lon="5.98033">
        <ele>624</ele>
        <time>2013-05-12T17:31:12.000Z</time>
      </trkpt>
      <trkpt lat="45.30505" lon="5.98001">
        <ele>622</ele>
        <time>2013-05-12T17:31:14.000Z</time>
      </trkpt>
      <trkpt lat="45.30509" lon="5.9797">
        <ele>620</ele>
        <time>2013-05-12T17:31:16.000Z</time>
      </trkpt>
      <trkpt lat="45.30513" lon="5.97941">
        <ele>618</ele>
        <time>2013-05-12T17:31:18.000Z</time>
      </trkpt>
      <trkpt lat="45.30513" lon="5.9791">
        <ele>617</ele>
        <time>2013-05-12T17:31:20.000Z</time>
      </trkpt>
      <trkpt lat="45.30509" lon="5.9788">
        <ele>615</ele>
        <time>2013-05-12T17:31:22.000Z</time>
      </trkpt>
      <trkpt lat="45.30507" lon="5.9785">
        <ele>614</ele>
        <time>2013-05-12T17:31:24.000Z</time>
      </trkpt>
      <trkpt lat="45.30506" lon="5.9782">
        <ele>613</ele>
        <time>2013-05-12T17:31:26.000Z</time>
      </trkpt>
      <trkpt lat="45.30503" lon="5.97794">
        <ele>612</ele>
        <time>2013-05-12T17:31:28.000Z</time>
      </trkpt>
      <trkpt lat="45.30501" lon="5.97767">
        <ele>611</ele>
        <time>2013-05-12T17:31:30.000Z</time>
      </trkpt>
      <trkpt lat="45.305" lon="5.97738">
        <ele>610</ele>
        <time>2013-05-12T17:31:32.000Z</time>
      </trkpt>
      <trkpt lat="45.30499" lon="5.97708">
        <ele>610</ele>
        <time>2013-05-12T17:31:34.000Z</time>
      </trkpt>
      <trkpt lat="45.30494" lon="5.97678">
        <ele>608</ele>
        <time>2013-05-12T17:31:36.000Z</time>
      </trkpt>
      <trkpt lat="45.30485" lon="5.97648">
        <ele>605</ele>
        <time>2013-05-12T17:31:38.000Z</time>
      </trkpt>
      <trkpt lat="45.30476" lon="5.97619">
        <ele>604</ele>
        <time>2013-05-12T17:31:40.000Z</time>
      </trkpt>
      <trkpt lat="45.30468" lon="5.9759">
        <ele>602</ele>
        <time>2013-05-12T17:31:42.000Z</time>
      </trkpt>
      <trkpt lat="45.30459" lon="5.97561">
        <ele>600</ele>
        <time>2013-05-12T17:31:44.000Z</time>
      </trkpt>
      <trkpt lat="45.30453" lon="5.97531">
        <ele>599</ele>
        <time>2013-05-12T17:31:46.000Z</time>
      </trkpt>
      <trkpt lat="45.3045" lon="5.975">
        <ele>597</ele>
        <time>2013-05-12T17:31:48.000Z</time>
      </trkpt>
      <trkpt lat="45.30447" lon="5.97468">
        <ele>596</ele>
        <time>2013-05-12T17:31:50.000Z</time>
      </trkpt>
      <trkpt lat="45.30444" lon="5.97437">
        <ele>594</ele>
        <time>2013-05-12T17:31:52.000Z</time>
      </trkpt>
      <trkpt lat="45.30443" lon="5.97406">
        <ele>591</ele>
        <time>2013-05-12T17:31:54.000Z</time>
      </trkpt>
      <trkpt lat="45.30444" lon="5.97375">
        <ele>588</ele>
        <time>2013-05-12T17:31:56.000Z</time>
      </trkpt>
      <trkpt lat="45.30447" lon="5.97341">
        <ele>586</ele>
        <time>2013-05-12T17:31:58.000Z</time>
      </trkpt>
      <trkpt lat="45.3045" lon="5.97308">
        <ele>582</ele>
        <time>2013-05-12T17:32:00.000Z</time>
      </trkpt>
      <trkpt lat="45.30455" lon="5.97276">
        <ele>580</ele>
        <time>2013-05-12T17:32:02.000Z</time>
      </trkpt>
      <trkpt lat="45.30465" lon="5.97246">
        <ele>575</ele>
        <time>2013-05-12T17:32:04.000Z</time>
      </trkpt>
      <trkpt lat="45.30478" lon="5.97216">
        <ele>568</ele>
        <time>2013-05-12T17:32:06.000Z</time>
      </trkpt>
      <trkpt lat="45.30493" lon="5.97191">
        <ele>564</ele>
        <time>2013-05-12T17:32:08.000Z</time>
      </trkpt>
      <trkpt lat="45.30509" lon="5.97167">
        <ele>562</ele>
        <time>2013-05-12T17:32:10.000Z</time>
      </trkpt>
      <trkpt lat="45.30526" lon="5.97145">
        <ele>561</ele>
        <time>2013-05-12T17:32:12.000Z</time>
      </trkpt>
      <trkpt lat="45.30541" lon="5.97125">
        <ele>559</ele>
        <time>2013-05-12T17:32:14.000Z</time>
      </trkpt>
      <trkpt lat="45.30552" lon="5.971">
        <ele>557</ele>
        <time>2013-05-12T17:32:16.000Z</time>
      </trkpt>
      <trkpt lat="45.30561" lon="5.97074">
        <ele>556</ele>
        <time>2013-05-12T17:32:18.000Z</time>
      </trkpt>
      <trkpt lat="45.30567" lon="5.97049">
        <ele>555</ele>
        <time>2013-05-12T17:32:20.000Z</time>
      </trkpt>
      <trkpt lat="45.30573" lon="5.97027">
        <ele>554</ele>
        <time>2013-05-12T17:32:22.000Z</time>
      </trkpt>
      <trkpt lat="45.30581" lon="5.97009">
        <ele>552</ele>
        <time>2013-05-12T17:32:24.000Z</time>
      </trkpt>
      <trkpt lat="45.30595" lon="5.96996">
        <ele>551</ele>
        <time>2013-05-12T17:32:26.000Z</time>
      </trkpt>
      <trkpt lat="45.30613" lon="5.96992">
        <ele>550</ele>
        <time>2013-05-12T17:32:28.000Z</time>
      </trkpt>
      <trkpt lat="45.30633" lon="5.96989">
        <ele>549</ele>
        <time>2013-05-12T17:32:30.000Z</time>
      </trkpt>
      <trkpt lat="45.30654" lon="5.96985">
        <ele>548</ele>
        <time>2013-05-12T17:32:32.000Z</time>
      </trkpt>
      <trkpt lat="45.30675" lon="5.96981">
        <ele>546</ele>
        <time>2013-05-12T17:32:34.000Z</time>
      </trkpt>
      <trkpt lat="45.30696" lon="5.96977">
        <ele>545</ele>
        <time>2013-05-12T17:32:36.000Z</time>
      </trkpt>
      <trkpt lat="45.30718" lon="5.96973">
        <ele>543</ele>
        <time>2013-05-12T17:32:38.000Z</time>
      </trkpt>
      <trkpt lat="45.30739" lon="5.96969">
        <ele>542</ele>
        <time>2013-05-12T17:32:40.000Z</time>
      </trkpt>
      <trkpt lat="45.30761" lon="5.96964">
        <ele>540</ele>
        <time>2013-05-12T17:32:42.000Z</time>
      </trkpt>
      <trkpt lat="45.3078" lon="5.96958">
        <ele>538</ele>
        <time>2013-05-12T17:32:44.000Z</time>
      </trkpt>
      <trkpt lat="45.30798" lon="5.9695">
        <ele>537</ele>
        <time>2013-05-12T17:32:46.000Z</time>
      </trkpt>
      <trkpt lat="45.30814" lon="5.96937">
        <ele>536</ele>
        <time>2013-05-12T17:32:48.000Z</time>
      </trkpt>
      <trkpt lat="45.30823" lon="5.96914">
        <ele>535</ele>
        <time>2013-05-12T17:32:50.000Z</time>
      </trkpt>
      <trkpt lat="45.30826" lon="5.96887">
        <ele>534</ele>
        <time>2013-05-12T17:32:52.000Z</time>
      </trkpt>
      <trkpt lat="45.30833" lon="5.96862">
        <ele>532</ele>
        <time>2013-05-12T17:32:54.000Z</time>
      </trkpt>
      <trkpt lat="45.30844" lon="5.96845">
        <ele>531</ele>
        <time>2013-05-12T17:32:56.000Z</time>
      </trkpt>
      <trkpt lat="45.3086" lon="5.96837">
        <ele>530</ele>
        <time>2013-05-12T17:32:58.000Z</time>
      </trkpt>
      <trkpt lat="45.3088" lon="5.96843">
        <ele>529</ele>
        <time>2013-05-12T17:33:00.000Z</time>
      </trkpt>
      <trkpt lat="45.30896" lon="5.96863">
        <ele>526</ele>
        <time>2013-05-12T17:33:02.000Z</time>
      </trkpt>
      <trkpt lat="45.30904" lon="5.96885">
        <ele>525</ele>
        <time>2013-05-12T17:33:04.000Z</time>
      </trkpt>
      <trkpt lat="45.30913" lon="5.96907">
        <ele>524</ele>
        <time>2013-05-12T17:33:06.000Z</time>
      </trkpt>
      <trkpt lat="45.30928" lon="5.96925">
        <ele>523</ele>
        <time>2013-05-12T17:33:08.000Z</time>
      </trkpt>
      <trkpt lat="45.30944" lon="5.96936">
        <ele>521</ele>
        <time>2013-05-12T17:33:10.000Z</time>
      </trkpt>
      <trkpt lat="45.30964" lon="5.96941">
        <ele>519</ele>
        <time>2013-05-12T17:33:12.000Z</time>
      </trkpt>
      <trkpt lat="45.30985" lon="5.9694">
        <ele>518</ele>
        <time>2013-05-12T17:33:14.000Z</time>
      </trkpt>
      <trkpt lat="45.31005" lon="5.96937">
        <ele>518</ele>
        <time>2013-05-12T17:33:16.000Z</time>
      </trkpt>
      <trkpt lat="45.31026" lon="5.96935">
        <ele>516</ele>
        <time>2013-05-12T17:33:18.000Z</time>
      </trkpt>
      <trkpt lat="45.31043" lon="5.96931">
        <ele>513</ele>
        <time>2013-05-12T17:33:20.000Z</time>
      </trkpt>
      <trkpt lat="45.31062" lon="5.96924">
        <ele>512</ele>
        <time>2013-05-12T17:33:22.000Z</time>
      </trkpt>
      <trkpt lat="45.3108" lon="5.96911">
        <ele>510</ele>
        <time>2013-05-12T17:33:24.000Z</time>
      </trkpt>
      <trkpt lat="45.31096" lon="5.96895">
        <ele>508</ele>
        <time>2013-05-12T17:33:27.000Z</time>
      </trkpt>
      <trkpt lat="45.31103" lon="5.96883">
        <ele>505</ele>
        <time>2013-05-12T17:33:30.000Z</time>
      </trkpt>
      <trkpt lat="45.31103" lon="5.96883">
        <ele>505</ele>
        <time>2013-05-12T17:33:32.000Z</time>
      </trkpt>
      <trkpt lat="45.31103" lon="5.96883">
        <ele>505</ele>
        <time>2013-05-12T17:33:34.000Z</time>
      </trkpt>
      <trkpt lat="45.31106" lon="5.9688">
        <ele>503</ele>
        <time>2013-05-12T17:34:47.000Z</time>
      </trkpt>
      <trkpt lat="45.31112" lon="5.9688">
        <ele>503</ele>
        <time>2013-05-12T17:34:51.000Z</time>
      </trkpt>
      <trkpt lat="45.31118" lon="5.96881">
        <ele>503</ele>
        <time>2013-05-12T17:34:53.000Z</time>
      </trkpt>
      <trkpt lat="45.31125" lon="5.96882">
        <ele>503</ele>
        <time>2013-05-12T17:34:55.000Z</time>
      </trkpt>
      <trkpt lat="45.31135" lon="5.96883">
        <ele>502</ele>
        <time>2013-05-12T17:34:57.000Z</time>
      </trkpt>
      <trkpt lat="45.31147" lon="5.96886">
        <ele>503</ele>
        <time>2013-05-12T17:34:59.000Z</time>
      </trkpt>
      <trkpt lat="45.31172" lon="5.96892">
        <ele>502</ele>
        <time>2013-05-12T17:35:01.000Z</time>
      </trkpt>
      <trkpt lat="45.31188" lon="5.96898">
        <ele>502</ele>
        <time>2013-05-12T17:35:03.000Z</time>
      </trkpt>
      <trkpt lat="45.31203" lon="5.96903">
        <ele>502</ele>
        <time>2013-05-12T17:35:05.000Z</time>
      </trkpt>
      <trkpt lat="45.3122" lon="5.9691">
        <ele>502</ele>
        <time>2013-05-12T17:35:07.000Z</time>
      </trkpt>
      <trkpt lat="45.31237" lon="5.96918">
        <ele>502</ele>
        <time>2013-05-12T17:35:09.000Z</time>
      </trkpt>
      <trkpt lat="45.31255" lon="5.96929">
        <ele>501</ele>
        <time>2013-05-12T17:35:11.000Z</time>
      </trkpt>
      <trkpt lat="45.31272" lon="5.96942">
        <ele>500</ele>
        <time>2013-05-12T17:35:13.000Z</time>
      </trkpt>
      <trkpt lat="45.31289" lon="5.96955">
        <ele>499</ele>
        <time>2013-05-12T17:35:15.000Z</time>
      </trkpt>
      <trkpt lat="45.31306" lon="5.96967">
        <ele>498</ele>
        <time>2013-05-12T17:35:17.000Z</time>
      </trkpt>
      <trkpt lat="45.31323" lon="5.96982">
        <ele>496</ele>
        <time>2013-05-12T17:35:19.000Z</time>
      </trkpt>
      <trkpt lat="45.31341" lon="5.96999">
        <ele>494</ele>
        <time>2013-05-12T17:35:21.000Z</time>
      </trkpt>
      <trkpt lat="45.31357" lon="5.97015">
        <ele>493</ele>
        <time>2013-05-12T17:35:23.000Z</time>
      </trkpt>
      <trkpt lat="45.31372" lon="5.97031">
        <ele>491</ele>
        <time>2013-05-12T17:35:25.000Z</time>
      </trkpt>
      <trkpt lat="45.31388" lon="5.97047">
        <ele>489</ele>
        <time>2013-05-12T17:35:27.000Z</time>
      </trkpt>
      <trkpt lat="45.31402" lon="5.97062">
        <ele>487</ele>
        <time>2013-05-12T17:35:29.000Z</time>
      </trkpt>
      <trkpt lat="45.31421" lon="5.97067">
        <ele>484</ele>
        <time>2013-05-12T17:35:31.000Z</time>
      </trkpt>
      <trkpt lat="45.3144" lon="5.97063">
        <ele>483</ele>
        <time>2013-05-12T17:35:33.000Z</time>
      </trkpt>
      <trkpt lat="45.31456" lon="5.9706">
        <ele>482</ele>
        <time>2013-05-12T17:35:35.000Z</time>
      </trkpt>
      <trkpt lat="45.31476" lon="5.97059">
        <ele>482</ele>
        <time>2013-05-12T17:35:37.000Z</time>
      </trkpt>
      <trkpt lat="45.31495" lon="5.97063">
        <ele>482</ele>
        <time>2013-05-12T17:35:39.000Z</time>
      </trkpt>
      <trkpt lat="45.31513" lon="5.97069">
        <ele>481</ele>
        <time>2013-05-12T17:35:41.000Z</time>
      </trkpt>
      <trkpt lat="45.3153" lon="5.97076">
        <ele>479</ele>
        <time>2013-05-12T17:35:43.000Z</time>
      </trkpt>
      <trkpt lat="45.31549" lon="5.97083">
        <ele>477</ele>
        <time>2013-05-12T17:35:45.000Z</time>
      </trkpt>
      <trkpt lat="45.31568" lon="5.97087">
        <ele>476</ele>
        <time>2013-05-12T17:35:47.000Z</time>
      </trkpt>
      <trkpt lat="45.31588" lon="5.97093">
        <ele>474</ele>
        <time>2013-05-12T17:35:49.000Z</time>
      </trkpt>
      <trkpt lat="45.31607" lon="5.971">
        <ele>472</ele>
        <time>2013-05-12T17:35:51.000Z</time>
      </trkpt>
      <trkpt lat="45.31623" lon="5.97112">
        <ele>471</ele>
        <time>2013-05-12T17:35:53.000Z</time>
      </trkpt>
      <trkpt lat="45.31639" lon="5.97122">
        <ele>470</ele>
        <time>2013-05-12T17:35:55.000Z</time>
      </trkpt>
      <trkpt lat="45.31657" lon="5.97126">
        <ele>469</ele>
        <time>2013-05-12T17:35:58.000Z</time>
      </trkpt>
      <trkpt lat="45.31677" lon="5.97125">
        <ele>468</ele>
        <time>2013-05-12T17:35:59.000Z</time>
      </trkpt>
      <trkpt lat="45.31697" lon="5.97129">
        <ele>467</ele>
        <time>2013-05-12T17:36:01.000Z</time>
      </trkpt>
      <trkpt lat="45.31716" lon="5.97135">
        <ele>466</ele>
        <time>2013-05-12T17:36:03.000Z</time>
      </trkpt>
      <trkpt lat="45.31736" lon="5.97148">
        <ele>465</ele>
        <time>2013-05-12T17:36:05.000Z</time>
      </trkpt>
      <trkpt lat="45.31754" lon="5.97164">
        <ele>462</ele>
        <time>2013-05-12T17:36:07.000Z</time>
      </trkpt>
      <trkpt lat="45.31769" lon="5.9718">
        <ele>459</ele>
        <time>2013-05-12T17:36:09.000Z</time>
      </trkpt>
      <trkpt lat="45.31786" lon="5.97191">
        <ele>458</ele>
        <time>2013-05-12T17:36:11.000Z</time>
      </trkpt>
      <trkpt lat="45.31805" lon="5.97197">
        <ele>455</ele>
        <time>2013-05-12T17:36:13.000Z</time>
      </trkpt>
      <trkpt lat="45.31824" lon="5.97198">
        <ele>453</ele>
        <time>2013-05-12T17:36:15.000Z</time>
      </trkpt>
      <trkpt lat="45.31843" lon="5.972">
        <ele>451</ele>
        <time>2013-05-12T17:36:17.000Z</time>
      </trkpt>
      <trkpt lat="45.31862" lon="5.97203">
        <ele>450</ele>
        <time>2013-05-12T17:36:19.000Z</time>
      </trkpt>
      <trkpt lat="45.31881" lon="5.97203">
        <ele>449</ele>
        <time>2013-05-12T17:36:21.000Z</time>
      </trkpt>
      <trkpt lat="45.31897" lon="5.97205">
        <ele>447</ele>
        <time>2013-05-12T17:36:23.000Z</time>
      </trkpt>
      <trkpt lat="45.31911" lon="5.97206">
        <ele>444</ele>
        <time>2013-05-12T17:36:25.000Z</time>
      </trkpt>
      <trkpt lat="45.3192" lon="5.97198">
        <ele>441</ele>
        <time>2013-05-12T17:36:27.000Z</time>
      </trkpt>
      <trkpt lat="45.31923" lon="5.97181">
        <ele>440</ele>
        <time>2013-05-12T17:36:29.000Z</time>
      </trkpt>
      <trkpt lat="45.31915" lon="5.97163">
        <ele>438</ele>
        <time>2013-05-12T17:36:31.000Z</time>
      </trkpt>
      <trkpt lat="45.31901" lon="5.97151">
        <ele>437</ele>
        <time>2013-05-12T17:36:33.000Z</time>
      </trkpt>
      <trkpt lat="45.31884" lon="5.97141">
        <ele>435</ele>
        <time>2013-05-12T17:36:35.000Z</time>
      </trkpt>
      <trkpt lat="45.31866" lon="5.9713">
        <ele>433</ele>
        <time>2013-05-12T17:36:37.000Z</time>
      </trkpt>
      <trkpt lat="45.31849" lon="5.97116">
        <ele>432</ele>
        <time>2013-05-12T17:36:39.000Z</time>
      </trkpt>
      <trkpt lat="45.31834" lon="5.97097">
        <ele>432</ele>
        <time>2013-05-12T17:36:41.000Z</time>
      </trkpt>
      <trkpt lat="45.31821" lon="5.97077">
        <ele>430</ele>
        <time>2013-05-12T17:36:43.000Z</time>
      </trkpt>
      <trkpt lat="45.31807" lon="5.97056">
        <ele>429</ele>
        <time>2013-05-12T17:36:45.000Z</time>
      </trkpt>
      <trkpt lat="45.31791" lon="5.97037">
        <ele>428</ele>
        <time>2013-05-12T17:36:47.000Z</time>
      </trkpt>
      <trkpt lat="45.31774" lon="5.97019">
        <ele>426</ele>
        <time>2013-05-12T17:36:49.000Z</time>
      </trkpt>
      <trkpt lat="45.31757" lon="5.97003">
        <ele>425</ele>
        <time>2013-05-12T17:36:51.000Z</time>
      </trkpt>
      <trkpt lat="45.3174" lon="5.96986">
        <ele>423</ele>
        <time>2013-05-12T17:36:53.000Z</time>
      </trkpt>
      <trkpt lat="45.31723" lon="5.96968">
        <ele>422</ele>
        <time>2013-05-12T17:36:55.000Z</time>
      </trkpt>
      <trkpt lat="45.31705" lon="5.9695">
        <ele>420</ele>
        <time>2013-05-12T17:36:57.000Z</time>
      </trkpt>
      <trkpt lat="45.31688" lon="5.96932">
        <ele>417</ele>
        <time>2013-05-12T17:36:59.000Z</time>
      </trkpt>
      <trkpt lat="45.31667" lon="5.96918">
        <ele>416</ele>
        <time>2013-05-12T17:37:01.000Z</time>
      </trkpt>
      <trkpt lat="45.31645" lon="5.96908">
        <ele>415</ele>
        <time>2013-05-12T17:37:03.000Z</time>
      </trkpt>
      <trkpt lat="45.31621" lon="5.96895">
        <ele>413</ele>
        <time>2013-05-12T17:37:05.000Z</time>
      </trkpt>
      <trkpt lat="45.31599" lon="5.96876">
        <ele>411</ele>
        <time>2013-05-12T17:37:07.000Z</time>
      </trkpt>
      <trkpt lat="45.3158" lon="5.96851">
        <ele>409</ele>
        <time>2013-05-12T17:37:09.000Z</time>
      </trkpt>
      <trkpt lat="45.31562" lon="5.96824">
        <ele>407</ele>
        <time>2013-05-12T17:37:11.000Z</time>
      </trkpt>
      <trkpt lat="45.31548" lon="5.96795">
        <ele>406</ele>
        <time>2013-05-12T17:37:13.000Z</time>
      </trkpt>
      <trkpt lat="45.31536" lon="5.96765">
        <ele>404</ele>
        <time>2013-05-12T17:37:15.000Z</time>
      </trkpt>
      <trkpt lat="45.31524" lon="5.96738">
        <ele>403</ele>
        <time>2013-05-12T17:37:17.000Z</time>
      </trkpt>
      <trkpt lat="45.31512" lon="5.96714">
        <ele>401</ele>
        <time>2013-05-12T17:37:19.000Z</time>
      </trkpt>
      <trkpt lat="45.31498" lon="5.96697">
        <ele>400</ele>
        <time>2013-05-12T17:37:21.000Z</time>
      </trkpt>
      <trkpt lat="45.31479" lon="5.96686">
        <ele>398</ele>
        <time>2013-05-12T17:37:23.000Z</time>
      </trkpt>
      <trkpt lat="45.31458" lon="5.96677">
        <ele>397</ele>
        <time>2013-05-12T17:37:25.000Z</time>
      </trkpt>
      <trkpt lat="45.31436" lon="5.96666">
        <ele>396</ele>
        <time>2013-05-12T17:37:27.000Z</time>
      </trkpt>
      <trkpt lat="45.31415" lon="5.96654">
        <ele>395</ele>
        <time>2013-05-12T17:37:29.000Z</time>
      </trkpt>
      <trkpt lat="45.31397" lon="5.96635">
        <ele>393</ele>
        <time>2013-05-12T17:37:31.000Z</time>
      </trkpt>
      <trkpt lat="45.31382" lon="5.96616">
        <ele>392</ele>
        <time>2013-05-12T17:37:33.000Z</time>
      </trkpt>
      <trkpt lat="45.31369" lon="5.96604">
        <ele>391</ele>
        <time>2013-05-12T17:37:35.000Z</time>
      </trkpt>
      <trkpt lat="45.31356" lon="5.96605">
        <ele>390</ele>
        <time>2013-05-12T17:37:37.000Z</time>
      </trkpt>
      <trkpt lat="45.31345" lon="5.9662">
        <ele>389</ele>
        <time>2013-05-12T17:37:39.000Z</time>
      </trkpt>
      <trkpt lat="45.31336" lon="5.96644">
        <ele>387</ele>
        <time>2013-05-12T17:37:41.000Z</time>
      </trkpt>
      <trkpt lat="45.31323" lon="5.9666">
        <ele>385</ele>
        <time>2013-05-12T17:37:43.000Z</time>
      </trkpt>
      <trkpt lat="45.31302" lon="5.96659">
        <ele>384</ele>
        <time>2013-05-12T17:37:45.000Z</time>
      </trkpt>
      <trkpt lat="45.31287" lon="5.96643">
        <ele>382</ele>
        <time>2013-05-12T17:37:47.000Z</time>
      </trkpt>
      <trkpt lat="45.31273" lon="5.96624">
        <ele>380</ele>
        <time>2013-05-12T17:37:49.000Z</time>
      </trkpt>
      <trkpt lat="45.31259" lon="5.96598">
        <ele>378</ele>
        <time>2013-05-12T17:37:51.000Z</time>
      </trkpt>
      <trkpt lat="45.31244" lon="5.96577">
        <ele>377</ele>
        <time>2013-05-12T17:37:53.000Z</time>
      </trkpt>
      <trkpt lat="45.31225" lon="5.9656">
        <ele>376</ele>
        <time>2013-05-12T17:37:55.000Z</time>
      </trkpt>
      <trkpt lat="45.31203" lon="5.96547">
        <ele>375</ele>
        <time>2013-05-12T17:37:57.000Z</time>
      </trkpt>
      <trkpt lat="45.31185" lon="5.96528">
        <ele>375</ele>
        <time>2013-05-12T17:37:59.000Z</time>
      </trkpt>
      <trkpt lat="45.31168" lon="5.96504">
        <ele>374</ele>
        <time>2013-05-12T17:38:01.000Z</time>
      </trkpt>
      <trkpt lat="45.31153" lon="5.9648">
        <ele>373</ele>
        <time>2013-05-12T17:38:03.000Z</time>
      </trkpt>
      <trkpt lat="45.31138" lon="5.96459">
        <ele>372</ele>
        <time>2013-05-12T17:38:05.000Z</time>
      </trkpt>
      <trkpt lat="45.31121" lon="5.96448">
        <ele>371</ele>
        <time>2013-05-12T17:38:07.000Z</time>
      </trkpt>
      <trkpt lat="45.31099" lon="5.96442">
        <ele>369</ele>
        <time>2013-05-12T17:38:09.000Z</time>
      </trkpt>
      <trkpt lat="45.31081" lon="5.96432">
        <ele>368</ele>
        <time>2013-05-12T17:38:11.000Z</time>
      </trkpt>
      <trkpt lat="45.31065" lon="5.96422">
        <ele>367</ele>
        <time>2013-05-12T17:38:13.000Z</time>
      </trkpt>
      <trkpt lat="45.31047" lon="5.96414">
        <ele>365</ele>
        <time>2013-05-12T17:38:15.000Z</time>
      </trkpt>
      <trkpt lat="45.31026" lon="5.96402">
        <ele>364</ele>
        <time>2013-05-12T17:38:17.000Z</time>
      </trkpt>
      <trkpt lat="45.31008" lon="5.96388">
        <ele>363</ele>
        <time>2013-05-12T17:38:19.000Z</time>
      </trkpt>
      <trkpt lat="45.3099" lon="5.96373">
        <ele>362</ele>
        <time>2013-05-12T17:38:21.000Z</time>
      </trkpt>
      <trkpt lat="45.30972" lon="5.96358">
        <ele>361</ele>
        <time>2013-05-12T17:38:23.000Z</time>
      </trkpt>
      <trkpt lat="45.30954" lon="5.96343">
        <ele>360</ele>
        <time>2013-05-12T17:38:25.000Z</time>
      </trkpt>
      <trkpt lat="45.30936" lon="5.96328">
        <ele>359</ele>
        <time>2013-05-12T17:38:27.000Z</time>
      </trkpt>
      <trkpt lat="45.30919" lon="5.96308">
        <ele>356</ele>
        <time>2013-05-12T17:38:29.000Z</time>
      </trkpt>
      <trkpt lat="45.30904" lon="5.96283">
        <ele>353</ele>
        <time>2013-05-12T17:38:31.000Z</time>
      </trkpt>
      <trkpt lat="45.3089" lon="5.96259">
        <ele>350</ele>
        <time>2013-05-12T17:38:33.000Z</time>
      </trkpt>
      <trkpt lat="45.30871" lon="5.96238">
        <ele>348</ele>
        <time>2013-05-12T17:38:35.000Z</time>
      </trkpt>
      <trkpt lat="45.30851" lon="5.96217">
        <ele>345</ele>
        <time>2013-05-12T17:38:37.000Z</time>
      </trkpt>
      <trkpt lat="45.3083" lon="5.96195">
        <ele>344</ele>
        <time>2013-05-12T17:38:39.000Z</time>
      </trkpt>
      <trkpt lat="45.30807" lon="5.96176">
        <ele>341</ele>
        <time>2013-05-12T17:38:41.000Z</time>
      </trkpt>
      <trkpt lat="45.30785" lon="5.96156">
        <ele>339</ele>
        <time>2013-05-12T17:38:43.000Z</time>
      </trkpt>
      <trkpt lat="45.30761" lon="5.96136">
        <ele>339</ele>
        <time>2013-05-12T17:38:45.000Z</time>
      </trkpt>
      <trkpt lat="45.3074" lon="5.96118">
        <ele>338</ele>
        <time>2013-05-12T17:38:47.000Z</time>
      </trkpt>
      <trkpt lat="45.30719" lon="5.96102">
        <ele>337</ele>
        <time>2013-05-12T17:38:49.000Z</time>
      </trkpt>
      <trkpt lat="45.30701" lon="5.96086">
        <ele>336</ele>
        <time>2013-05-12T17:38:51.000Z</time>
      </trkpt>
      <trkpt lat="45.30683" lon="5.96071">
        <ele>336</ele>
        <time>2013-05-12T17:38:53.000Z</time>
      </trkpt>
      <trkpt lat="45.30671" lon="5.96055">
        <ele>335</ele>
        <time>2013-05-12T17:38:55.000Z</time>
      </trkpt>
      <trkpt lat="45.30666" lon="5.96031">
        <ele>332</ele>
        <time>2013-05-12T17:38:57.000Z</time>
      </trkpt>
      <trkpt lat="45.30667" lon="5.96007">
        <ele>329</ele>
        <time>2013-05-12T17:38:59.000Z</time>
      </trkpt>
      <trkpt lat="45.30679" lon="5.95988">
        <ele>322</ele>
        <time>2013-05-12T17:39:01.000Z</time>
      </trkpt>
      <trkpt lat="45.30691" lon="5.95971">
        <ele>319</ele>
        <time>2013-05-12T17:39:03.000Z</time>
      </trkpt>
      <trkpt lat="45.30703" lon="5.95954">
        <ele>318</ele>
        <time>2013-05-12T17:39:05.000Z</time>
      </trkpt>
      <trkpt lat="45.30717" lon="5.95938">
        <ele>316</ele>
        <time>2013-05-12T17:39:07.000Z</time>
      </trkpt>
      <trkpt lat="45.30731" lon="5.95923">
        <ele>315</ele>
        <time>2013-05-12T17:39:09.000Z</time>
      </trkpt>
      <trkpt lat="45.30745" lon="5.95908">
        <ele>315</ele>
        <time>2013-05-12T17:39:11.000Z</time>
      </trkpt>
      <trkpt lat="45.3076" lon="5.95892">
        <ele>314</ele>
        <time>2013-05-12T17:39:13.000Z</time>
      </trkpt>
      <trkpt lat="45.30773" lon="5.95873">
        <ele>313</ele>
        <time>2013-05-12T17:39:15.000Z</time>
      </trkpt>
      <trkpt lat="45.30783" lon="5.95853">
        <ele>312</ele>
        <time>2013-05-12T17:39:17.000Z</time>
      </trkpt>
      <trkpt lat="45.30787" lon="5.95829">
        <ele>312</ele>
        <time>2013-05-12T17:39:19.000Z</time>
      </trkpt>
      <trkpt lat="45.3079" lon="5.95807">
        <ele>311</ele>
        <time>2013-05-12T17:39:21.000Z</time>
      </trkpt>
      <trkpt lat="45.30792" lon="5.95791">
        <ele>311</ele>
        <time>2013-05-12T17:39:23.000Z</time>
      </trkpt>
      <trkpt lat="45.30792" lon="5.95791">
        <ele>311</ele>
        <time>2013-05-12T17:39:26.000Z</time>
      </trkpt>
      <trkpt lat="45.30792" lon="5.95791">
        <ele>311</ele>
        <time>2013-05-12T17:39:29.000Z</time>
      </trkpt>
      <trkpt lat="45.30794" lon="5.95777">
        <ele>309</ele>
        <time>2013-05-12T17:39:46.000Z</time>
      </trkpt>
      <trkpt lat="45.30798" lon="5.95763">
        <ele>309</ele>
        <time>2013-05-12T17:39:50.000Z</time>
      </trkpt>
      <trkpt lat="45.30802" lon="5.95752">
        <ele>308</ele>
        <time>2013-05-12T17:39:52.000Z</time>
      </trkpt>
      <trkpt lat="45.30807" lon="5.95741">
        <ele>308</ele>
        <time>2013-05-12T17:39:54.000Z</time>
      </trkpt>
      <trkpt lat="45.30814" lon="5.95728">
        <ele>308</ele>
        <time>2013-05-12T17:39:56.000Z</time>
      </trkpt>
      <trkpt lat="45.30821" lon="5.95715">
        <ele>307</ele>
        <time>2013-05-12T17:39:58.000Z</time>
      </trkpt>
      <trkpt lat="45.30829" lon="5.95702">
        <ele>307</ele>
        <time>2013-05-12T17:40:00.000Z</time>
      </trkpt>
      <trkpt lat="45.30837" lon="5.95687">
        <ele>306</ele>
        <time>2013-05-12T17:40:02.000Z</time>
      </trkpt>
      <trkpt lat="45.30846" lon="5.95674">
        <ele>306</ele>
        <time>2013-05-12T17:40:04.000Z</time>
      </trkpt>
      <trkpt lat="45.30855" lon="5.9566">
        <ele>305</ele>
        <time>2013-05-12T17:40:06.000Z</time>
      </trkpt>
      <trkpt lat="45.30864" lon="5.95646">
        <ele>305</ele>
        <time>2013-05-12T17:40:08.000Z</time>
      </trkpt>
      <trkpt lat="45.30873" lon="5.95631">
        <ele>304</ele>
        <time>2013-05-12T17:40:10.000Z</time>
      </trkpt>
      <trkpt lat="45.30882" lon="5.95617">
        <ele>304</ele>
        <time>2013-05-12T17:40:12.000Z</time>
      </trkpt>
      <trkpt lat="45.30892" lon="5.95603">
        <ele>303</ele>
        <time>2013-05-12T17:40:14.000Z</time>
      </trkpt>
      <trkpt lat="45.30902" lon="5.9559">
        <ele>303</ele>
        <time>2013-05-12T17:40:16.000Z</time>
      </trkpt>
      <trkpt lat="45.30911" lon="5.95576">
        <ele>303</ele>
        <time>2013-05-12T17:40:18.000Z</time>
      </trkpt>
      <trkpt lat="45.30919" lon="5.9556">
        <ele>303</ele>
        <time>2013-05-12T17:40:20.000Z</time>
      </trkpt>
      <trkpt lat="45.30928" lon="5.95546">
        <ele>302</ele>
        <time>2013-05-12T17:40:22.000Z</time>
      </trkpt>
      <trkpt lat="45.30937" lon="5.95533">
        <ele>302</ele>
        <time>2013-05-12T17:40:24.000Z</time>
      </trkpt>
      <trkpt lat="45.30947" lon="5.95519">
        <ele>302</ele>
        <time>2013-05-12T17:40:26.000Z</time>
      </trkpt>
      <trkpt lat="45.30956" lon="5.95505">
        <ele>302</ele>
        <time>2013-05-12T17:40:28.000Z</time>
      </trkpt>
      <trkpt lat="45.30965" lon="5.95491">
        <ele>302</ele>
        <time>2013-05-12T17:40:30.000Z</time>
      </trkpt>
      <trkpt lat="45.30975" lon="5.95477">
        <ele>302</ele>
        <time>2013-05-12T17:40:32.000Z</time>
      </trkpt>
      <trkpt lat="45.30984" lon="5.95462">
        <ele>302</ele>
        <time>2013-05-12T17:40:34.000Z</time>
      </trkpt>
      <trkpt lat="45.30993" lon="5.95449">
        <ele>302</ele>
        <time>2013-05-12T17:40:36.000Z</time>
      </trkpt>
      <trkpt lat="45.31001" lon="5.95437">
        <ele>301</ele>
        <time>2013-05-12T17:40:38.000Z</time>
      </trkpt>
      <trkpt lat="45.3101" lon="5.95425">
        <ele>301</ele>
        <time>2013-05-12T17:40:40.000Z</time>
      </trkpt>
      <trkpt lat="45.31019" lon="5.95411">
        <ele>301</ele>
        <time>2013-05-12T17:40:42.000Z</time>
      </trkpt>
      <trkpt lat="45.31028" lon="5.95397">
        <ele>300</ele>
        <time>2013-05-12T17:40:44.000Z</time>
      </trkpt>
      <trkpt lat="45.31038" lon="5.95383">
        <ele>300</ele>
        <time>2013-05-12T17:40:46.000Z</time>
      </trkpt>
      <trkpt lat="45.31047" lon="5.95369">
        <ele>299</ele>
        <time>2013-05-12T17:40:48.000Z</time>
      </trkpt>
      <trkpt lat="45.31057" lon="5.95354">
        <ele>299</ele>
        <time>2013-05-12T17:40:50.000Z</time>
      </trkpt>
      <trkpt lat="45.31067" lon="5.95338">
        <ele>299</ele>
        <time>2013-05-12T17:40:52.000Z</time>
      </trkpt>
      <trkpt lat="45.31077" lon="5.95322">
        <ele>299</ele>
        <time>2013-05-12T17:40:54.000Z</time>
      </trkpt>
      <trkpt lat="45.31087" lon="5.95307">
        <ele>299</ele>
        <time>2013-05-12T17:40:56.000Z</time>
      </trkpt>
      <trkpt lat="45.31097" lon="5.95291">
        <ele>299</ele>
        <time>2013-05-12T17:40:58.000Z</time>
      </trkpt>
      <trkpt lat="45.31107" lon="5.95275">
        <ele>299</ele>
        <time>2013-05-12T17:41:00.000Z</time>
      </trkpt>
      <trkpt lat="45.31117" lon="5.9526">
        <ele>299</ele>
        <time>2013-05-12T17:41:02.000Z</time>
      </trkpt>
      <trkpt lat="45.31127" lon="5.95245">
        <ele>298</ele>
        <time>2013-05-12T17:41:04.000Z</time>
      </trkpt>
      <trkpt lat="45.31136" lon="5.9523">
        <ele>298</ele>
        <time>2013-05-12T17:41:06.000Z</time>
      </trkpt>
      <trkpt lat="45.31145" lon="5.95216">
        <ele>297</ele>
        <time>2013-05-12T17:41:08.000Z</time>
      </trkpt>
      <trkpt lat="45.31155" lon="5.95202">
        <ele>296</ele>
        <time>2013-05-12T17:41:10.000Z</time>
      </trkpt>
      <trkpt lat="45.31164" lon="5.95187">
        <ele>296</ele>
        <time>2013-05-12T17:41:12.000Z</time>
      </trkpt>
      <trkpt lat="45.31174" lon="5.95172">
        <ele>295</ele>
        <time>2013-05-12T17:41:14.000Z</time>
      </trkpt>
      <trkpt lat="45.31184" lon="5.95155">
        <ele>295</ele>
        <time>2013-05-12T17:41:16.000Z</time>
      </trkpt>
      <trkpt lat="45.31195" lon="5.95138">
        <ele>295</ele>
        <time>2013-05-12T17:41:18.000Z</time>
      </trkpt>
      <trkpt lat="45.31205" lon="5.95121">
        <ele>295</ele>
        <time>2013-05-12T17:41:20.000Z</time>
      </trkpt>
      <trkpt lat="45.31216" lon="5.95106">
        <ele>295</ele>
        <time>2013-05-12T17:41:22.000Z</time>
      </trkpt>
      <trkpt lat="45.31227" lon="5.9509">
        <ele>294</ele>
        <time>2013-05-12T17:41:24.000Z</time>
      </trkpt>
      <trkpt lat="45.31237" lon="5.95073">
        <ele>294</ele>
        <time>2013-05-12T17:41:26.000Z</time>
      </trkpt>
      <trkpt lat="45.31247" lon="5.95058">
        <ele>293</ele>
        <time>2013-05-12T17:41:28.000Z</time>
      </trkpt>
      <trkpt lat="45.31256" lon="5.95043">
        <ele>292</ele>
        <time>2013-05-12T17:41:30.000Z</time>
      </trkpt>
      <trkpt lat="45.31266" lon="5.95027">
        <ele>292</ele>
        <time>2013-05-12T17:41:32.000Z</time>
      </trkpt>
      <trkpt lat="45.31276" lon="5.95011">
        <ele>291</ele>
        <time>2013-05-12T17:41:34.000Z</time>
      </trkpt>
      <trkpt lat="45.31286" lon="5.94995">
        <ele>291</ele>
        <time>2013-05-12T17:41:36.000Z</time>
      </trkpt>
      <trkpt lat="45.31297" lon="5.94979">
        <ele>291</ele>
        <time>2013-05-12T17:41:38.000Z</time>
      </trkpt>
      <trkpt lat="45.31306" lon="5.94963">
        <ele>290</ele>
        <time>2013-05-12T17:41:40.000Z</time>
      </trkpt>
      <trkpt lat="45.31316" lon="5.94948">
        <ele>290</ele>
        <time>2013-05-12T17:41:42.000Z</time>
      </trkpt>
      <trkpt lat="45.31327" lon="5.94932">
        <ele>291</ele>
        <time>2013-05-12T17:41:44.000Z</time>
      </trkpt>
      <trkpt lat="45.31337" lon="5.94916">
        <ele>290</ele>
        <time>2013-05-12T17:41:46.000Z</time>
      </trkpt>
      <trkpt lat="45.31347" lon="5.94901">
        <ele>290</ele>
        <time>2013-05-12T17:41:48.000Z</time>
      </trkpt>
      <trkpt lat="45.31357" lon="5.94886">
        <ele>290</ele>
        <time>2013-05-12T17:41:50.000Z</time>
      </trkpt>
      <trkpt lat="45.31366" lon="5.94871">
        <ele>290</ele>
        <time>2013-05-12T17:41:52.000Z</time>
      </trkpt>
      <trkpt lat="45.31376" lon="5.94856">
        <ele>289</ele>
        <time>2013-05-12T17:41:54.000Z</time>
      </trkpt>
      <trkpt lat="45.31386" lon="5.94841">
        <ele>289</ele>
        <time>2013-05-12T17:41:56.000Z</time>
      </trkpt>
      <trkpt lat="45.31396" lon="5.94826">
        <ele>289</ele>
        <time>2013-05-12T17:41:58.000Z</time>
      </trkpt>
      <trkpt lat="45.31406" lon="5.9481">
        <ele>289</ele>
        <time>2013-05-12T17:42:00.000Z</time>
      </trkpt>
      <trkpt lat="45.31416" lon="5.94794">
        <ele>289</ele>
        <time>2013-05-12T17:42:02.000Z</time>
      </trkpt>
      <trkpt lat="45.31425" lon="5.94779">
        <ele>289</ele>
        <time>2013-05-12T17:42:04.000Z</time>
      </trkpt>
      <trkpt lat="45.31435" lon="5.94764">
        <ele>289</ele>
        <time>2013-05-12T17:42:06.000Z</time>
      </trkpt>
      <trkpt lat="45.31445" lon="5.94749">
        <ele>289</ele>
        <time>2013-05-12T17:42:08.000Z</time>
      </trkpt>
      <trkpt lat="45.31454" lon="5.94734">
        <ele>290</ele>
        <time>2013-05-12T17:42:10.000Z</time>
      </trkpt>
      <trkpt lat="45.31462" lon="5.9472">
        <ele>290</ele>
        <time>2013-05-12T17:42:12.000Z</time>
      </trkpt>
      <trkpt lat="45.31471" lon="5.94707">
        <ele>290</ele>
        <time>2013-05-12T17:42:14.000Z</time>
      </trkpt>
      <trkpt lat="45.31479" lon="5.94694">
        <ele>290</ele>
        <time>2013-05-12T17:42:16.000Z</time>
      </trkpt>
      <trkpt lat="45.31487" lon="5.94681">
        <ele>290</ele>
        <time>2013-05-12T17:42:18.000Z</time>
      </trkpt>
      <trkpt lat="45.31495" lon="5.94669">
        <ele>290</ele>
        <time>2013-05-12T17:42:20.000Z</time>
      </trkpt>
      <trkpt lat="45.31502" lon="5.94658">
        <ele>291</ele>
        <time>2013-05-12T17:42:22.000Z</time>
      </trkpt>
      <trkpt lat="45.31509" lon="5.94646">
        <ele>291</ele>
        <time>2013-05-12T17:42:24.000Z</time>
      </trkpt>
      <trkpt lat="45.31516" lon="5.94634">
        <ele>292</ele>
        <time>2013-05-12T17:42:26.000Z</time>
      </trkpt>
      <trkpt lat="45.31523" lon="5.94624">
        <ele>293</ele>
        <time>2013-05-12T17:42:28.000Z</time>
      </trkpt>
      <trkpt lat="45.3153" lon="5.94611">
        <ele>293</ele>
        <time>2013-05-12T17:42:30.000Z</time>
      </trkpt>
      <trkpt lat="45.31537" lon="5.946">
        <ele>293</ele>
        <time>2013-05-12T17:42:32.000Z</time>
      </trkpt>
      <trkpt lat="45.31542" lon="5.94589">
        <ele>293</ele>
        <time>2013-05-12T17:42:34.000Z</time>
      </trkpt>
      <trkpt lat="45.31548" lon="5.94579">
        <ele>294</ele>
        <time>2013-05-12T17:42:36.000Z</time>
      </trkpt>
      <trkpt lat="45.31555" lon="5.94569">
        <ele>293</ele>
        <time>2013-05-12T17:42:38.000Z</time>
      </trkpt>
      <trkpt lat="45.31563" lon="5.94558">
        <ele>293</ele>
        <time>2013-05-12T17:42:40.000Z</time>
      </trkpt>
      <trkpt lat="45.31571" lon="5.94547">
        <ele>294</ele>
        <time>2013-05-12T17:42:42.000Z</time>
      </trkpt>
      <trkpt lat="45.31579" lon="5.94536">
        <ele>293</ele>
        <time>2013-05-12T17:42:44.000Z</time>
      </trkpt>
      <trkpt lat="45.31586" lon="5.94525">
        <ele>293</ele>
        <time>2013-05-12T17:42:46.000Z</time>
      </trkpt>
      <trkpt lat="45.31594" lon="5.94513">
        <ele>292</ele>
        <time>2013-05-12T17:42:48.000Z</time>
      </trkpt>
      <trkpt lat="45.31602" lon="5.94501">
        <ele>292</ele>
        <time>2013-05-12T17:42:50.000Z</time>
      </trkpt>
      <trkpt lat="45.3161" lon="5.94489">
        <ele>292</ele>
        <time>2013-05-12T17:42:52.000Z</time>
      </trkpt>
      <trkpt lat="45.31618" lon="5.94477">
        <ele>292</ele>
        <time>2013-05-12T17:42:54.000Z</time>
      </trkpt>
      <trkpt lat="45.31625" lon="5.94464">
        <ele>292</ele>
        <time>2013-05-12T17:42:56.000Z</time>
      </trkpt>
      <trkpt lat="45.31633" lon="5.94452">
        <ele>292</ele>
        <time>2013-05-12T17:42:58.000Z</time>
      </trkpt>
      <trkpt lat="45.31641" lon="5.94439">
        <ele>292</ele>
        <time>2013-05-12T17:43:00.000Z</time>
      </trkpt>
      <trkpt lat="45.31651" lon="5.94427">
        <ele>292</ele>
        <time>2013-05-12T17:43:02.000Z</time>
      </trkpt>
      <trkpt lat="45.31659" lon="5.94415">
        <ele>292</ele>
        <time>2013-05-12T17:43:04.000Z</time>
      </trkpt>
      <trkpt lat="45.31668" lon="5.94402">
        <ele>292</ele>
        <time>2013-05-12T17:43:06.000Z</time>
      </trkpt>
      <trkpt lat="45.31676" lon="5.94391">
        <ele>292</ele>
        <time>2013-05-12T17:43:08.000Z</time>
      </trkpt>
      <trkpt lat="45.31683" lon="5.94379">
        <ele>292</ele>
        <time>2013-05-12T17:43:10.000Z</time>
      </trkpt>
      <trkpt lat="45.3169" lon="5.94367">
        <ele>292</ele>
        <time>2013-05-12T17:43:12.000Z</time>
      </trkpt>
      <trkpt lat="45.31697" lon="5.94356">
        <ele>293</ele>
        <time>2013-05-12T17:43:14.000Z</time>
      </trkpt>
      <trkpt lat="45.31704" lon="5.94345">
        <ele>293</ele>
        <time>2013-05-12T17:43:16.000Z</time>
      </trkpt>
      <trkpt lat="45.3171" lon="5.94336">
        <ele>293</ele>
        <time>2013-05-12T17:43:18.000Z</time>
      </trkpt>
      <trkpt lat="45.31716" lon="5.94326">
        <ele>293</ele>
        <time>2013-05-12T17:43:20.000Z</time>
      </trkpt>
      <trkpt lat="45.31722" lon="5.94315">
        <ele>294</ele>
        <time>2013-05-12T17:43:22.000Z</time>
      </trkpt>
      <trkpt lat="45.31728" lon="5.94305">
        <ele>294</ele>
        <time>2013-05-12T17:43:24.000Z</time>
      </trkpt>
      <trkpt lat="45.31734" lon="5.94295">
        <ele>294</ele>
        <time>2013-05-12T17:43:26.000Z</time>
      </trkpt>
      <trkpt lat="45.3174" lon="5.94285">
        <ele>294</ele>
        <time>2013-05-12T17:43:28.000Z</time>
      </trkpt>
      <trkpt lat="45.31746" lon="5.94275">
        <ele>295</ele>
        <time>2013-05-12T17:43:30.000Z</time>
      </trkpt>
      <trkpt lat="45.31753" lon="5.94266">
        <ele>294</ele>
        <time>2013-05-12T17:43:32.000Z</time>
      </trkpt>
      <trkpt lat="45.31759" lon="5.94256">
        <ele>294</ele>
        <time>2013-05-12T17:43:34.000Z</time>
      </trkpt>
      <trkpt lat="45.31766" lon="5.94246">
        <ele>294</ele>
        <time>2013-05-12T17:43:36.000Z</time>
      </trkpt>
      <trkpt lat="45.31773" lon="5.94235">
        <ele>295</ele>
        <time>2013-05-12T17:43:38.000Z</time>
      </trkpt>
      <trkpt lat="45.31779" lon="5.94225">
        <ele>294</ele>
        <time>2013-05-12T17:43:40.000Z</time>
      </trkpt>
      <trkpt lat="45.31786" lon="5.94216">
        <ele>295</ele>
        <time>2013-05-12T17:43:42.000Z</time>
      </trkpt>
      <trkpt lat="45.31793" lon="5.94204">
        <ele>295</ele>
        <time>2013-05-12T17:43:44.000Z</time>
      </trkpt>
      <trkpt lat="45.31801" lon="5.94192">
        <ele>295</ele>
        <time>2013-05-12T17:43:46.000Z</time>
      </trkpt>
      <trkpt lat="45.31809" lon="5.94179">
        <ele>296</ele>
        <time>2013-05-12T17:43:48.000Z</time>
      </trkpt>
      <trkpt lat="45.31817" lon="5.94166">
        <ele>296</ele>
        <time>2013-05-12T17:43:50.000Z</time>
      </trkpt>
      <trkpt lat="45.31825" lon="5.94152">
        <ele>298</ele>
        <time>2013-05-12T17:43:52.000Z</time>
      </trkpt>
      <trkpt lat="45.31833" lon="5.94138">
        <ele>298</ele>
        <time>2013-05-12T17:43:54.000Z</time>
      </trkpt>
      <trkpt lat="45.31841" lon="5.94125">
        <ele>299</ele>
        <time>2013-05-12T17:43:56.000Z</time>
      </trkpt>
      <trkpt lat="45.3185" lon="5.94111">
        <ele>299</ele>
        <time>2013-05-12T17:43:58.000Z</time>
      </trkpt>
      <trkpt lat="45.31859" lon="5.94098">
        <ele>299</ele>
        <time>2013-05-12T17:44:00.000Z</time>
      </trkpt>
      <trkpt lat="45.31869" lon="5.94083">
        <ele>299</ele>
        <time>2013-05-12T17:44:02.000Z</time>
      </trkpt>
      <trkpt lat="45.31878" lon="5.94066">
        <ele>298</ele>
        <time>2013-05-12T17:44:04.000Z</time>
      </trkpt>
      <trkpt lat="45.31889" lon="5.9405">
        <ele>298</ele>
        <time>2013-05-12T17:44:06.000Z</time>
      </trkpt>
      <trkpt lat="45.31899" lon="5.94035">
        <ele>297</ele>
        <time>2013-05-12T17:44:08.000Z</time>
      </trkpt>
      <trkpt lat="45.3191" lon="5.94019">
        <ele>296</ele>
        <time>2013-05-12T17:44:10.000Z</time>
      </trkpt>
      <trkpt lat="45.31921" lon="5.94004">
        <ele>295</ele>
        <time>2013-05-12T17:44:12.000Z</time>
      </trkpt>
      <trkpt lat="45.31932" lon="5.93988">
        <ele>294</ele>
        <time>2013-05-12T17:44:14.000Z</time>
      </trkpt>
      <trkpt lat="45.31942" lon="5.93973">
        <ele>293</ele>
        <time>2013-05-12T17:44:16.000Z</time>
      </trkpt>
      <trkpt lat="45.31952" lon="5.93958">
        <ele>292</ele>
        <time>2013-05-12T17:44:18.000Z</time>
      </trkpt>
      <trkpt lat="45.31961" lon="5.93944">
        <ele>291</ele>
        <time>2013-05-12T17:44:20.000Z</time>
      </trkpt>
      <trkpt lat="45.31969" lon="5.93931">
        <ele>291</ele>
        <time>2013-05-12T17:44:22.000Z</time>
      </trkpt>
      <trkpt lat="45.31977" lon="5.93919">
        <ele>290</ele>
        <time>2013-05-12T17:44:24.000Z</time>
      </trkpt>
      <trkpt lat="45.31985" lon="5.93908">
        <ele>290</ele>
        <time>2013-05-12T17:44:26.000Z</time>
      </trkpt>
      <trkpt lat="45.31992" lon="5.93897">
        <ele>290</ele>
        <time>2013-05-12T17:44:28.000Z</time>
      </trkpt>
      <trkpt lat="45.31999" lon="5.93887">
        <ele>290</ele>
        <time>2013-05-12T17:44:30.000Z</time>
      </trkpt>
      <trkpt lat="45.32006" lon="5.93876">
        <ele>290</ele>
        <time>2013-05-12T17:44:32.000Z</time>
      </trkpt>
      <trkpt lat="45.32012" lon="5.93865">
        <ele>289</ele>
        <time>2013-05-12T17:44:34.000Z</time>
      </trkpt>
      <trkpt lat="45.32019" lon="5.93855">
        <ele>289</ele>
        <time>2013-05-12T17:44:36.000Z</time>
      </trkpt>
      <trkpt lat="45.32026" lon="5.93844">
        <ele>289</ele>
        <time>2013-05-12T17:44:38.000Z</time>
      </trkpt>
      <trkpt lat="45.32033" lon="5.93834">
        <ele>290</ele>
        <time>2013-05-12T17:44:40.000Z</time>
      </trkpt>
      <trkpt lat="45.3204" lon="5.93823">
        <ele>290</ele>
        <time>2013-05-12T17:44:42.000Z</time>
      </trkpt>
      <trkpt lat="45.32047" lon="5.93813">
        <ele>290</ele>
        <time>2013-05-12T17:44:44.000Z</time>
      </trkpt>
      <trkpt lat="45.32054" lon="5.93802">
        <ele>290</ele>
        <time>2013-05-12T17:44:46.000Z</time>
      </trkpt>
      <trkpt lat="45.32061" lon="5.93791">
        <ele>289</ele>
        <time>2013-05-12T17:44:48.000Z</time>
      </trkpt>
      <trkpt lat="45.32068" lon="5.9378">
        <ele>289</ele>
        <time>2013-05-12T17:44:50.000Z</time>
      </trkpt>
      <trkpt lat="45.32075" lon="5.93769">
        <ele>290</ele>
        <time>2013-05-12T17:44:52.000Z</time>
      </trkpt>
      <trkpt lat="45.32082" lon="5.93758">
        <ele>290</ele>
        <time>2013-05-12T17:44:54.000Z</time>
      </trkpt>
      <trkpt lat="45.32088" lon="5.93747">
        <ele>290</ele>
        <time>2013-05-12T17:44:56.000Z</time>
      </trkpt>
      <trkpt lat="45.32095" lon="5.93737">
        <ele>290</ele>
        <time>2013-05-12T17:44:58.000Z</time>
      </trkpt>
      <trkpt lat="45.32102" lon="5.93727">
        <ele>290</ele>
        <time>2013-05-12T17:45:00.000Z</time>
      </trkpt>
      <trkpt lat="45.32109" lon="5.93717">
        <ele>290</ele>
        <time>2013-05-12T17:45:02.000Z</time>
      </trkpt>
      <trkpt lat="45.32115" lon="5.93706">
        <ele>290</ele>
        <time>2013-05-12T17:45:04.000Z</time>
      </trkpt>
      <trkpt lat="45.32122" lon="5.93697">
        <ele>290</ele>
        <time>2013-05-12T17:45:06.000Z</time>
      </trkpt>
      <trkpt lat="45.32129" lon="5.93686">
        <ele>290</ele>
        <time>2013-05-12T17:45:08.000Z</time>
      </trkpt>
      <trkpt lat="45.32135" lon="5.93676">
        <ele>290</ele>
        <time>2013-05-12T17:45:10.000Z</time>
      </trkpt>
      <trkpt lat="45.32142" lon="5.93665">
        <ele>291</ele>
        <time>2013-05-12T17:45:12.000Z</time>
      </trkpt>
      <trkpt lat="45.32148" lon="5.93655">
        <ele>291</ele>
        <time>2013-05-12T17:45:14.000Z</time>
      </trkpt>
      <trkpt lat="45.32155" lon="5.93645">
        <ele>291</ele>
        <time>2013-05-12T17:45:16.000Z</time>
      </trkpt>
      <trkpt lat="45.32161" lon="5.93635">
        <ele>291</ele>
        <time>2013-05-12T17:45:18.000Z</time>
      </trkpt>
      <trkpt lat="45.32168" lon="5.93624">
        <ele>291</ele>
        <time>2013-05-12T17:45:20.000Z</time>
      </trkpt>
      <trkpt lat="45.32174" lon="5.93614">
        <ele>291</ele>
        <time>2013-05-12T17:45:22.000Z</time>
      </trkpt>
      <trkpt lat="45.32181" lon="5.93603">
        <ele>292</ele>
        <time>2013-05-12T17:45:24.000Z</time>
      </trkpt>
      <trkpt lat="45.32188" lon="5.93594">
        <ele>292</ele>
        <time>2013-05-12T17:45:26.000Z</time>
      </trkpt>
      <trkpt lat="45.32194" lon="5.93584">
        <ele>292</ele>
        <time>2013-05-12T17:45:28.000Z</time>
      </trkpt>
      <trkpt lat="45.322" lon="5.93573">
        <ele>292</ele>
        <time>2013-05-12T17:45:30.000Z</time>
      </trkpt>
      <trkpt lat="45.32207" lon="5.93563">
        <ele>292</ele>
        <time>2013-05-12T17:45:32.000Z</time>
      </trkpt>
      <trkpt lat="45.32214" lon="5.93553">
        <ele>292</ele>
        <time>2013-05-12T17:45:34.000Z</time>
      </trkpt>
      <trkpt lat="45.3222" lon="5.93542">
        <ele>293</ele>
        <time>2013-05-12T17:45:36.000Z</time>
      </trkpt>
      <trkpt lat="45.32227" lon="5.93532">
        <ele>293</ele>
        <time>2013-05-12T17:45:38.000Z</time>
      </trkpt>
      <trkpt lat="45.32234" lon="5.93522">
        <ele>293</ele>
        <time>2013-05-12T17:45:40.000Z</time>
      </trkpt>
      <trkpt lat="45.32241" lon="5.93512">
        <ele>294</ele>
        <time>2013-05-12T17:45:42.000Z</time>
      </trkpt>
      <trkpt lat="45.32248" lon="5.93502">
        <ele>294</ele>
        <time>2013-05-12T17:45:44.000Z</time>
      </trkpt>
      <trkpt lat="45.32254" lon="5.93492">
        <ele>295</ele>
        <time>2013-05-12T17:45:46.000Z</time>
      </trkpt>
      <trkpt lat="45.32261" lon="5.93481">
        <ele>295</ele>
        <time>2013-05-12T17:45:48.000Z</time>
      </trkpt>
      <trkpt lat="45.32267" lon="5.93471">
        <ele>295</ele>
        <time>2013-05-12T17:45:50.000Z</time>
      </trkpt>
      <trkpt lat="45.32274" lon="5.93462">
        <ele>295</ele>
        <time>2013-05-12T17:45:52.000Z</time>
      </trkpt>
      <trkpt lat="45.32281" lon="5.93452">
        <ele>295</ele>
        <time>2013-05-12T17:45:54.000Z</time>
      </trkpt>
      <trkpt lat="45.32287" lon="5.93442">
        <ele>295</ele>
        <time>2013-05-12T17:45:56.000Z</time>
      </trkpt>
      <trkpt lat="45.32294" lon="5.93432">
        <ele>295</ele>
        <time>2013-05-12T17:45:58.000Z</time>
      </trkpt>
      <trkpt lat="45.323" lon="5.93422">
        <ele>295</ele>
        <time>2013-05-12T17:46:00.000Z</time>
      </trkpt>
      <trkpt lat="45.32307" lon="5.93412">
        <ele>295</ele>
        <time>2013-05-12T17:46:02.000Z</time>
      </trkpt>
      <trkpt lat="45.32313" lon="5.93401">
        <ele>296</ele>
        <time>2013-05-12T17:46:04.000Z</time>
      </trkpt>
      <trkpt lat="45.32319" lon="5.93392">
        <ele>297</ele>
        <time>2013-05-12T17:46:06.000Z</time>
      </trkpt>
      <trkpt lat="45.32325" lon="5.93383">
        <ele>297</ele>
        <time>2013-05-12T17:46:08.000Z</time>
      </trkpt>
      <trkpt lat="45.32331" lon="5.93376">
        <ele>297</ele>
        <time>2013-05-12T17:46:10.000Z</time>
      </trkpt>
      <trkpt lat="45.32336" lon="5.93369">
        <ele>297</ele>
        <time>2013-05-12T17:46:12.000Z</time>
      </trkpt>
      <trkpt lat="45.32342" lon="5.93363">
        <ele>298</ele>
        <time>2013-05-12T17:46:14.000Z</time>
      </trkpt>
      <trkpt lat="45.32346" lon="5.93357">
        <ele>298</ele>
        <time>2013-05-12T17:46:16.000Z</time>
      </trkpt>
      <trkpt lat="45.32346" lon="5.93357">
        <ele>298</ele>
        <time>2013-05-12T17:46:18.000Z</time>
      </trkpt>
      <trkpt lat="45.32346" lon="5.93357">
        <ele>298</ele>
        <time>2013-05-12T17:46:20.000Z</time>
      </trkpt>
      <trkpt lat="45.32356" lon="5.93351">
        <ele>300</ele>
        <time>2013-05-12T17:46:22.000Z</time>
      </trkpt>
      <trkpt lat="45.32356" lon="5.93351">
        <ele>300</ele>
        <time>2013-05-12T17:46:24.000Z</time>
      </trkpt>
      <trkpt lat="45.32359" lon="5.93335">
        <ele>300</ele>
        <time>2013-05-12T17:46:26.000Z</time>
      </trkpt>
      <trkpt lat="45.32343" lon="5.93324">
        <ele>299</ele>
        <time>2013-05-12T17:46:30.000Z</time>
      </trkpt>
      <trkpt lat="45.32327" lon="5.93307">
        <ele>299</ele>
        <time>2013-05-12T17:46:34.000Z</time>
      </trkpt>
      <trkpt lat="45.32318" lon="5.93297">
        <ele>299</ele>
        <time>2013-05-12T17:46:36.000Z</time>
      </trkpt>
      <trkpt lat="45.32309" lon="5.93287">
        <ele>299</ele>
        <time>2013-05-12T17:46:38.000Z</time>
      </trkpt>
      <trkpt lat="45.32299" lon="5.93275">
        <ele>299</ele>
        <time>2013-05-12T17:46:40.000Z</time>
      </trkpt>
      <trkpt lat="45.3229" lon="5.93265">
        <ele>299</ele>
        <time>2013-05-12T17:46:42.000Z</time>
      </trkpt>
      <trkpt lat="45.32281" lon="5.93254">
        <ele>299</ele>
        <time>2013-05-12T17:46:44.000Z</time>
      </trkpt>
      <trkpt lat="45.32273" lon="5.93243">
        <ele>299</ele>
        <time>2013-05-12T17:46:46.000Z</time>
      </trkpt>
      <trkpt lat="45.32263" lon="5.93233">
        <ele>299</ele>
        <time>2013-05-12T17:46:48.000Z</time>
      </trkpt>
      <trkpt lat="45.32253" lon="5.93221">
        <ele>299</ele>
        <time>2013-05-12T17:46:50.000Z</time>
      </trkpt>
      <trkpt lat="45.32242" lon="5.93208">
        <ele>298</ele>
        <time>2013-05-12T17:46:52.000Z</time>
      </trkpt>
      <trkpt lat="45.32232" lon="5.93195">
        <ele>298</ele>
        <time>2013-05-12T17:46:54.000Z</time>
      </trkpt>
      <trkpt lat="45.3222" lon="5.93181">
        <ele>297</ele>
        <time>2013-05-12T17:46:56.000Z</time>
      </trkpt>
      <trkpt lat="45.3221" lon="5.93167">
        <ele>297</ele>
        <time>2013-05-12T17:46:58.000Z</time>
      </trkpt>
      <trkpt lat="45.32199" lon="5.93152">
        <ele>297</ele>
        <time>2013-05-12T17:47:00.000Z</time>
      </trkpt>
      <trkpt lat="45.32189" lon="5.93137">
        <ele>297</ele>
        <time>2013-05-12T17:47:02.000Z</time>
      </trkpt>
      <trkpt lat="45.32178" lon="5.93122">
        <ele>297</ele>
        <time>2013-05-12T17:47:04.000Z</time>
      </trkpt>
      <trkpt lat="45.32167" lon="5.93107">
        <ele>297</ele>
        <time>2013-05-12T17:47:06.000Z</time>
      </trkpt>
      <trkpt lat="45.32156" lon="5.93092">
        <ele>296</ele>
        <time>2013-05-12T17:47:08.000Z</time>
      </trkpt>
      <trkpt lat="45.32145" lon="5.93076">
        <ele>296</ele>
        <time>2013-05-12T17:47:10.000Z</time>
      </trkpt>
      <trkpt lat="45.32135" lon="5.93061">
        <ele>296</ele>
        <time>2013-05-12T17:47:12.000Z</time>
      </trkpt>
      <trkpt lat="45.32124" lon="5.93045">
        <ele>295</ele>
        <time>2013-05-12T17:47:14.000Z</time>
      </trkpt>
      <trkpt lat="45.32113" lon="5.9303">
        <ele>295</ele>
        <time>2013-05-12T17:47:16.000Z</time>
      </trkpt>
      <trkpt lat="45.32103" lon="5.93015">
        <ele>294</ele>
        <time>2013-05-12T17:47:18.000Z</time>
      </trkpt>
      <trkpt lat="45.32094" lon="5.93">
        <ele>294</ele>
        <time>2013-05-12T17:47:20.000Z</time>
      </trkpt>
      <trkpt lat="45.32084" lon="5.92986">
        <ele>293</ele>
        <time>2013-05-12T17:47:22.000Z</time>
      </trkpt>
      <trkpt lat="45.32075" lon="5.92972">
        <ele>292</ele>
        <time>2013-05-12T17:47:24.000Z</time>
      </trkpt>
      <trkpt lat="45.32065" lon="5.92959">
        <ele>292</ele>
        <time>2013-05-12T17:47:26.000Z</time>
      </trkpt>
      <trkpt lat="45.32056" lon="5.92946">
        <ele>293</ele>
        <time>2013-05-12T17:47:28.000Z</time>
      </trkpt>
      <trkpt lat="45.32048" lon="5.92933">
        <ele>293</ele>
        <time>2013-05-12T17:47:30.000Z</time>
      </trkpt>
      <trkpt lat="45.32039" lon="5.9292">
        <ele>293</ele>
        <time>2013-05-12T17:47:32.000Z</time>
      </trkpt>
      <trkpt lat="45.32031" lon="5.92908">
        <ele>293</ele>
        <time>2013-05-12T17:47:34.000Z</time>
      </trkpt>
      <trkpt lat="45.32023" lon="5.92895">
        <ele>293</ele>
        <time>2013-05-12T17:47:36.000Z</time>
      </trkpt>
      <trkpt lat="45.32015" lon="5.92884">
        <ele>293</ele>
        <time>2013-05-12T17:47:38.000Z</time>
      </trkpt>
      <trkpt lat="45.32008" lon="5.92872">
        <ele>293</ele>
        <time>2013-05-12T17:47:40.000Z</time>
      </trkpt>
      <trkpt lat="45.32" lon="5.92862">
        <ele>293</ele>
        <time>2013-05-12T17:47:42.000Z</time>
      </trkpt>
      <trkpt lat="45.31993" lon="5.92852">
        <ele>293</ele>
        <time>2013-05-12T17:47:44.000Z</time>
      </trkpt>
      <trkpt lat="45.31987" lon="5.92842">
        <ele>293</ele>
        <time>2013-05-12T17:47:46.000Z</time>
      </trkpt>
      <trkpt lat="45.31981" lon="5.92832">
        <ele>293</ele>
        <time>2013-05-12T17:47:48.000Z</time>
      </trkpt>
      <trkpt lat="45.31974" lon="5.92822">
        <ele>293</ele>
        <time>2013-05-12T17:47:50.000Z</time>
      </trkpt>
      <trkpt lat="45.31967" lon="5.92813">
        <ele>293</ele>
        <time>2013-05-12T17:47:52.000Z</time>
      </trkpt>
      <trkpt lat="45.31961" lon="5.92803">
        <ele>293</ele>
        <time>2013-05-12T17:47:54.000Z</time>
      </trkpt>
      <trkpt lat="45.31954" lon="5.92794">
        <ele>294</ele>
        <time>2013-05-12T17:47:56.000Z</time>
      </trkpt>
      <trkpt lat="45.31948" lon="5.92784">
        <ele>294</ele>
        <time>2013-05-12T17:47:58.000Z</time>
      </trkpt>
      <trkpt lat="45.31942" lon="5.92776">
        <ele>295</ele>
        <time>2013-05-12T17:48:00.000Z</time>
      </trkpt>
      <trkpt lat="45.31936" lon="5.92767">
        <ele>296</ele>
        <time>2013-05-12T17:48:02.000Z</time>
      </trkpt>
      <trkpt lat="45.31931" lon="5.92759">
        <ele>296</ele>
        <time>2013-05-12T17:48:04.000Z</time>
      </trkpt>
      <trkpt lat="45.31925" lon="5.92751">
        <ele>296</ele>
        <time>2013-05-12T17:48:06.000Z</time>
      </trkpt>
      <trkpt lat="45.3192" lon="5.92743">
        <ele>297</ele>
        <time>2013-05-12T17:48:08.000Z</time>
      </trkpt>
      <trkpt lat="45.31915" lon="5.92734">
        <ele>297</ele>
        <time>2013-05-12T17:48:10.000Z</time>
      </trkpt>
      <trkpt lat="45.31909" lon="5.92726">
        <ele>297</ele>
        <time>2013-05-12T17:48:12.000Z</time>
      </trkpt>
      <trkpt lat="45.31903" lon="5.92718">
        <ele>297</ele>
        <time>2013-05-12T17:48:14.000Z</time>
      </trkpt>
      <trkpt lat="45.31897" lon="5.9271">
        <ele>297</ele>
        <time>2013-05-12T17:48:16.000Z</time>
      </trkpt>
      <trkpt lat="45.31892" lon="5.92701">
        <ele>297</ele>
        <time>2013-05-12T17:48:18.000Z</time>
      </trkpt>
      <trkpt lat="45.31887" lon="5.92693">
        <ele>296</ele>
        <time>2013-05-12T17:48:20.000Z</time>
      </trkpt>
      <trkpt lat="45.31881" lon="5.92685">
        <ele>297</ele>
        <time>2013-05-12T17:48:22.000Z</time>
      </trkpt>
      <trkpt lat="45.31876" lon="5.92677">
        <ele>297</ele>
        <time>2013-05-12T17:48:24.000Z</time>
      </trkpt>
      <trkpt lat="45.31871" lon="5.92669">
        <ele>298</ele>
        <time>2013-05-12T17:48:26.000Z</time>
      </trkpt>
      <trkpt lat="45.31865" lon="5.9266">
        <ele>298</ele>
        <time>2013-05-12T17:48:28.000Z</time>
      </trkpt>
      <trkpt lat="45.3186" lon="5.92652">
        <ele>298</ele>
        <time>2013-05-12T17:48:30.000Z</time>
      </trkpt>
      <trkpt lat="45.31854" lon="5.92644">
        <ele>298</ele>
        <time>2013-05-12T17:48:32.000Z</time>
      </trkpt>
      <trkpt lat="45.31849" lon="5.92636">
        <ele>298</ele>
        <time>2013-05-12T17:48:34.000Z</time>
      </trkpt>
      <trkpt lat="45.31843" lon="5.92628">
        <ele>299</ele>
        <time>2013-05-12T17:48:36.000Z</time>
      </trkpt>
      <trkpt lat="45.31837" lon="5.9262">
        <ele>299</ele>
        <time>2013-05-12T17:48:38.000Z</time>
      </trkpt>
      <trkpt lat="45.3183" lon="5.92612">
        <ele>299</ele>
        <time>2013-05-12T17:48:40.000Z</time>
      </trkpt>
      <trkpt lat="45.31824" lon="5.92604">
        <ele>299</ele>
        <time>2013-05-12T17:48:42.000Z</time>
      </trkpt>
      <trkpt lat="45.31817" lon="5.92596">
        <ele>300</ele>
        <time>2013-05-12T17:48:44.000Z</time>
      </trkpt>
      <trkpt lat="45.3181" lon="5.92589">
        <ele>300</ele>
        <time>2013-05-12T17:48:46.000Z</time>
      </trkpt>
      <trkpt lat="45.31804" lon="5.92581">
        <ele>301</ele>
        <time>2013-05-12T17:48:48.000Z</time>
      </trkpt>
      <trkpt lat="45.31796" lon="5.92574">
        <ele>301</ele>
        <time>2013-05-12T17:48:50.000Z</time>
      </trkpt>
      <trkpt lat="45.31788" lon="5.92566">
        <ele>302</ele>
        <time>2013-05-12T17:48:52.000Z</time>
      </trkpt>
      <trkpt lat="45.3178" lon="5.92559">
        <ele>302</ele>
        <time>2013-05-12T17:48:54.000Z</time>
      </trkpt>
      <trkpt lat="45.31771" lon="5.92551">
        <ele>302</ele>
        <time>2013-05-12T17:48:56.000Z</time>
      </trkpt>
      <trkpt lat="45.31763" lon="5.92544">
        <ele>302</ele>
        <time>2013-05-12T17:48:58.000Z</time>
      </trkpt>
      <trkpt lat="45.31755" lon="5.92537">
        <ele>302</ele>
        <time>2013-05-12T17:49:00.000Z</time>
      </trkpt>
      <trkpt lat="45.31746" lon="5.9253">
        <ele>302</ele>
        <time>2013-05-12T17:49:02.000Z</time>
      </trkpt>
      <trkpt lat="45.31736" lon="5.92523">
        <ele>302</ele>
        <time>2013-05-12T17:49:04.000Z</time>
      </trkpt>
      <trkpt lat="45.31725" lon="5.92517">
        <ele>303</ele>
        <time>2013-05-12T17:49:06.000Z</time>
      </trkpt>
      <trkpt lat="45.31713" lon="5.92511">
        <ele>303</ele>
        <time>2013-05-12T17:49:08.000Z</time>
      </trkpt>
      <trkpt lat="45.31702" lon="5.92504">
        <ele>303</ele>
        <time>2013-05-12T17:49:10.000Z</time>
      </trkpt>
      <trkpt lat="45.3169" lon="5.92496">
        <ele>302</ele>
        <time>2013-05-12T17:49:12.000Z</time>
      </trkpt>
      <trkpt lat="45.31679" lon="5.92486">
        <ele>302</ele>
        <time>2013-05-12T17:49:14.000Z</time>
      </trkpt>
      <trkpt lat="45.31667" lon="5.92477">
        <ele>303</ele>
        <time>2013-05-12T17:49:16.000Z</time>
      </trkpt>
      <trkpt lat="45.31656" lon="5.92469">
        <ele>303</ele>
        <time>2013-05-12T17:49:18.000Z</time>
      </trkpt>
      <trkpt lat="45.31644" lon="5.92462">
        <ele>304</ele>
        <time>2013-05-12T17:49:20.000Z</time>
      </trkpt>
      <trkpt lat="45.31631" lon="5.92455">
        <ele>304</ele>
        <time>2013-05-12T17:49:22.000Z</time>
      </trkpt>
      <trkpt lat="45.3162" lon="5.92447">
        <ele>305</ele>
        <time>2013-05-12T17:49:24.000Z</time>
      </trkpt>
      <trkpt lat="45.31609" lon="5.92439">
        <ele>306</ele>
        <time>2013-05-12T17:49:26.000Z</time>
      </trkpt>
      <trkpt lat="45.31597" lon="5.92432">
        <ele>307</ele>
        <time>2013-05-12T17:49:28.000Z</time>
      </trkpt>
      <trkpt lat="45.31585" lon="5.92424">
        <ele>307</ele>
        <time>2013-05-12T17:49:30.000Z</time>
      </trkpt>
      <trkpt lat="45.31573" lon="5.92417">
        <ele>306</ele>
        <time>2013-05-12T17:49:32.000Z</time>
      </trkpt>
      <trkpt lat="45.31561" lon="5.9241">
        <ele>306</ele>
        <time>2013-05-12T17:49:34.000Z</time>
      </trkpt>
      <trkpt lat="45.31549" lon="5.92403">
        <ele>307</ele>
        <time>2013-05-12T17:49:36.000Z</time>
      </trkpt>
      <trkpt lat="45.31538" lon="5.92397">
        <ele>307</ele>
        <time>2013-05-12T17:49:38.000Z</time>
      </trkpt>
      <trkpt lat="45.31527" lon="5.9239">
        <ele>307</ele>
        <time>2013-05-12T17:49:40.000Z</time>
      </trkpt>
      <trkpt lat="45.31515" lon="5.92384">
        <ele>307</ele>
        <time>2013-05-12T17:49:42.000Z</time>
      </trkpt>
      <trkpt lat="45.31503" lon="5.92376">
        <ele>307</ele>
        <time>2013-05-12T17:49:44.000Z</time>
      </trkpt>
      <trkpt lat="45.3149" lon="5.92369">
        <ele>308</ele>
        <time>2013-05-12T17:49:46.000Z</time>
      </trkpt>
      <trkpt lat="45.31477" lon="5.92362">
        <ele>309</ele>
        <time>2013-05-12T17:49:48.000Z</time>
      </trkpt>
      <trkpt lat="45.31465" lon="5.92353">
        <ele>309</ele>
        <time>2013-05-12T17:49:50.000Z</time>
      </trkpt>
      <trkpt lat="45.31452" lon="5.92346">
        <ele>309</ele>
        <time>2013-05-12T17:49:52.000Z</time>
      </trkpt>
      <trkpt lat="45.3144" lon="5.92338">
        <ele>309</ele>
        <time>2013-05-12T17:49:54.000Z</time>
      </trkpt>
      <trkpt lat="45.31429" lon="5.92329">
        <ele>309</ele>
        <time>2013-05-12T17:49:56.000Z</time>
      </trkpt>
      <trkpt lat="45.31417" lon="5.92319">
        <ele>308</ele>
        <time>2013-05-12T17:49:58.000Z</time>
      </trkpt>
      <trkpt lat="45.31406" lon="5.9231">
        <ele>309</ele>
        <time>2013-05-12T17:50:00.000Z</time>
      </trkpt>
      <trkpt lat="45.31395" lon="5.92298">
        <ele>309</ele>
        <time>2013-05-12T17:50:02.000Z</time>
      </trkpt>
      <trkpt lat="45.31385" lon="5.92285">
        <ele>309</ele>
        <time>2013-05-12T17:50:04.000Z</time>
      </trkpt>
      <trkpt lat="45.31376" lon="5.92272">
        <ele>310</ele>
        <time>2013-05-12T17:50:06.000Z</time>
      </trkpt>
      <trkpt lat="45.31366" lon="5.92259">
        <ele>309</ele>
        <time>2013-05-12T17:50:08.000Z</time>
      </trkpt>
      <trkpt lat="45.31358" lon="5.92246">
        <ele>310</ele>
        <time>2013-05-12T17:50:10.000Z</time>
      </trkpt>
      <trkpt lat="45.3135" lon="5.92231">
        <ele>310</ele>
        <time>2013-05-12T17:50:12.000Z</time>
      </trkpt>
      <trkpt lat="45.31343" lon="5.92215">
        <ele>310</ele>
        <time>2013-05-12T17:50:14.000Z</time>
      </trkpt>
      <trkpt lat="45.31336" lon="5.92199">
        <ele>311</ele>
        <time>2013-05-12T17:50:16.000Z</time>
      </trkpt>
      <trkpt lat="45.31329" lon="5.92184">
        <ele>311</ele>
        <time>2013-05-12T17:50:18.000Z</time>
      </trkpt>
      <trkpt lat="45.31322" lon="5.92169">
        <ele>311</ele>
        <time>2013-05-12T17:50:20.000Z</time>
      </trkpt>
      <trkpt lat="45.31316" lon="5.92153">
        <ele>310</ele>
        <time>2013-05-12T17:50:22.000Z</time>
      </trkpt>
      <trkpt lat="45.31308" lon="5.92137">
        <ele>311</ele>
        <time>2013-05-12T17:50:24.000Z</time>
      </trkpt>
      <trkpt lat="45.313" lon="5.92121">
        <ele>311</ele>
        <time>2013-05-12T17:50:26.000Z</time>
      </trkpt>
      <trkpt lat="45.31292" lon="5.92105">
        <ele>311</ele>
        <time>2013-05-12T17:50:28.000Z</time>
      </trkpt>
      <trkpt lat="45.31284" lon="5.92089">
        <ele>311</ele>
        <time>2013-05-12T17:50:30.000Z</time>
      </trkpt>
      <trkpt lat="45.31277" lon="5.92073">
        <ele>311</ele>
        <time>2013-05-12T17:50:32.000Z</time>
      </trkpt>
      <trkpt lat="45.31269" lon="5.92058">
        <ele>311</ele>
        <time>2013-05-12T17:50:34.000Z</time>
      </trkpt>
      <trkpt lat="45.31261" lon="5.92042">
        <ele>310</ele>
        <time>2013-05-12T17:50:36.000Z</time>
      </trkpt>
      <trkpt lat="45.31255" lon="5.92026">
        <ele>310</ele>
        <time>2013-05-12T17:50:38.000Z</time>
      </trkpt>
      <trkpt lat="45.31247" lon="5.92011">
        <ele>310</ele>
        <time>2013-05-12T17:50:40.000Z</time>
      </trkpt>
      <trkpt lat="45.3124" lon="5.91994">
        <ele>310</ele>
        <time>2013-05-12T17:50:42.000Z</time>
      </trkpt>
      <trkpt lat="45.31233" lon="5.91978">
        <ele>310</ele>
        <time>2013-05-12T17:50:44.000Z</time>
      </trkpt>
      <trkpt lat="45.31225" lon="5.91963">
        <ele>309</ele>
        <time>2013-05-12T17:50:46.000Z</time>
      </trkpt>
      <trkpt lat="45.31215" lon="5.91949">
        <ele>309</ele>
        <time>2013-05-12T17:50:48.000Z</time>
      </trkpt>
      <trkpt lat="45.31204" lon="5.91934">
        <ele>309</ele>
        <time>2013-05-12T17:50:50.000Z</time>
      </trkpt>
      <trkpt lat="45.31193" lon="5.9192">
        <ele>309</ele>
        <time>2013-05-12T17:50:52.000Z</time>
      </trkpt>
      <trkpt lat="45.31182" lon="5.91905">
        <ele>309</ele>
        <time>2013-05-12T17:50:54.000Z</time>
      </trkpt>
      <trkpt lat="45.31171" lon="5.9189">
        <ele>308</ele>
        <time>2013-05-12T17:50:56.000Z</time>
      </trkpt>
      <trkpt lat="45.3116" lon="5.91876">
        <ele>307</ele>
        <time>2013-05-12T17:50:58.000Z</time>
      </trkpt>
      <trkpt lat="45.31149" lon="5.91861">
        <ele>307</ele>
        <time>2013-05-12T17:51:00.000Z</time>
      </trkpt>
      <trkpt lat="45.31138" lon="5.91847">
        <ele>307</ele>
        <time>2013-05-12T17:51:02.000Z</time>
      </trkpt>
      <trkpt lat="45.31126" lon="5.91832">
        <ele>307</ele>
        <time>2013-05-12T17:51:04.000Z</time>
      </trkpt>
      <trkpt lat="45.31115" lon="5.91816">
        <ele>307</ele>
        <time>2013-05-12T17:51:06.000Z</time>
      </trkpt>
      <trkpt lat="45.31103" lon="5.918">
        <ele>306</ele>
        <time>2013-05-12T17:51:08.000Z</time>
      </trkpt>
      <trkpt lat="45.31091" lon="5.91783">
        <ele>306</ele>
        <time>2013-05-12T17:51:10.000Z</time>
      </trkpt>
      <trkpt lat="45.31078" lon="5.91767">
        <ele>305</ele>
        <time>2013-05-12T17:51:12.000Z</time>
      </trkpt>
      <trkpt lat="45.31065" lon="5.9175">
        <ele>305</ele>
        <time>2013-05-12T17:51:14.000Z</time>
      </trkpt>
      <trkpt lat="45.31053" lon="5.91734">
        <ele>304</ele>
        <time>2013-05-12T17:51:16.000Z</time>
      </trkpt>
      <trkpt lat="45.3104" lon="5.91717">
        <ele>304</ele>
        <time>2013-05-12T17:51:18.000Z</time>
      </trkpt>
      <trkpt lat="45.31027" lon="5.917">
        <ele>303</ele>
        <time>2013-05-12T17:51:20.000Z</time>
      </trkpt>
      <trkpt lat="45.31013" lon="5.91682">
        <ele>303</ele>
        <time>2013-05-12T17:51:22.000Z</time>
      </trkpt>
      <trkpt lat="45.31001" lon="5.91665">
        <ele>302</ele>
        <time>2013-05-12T17:51:24.000Z</time>
      </trkpt>
      <trkpt lat="45.30988" lon="5.91646">
        <ele>301</ele>
        <time>2013-05-12T17:51:26.000Z</time>
      </trkpt>
      <trkpt lat="45.30975" lon="5.91629">
        <ele>300</ele>
        <time>2013-05-12T17:51:28.000Z</time>
      </trkpt>
      <trkpt lat="45.30962" lon="5.91611">
        <ele>300</ele>
        <time>2013-05-12T17:51:30.000Z</time>
      </trkpt>
      <trkpt lat="45.30948" lon="5.91594">
        <ele>299</ele>
        <time>2013-05-12T17:51:32.000Z</time>
      </trkpt>
      <trkpt lat="45.30935" lon="5.91576">
        <ele>299</ele>
        <time>2013-05-12T17:51:34.000Z</time>
      </trkpt>
      <trkpt lat="45.30921" lon="5.91559">
        <ele>299</ele>
        <time>2013-05-12T17:51:36.000Z</time>
      </trkpt>
      <trkpt lat="45.30909" lon="5.91542">
        <ele>299</ele>
        <time>2013-05-12T17:51:38.000Z</time>
      </trkpt>
      <trkpt lat="45.30896" lon="5.91525">
        <ele>297</ele>
        <time>2013-05-12T17:51:40.000Z</time>
      </trkpt>
      <trkpt lat="45.30883" lon="5.91508">
        <ele>296</ele>
        <time>2013-05-12T17:51:42.000Z</time>
      </trkpt>
      <trkpt lat="45.30869" lon="5.91491">
        <ele>294</ele>
        <time>2013-05-12T17:51:44.000Z</time>
      </trkpt>
      <trkpt lat="45.30857" lon="5.91473">
        <ele>295</ele>
        <time>2013-05-12T17:51:46.000Z</time>
      </trkpt>
      <trkpt lat="45.30846" lon="5.91455">
        <ele>294</ele>
        <time>2013-05-12T17:51:48.000Z</time>
      </trkpt>
      <trkpt lat="45.30834" lon="5.91439">
        <ele>294</ele>
        <time>2013-05-12T17:51:50.000Z</time>
      </trkpt>
      <trkpt lat="45.30825" lon="5.91424">
        <ele>293</ele>
        <time>2013-05-12T17:51:52.000Z</time>
      </trkpt>
      <trkpt lat="45.30816" lon="5.91413">
        <ele>292</ele>
        <time>2013-05-12T17:51:54.000Z</time>
      </trkpt>
      <trkpt lat="45.30816" lon="5.91413">
        <ele>292</ele>
        <time>2013-05-12T17:51:56.000Z</time>
      </trkpt>
      <trkpt lat="45.30811" lon="5.91396">
        <ele>292</ele>
        <time>2013-05-12T17:51:58.000Z</time>
      </trkpt>
      <trkpt lat="45.30811" lon="5.91396">
        <ele>292</ele>
        <time>2013-05-12T17:52:00.000Z</time>
      </trkpt>
      <trkpt lat="45.3082" lon="5.91384">
        <ele>292</ele>
        <time>2013-05-12T17:52:02.000Z</time>
      </trkpt>
      <trkpt lat="45.3082" lon="5.91384">
        <ele>292</ele>
        <time>2013-05-12T17:52:04.000Z</time>
      </trkpt>
      <trkpt lat="45.30829" lon="5.91372">
        <ele>293</ele>
        <time>2013-05-12T17:52:06.000Z</time>
      </trkpt>
      <trkpt lat="45.30829" lon="5.91372">
        <ele>293</ele>
        <time>2013-05-12T17:52:08.000Z</time>
      </trkpt>
      <trkpt lat="45.30836" lon="5.91359">
        <ele>293</ele>
        <time>2013-05-12T17:52:10.000Z</time>
      </trkpt>
      <trkpt lat="45.30836" lon="5.91359">
        <ele>293</ele>
        <time>2013-05-12T17:52:12.000Z</time>
      </trkpt>
      <trkpt lat="45.30832" lon="5.91346">
        <ele>294</ele>
        <time>2013-05-12T17:52:14.000Z</time>
      </trkpt>
      <trkpt lat="45.30822" lon="5.91334">
        <ele>295</ele>
        <time>2013-05-12T17:52:18.000Z</time>
      </trkpt>
      <trkpt lat="45.3081" lon="5.91322">
        <ele>296</ele>
        <time>2013-05-12T17:52:22.000Z</time>
      </trkpt>
      <trkpt lat="45.30799" lon="5.91306">
        <ele>296</ele>
        <time>2013-05-12T17:52:26.000Z</time>
      </trkpt>
      <trkpt lat="45.30799" lon="5.91306">
        <ele>296</ele>
        <time>2013-05-12T17:52:28.000Z</time>
      </trkpt>
      <trkpt lat="45.30798" lon="5.91285">
        <ele>297</ele>
        <time>2013-05-12T17:52:30.000Z</time>
      </trkpt>
      <trkpt lat="45.30798" lon="5.91285">
        <ele>297</ele>
        <time>2013-05-12T17:52:32.000Z</time>
      </trkpt>
      <trkpt lat="45.30794" lon="5.91266">
        <ele>298</ele>
        <time>2013-05-12T17:52:34.000Z</time>
      </trkpt>
      <trkpt lat="45.3079" lon="5.91258">
        <ele>298</ele>
        <time>2013-05-12T17:52:36.000Z</time>
      </trkpt>
      <trkpt lat="45.3079" lon="5.91258">
        <ele>298</ele>
        <time>2013-05-12T17:52:38.000Z</time>
      </trkpt>
      <trkpt lat="45.30784" lon="5.91244">
        <ele>299</ele>
        <time>2013-05-12T17:52:40.000Z</time>
      </trkpt>
      <trkpt lat="45.30784" lon="5.91244">
        <ele>299</ele>
        <time>2013-05-12T17:52:42.000Z</time>
      </trkpt>
      <trkpt lat="45.30784" lon="5.91244">
        <ele>299</ele>
        <time>2013-05-12T17:52:44.000Z</time>
      </trkpt>
    </trkseg>
  </trk>
</gpx>